<?xml version="1.0" encoding="UTF-8"?>
<gpx xmlns="http://www.topografix.com/GPX/1/1" xmlns:xsi="http://www.w3.org/2001/XMLSchema-instance" version="1.1" xsi:schemaLocation="http://www.topografix.com/GPX/1/1 http://www.topografix.com/GPX/1/1/gpx.xsd">
  <metadata>
    <name>Infinitri 113 Triathlon Peñíscola</name>
  </metadata>
  <trk>
    <name>Infinitri 113 Triathlon Peñíscola</name>
    <trkseg>
      <trkpt lat="40.35851" lon="0.403283">
        <ele>1.039072</ele>
        <time>2024-10-06T09:16:00.000Z</time>
      </trkpt>
      <trkpt lat="40.358617" lon="0.402855">
        <ele>1.039073</ele>
        <time>2024-10-06T09:16:04.000Z</time>
      </trkpt>
      <trkpt lat="40.358708" lon="0.402391">
        <ele>1.039068</ele>
        <time>2024-10-06T09:16:08.000Z</time>
      </trkpt>
      <trkpt lat="40.358769" lon="0.401739">
        <ele>1.213639</ele>
        <time>2024-10-06T09:16:14.000Z</time>
      </trkpt>
      <trkpt lat="40.35876" lon="0.401578">
        <ele>1.277924</ele>
        <time>2024-10-06T09:16:15.000Z</time>
      </trkpt>
      <trkpt lat="40.358731" lon="0.401012">
        <ele>1.513738</ele>
        <time>2024-10-06T09:16:20.000Z</time>
      </trkpt>
      <trkpt lat="40.358598" lon="0.400295">
        <ele>1.817661</ele>
        <time>2024-10-06T09:16:26.000Z</time>
      </trkpt>
      <trkpt lat="40.358598" lon="0.400107">
        <ele>1.898097</ele>
        <time>2024-10-06T09:16:28.000Z</time>
      </trkpt>
      <trkpt lat="40.358606" lon="0.399914">
        <ele>1.977575</ele>
        <time>2024-10-06T09:16:30.000Z</time>
      </trkpt>
      <trkpt lat="40.358705" lon="0.399941">
        <ele>2.04016</ele>
        <time>2024-10-06T09:16:31.000Z</time>
      </trkpt>
      <trkpt lat="40.358841" lon="0.399953">
        <ele>2.147885</ele>
        <time>2024-10-06T09:16:33.000Z</time>
      </trkpt>
      <trkpt lat="40.358862" lon="0.399929">
        <ele>2.170282</ele>
        <time>2024-10-06T09:16:33.000Z</time>
      </trkpt>
      <trkpt lat="40.358998" lon="0.399785">
        <ele>2.320765</ele>
        <time>2024-10-06T09:16:35.000Z</time>
      </trkpt>
      <trkpt lat="40.359037" lon="0.399678">
        <ele>2.393203</ele>
        <time>2024-10-06T09:16:36.000Z</time>
      </trkpt>
      <trkpt lat="40.359051" lon="0.399524">
        <ele>2.498259</ele>
        <time>2024-10-06T09:16:37.000Z</time>
      </trkpt>
      <trkpt lat="40.359024" lon="0.39937">
        <ele>2.600789</ele>
        <time>2024-10-06T09:16:38.000Z</time>
      </trkpt>
      <trkpt lat="40.358935" lon="0.399234">
        <ele>2.710363</ele>
        <time>2024-10-06T09:16:40.000Z</time>
      </trkpt>
      <trkpt lat="40.358914" lon="0.399048">
        <ele>2.82896</ele>
        <time>2024-10-06T09:16:42.000Z</time>
      </trkpt>
      <trkpt lat="40.358902" lon="0.398981">
        <ele>2.881242</ele>
        <time>2024-10-06T09:16:43.000Z</time>
      </trkpt>
      <trkpt lat="40.358985" lon="0.398687">
        <ele>3.074829</ele>
        <time>2024-10-06T09:16:46.000Z</time>
      </trkpt>
      <trkpt lat="40.359262" lon="0.398315">
        <ele>3.406808</ele>
        <time>2024-10-06T09:16:50.000Z</time>
      </trkpt>
      <trkpt lat="40.359278" lon="0.39828">
        <ele>3.433632</ele>
        <time>2024-10-06T09:16:50.000Z</time>
      </trkpt>
      <trkpt lat="40.359496" lon="0.398125">
        <ele>3.652945</ele>
        <time>2024-10-06T09:16:53.000Z</time>
      </trkpt>
      <trkpt lat="40.359544" lon="0.398048">
        <ele>3.717791</ele>
        <time>2024-10-06T09:16:54.000Z</time>
      </trkpt>
      <trkpt lat="40.359703" lon="0.397854">
        <ele>3.910776</ele>
        <time>2024-10-06T09:16:56.000Z</time>
      </trkpt>
      <trkpt lat="40.359866" lon="0.397718">
        <ele>4.088677</ele>
        <time>2024-10-06T09:16:58.000Z</time>
      </trkpt>
      <trkpt lat="40.359869" lon="0.397684">
        <ele>4.112196</ele>
        <time>2024-10-06T09:16:58.000Z</time>
      </trkpt>
      <trkpt lat="40.360509" lon="0.397304">
        <ele>4.737098</ele>
        <time>2024-10-06T09:17:06.000Z</time>
      </trkpt>
      <trkpt lat="40.360576" lon="0.397249">
        <ele>4.811078</ele>
        <time>2024-10-06T09:17:07.000Z</time>
      </trkpt>
      <trkpt lat="40.361226" lon="0.396863">
        <ele>5.406476</ele>
        <time>2024-10-06T09:17:15.000Z</time>
      </trkpt>
      <trkpt lat="40.361689" lon="0.396594">
        <ele>5.785323</ele>
        <time>2024-10-06T09:17:21.000Z</time>
      </trkpt>
      <trkpt lat="40.362634" lon="0.396054">
        <ele>6.566952</ele>
        <time>2024-10-06T09:17:32.000Z</time>
      </trkpt>
      <trkpt lat="40.36274" lon="0.395979">
        <ele>6.672545</ele>
        <time>2024-10-06T09:17:33.000Z</time>
      </trkpt>
      <trkpt lat="40.362807" lon="0.39595">
        <ele>6.74617</ele>
        <time>2024-10-06T09:17:34.000Z</time>
      </trkpt>
      <trkpt lat="40.363762" lon="0.395384">
        <ele>7.669438</ele>
        <time>2024-10-06T09:17:46.000Z</time>
      </trkpt>
      <trkpt lat="40.363921" lon="0.395327">
        <ele>7.800487</ele>
        <time>2024-10-06T09:17:48.000Z</time>
      </trkpt>
      <trkpt lat="40.364296" lon="0.395227">
        <ele>8.149497</ele>
        <time>2024-10-06T09:17:52.000Z</time>
      </trkpt>
      <trkpt lat="40.364441" lon="0.395188">
        <ele>8.325962</ele>
        <time>2024-10-06T09:17:54.000Z</time>
      </trkpt>
      <trkpt lat="40.364777" lon="0.395089">
        <ele>8.748238</ele>
        <time>2024-10-06T09:17:58.000Z</time>
      </trkpt>
      <trkpt lat="40.364903" lon="0.395101">
        <ele>8.881704</ele>
        <time>2024-10-06T09:17:59.000Z</time>
      </trkpt>
      <trkpt lat="40.364957" lon="0.395176">
        <ele>8.987502</ele>
        <time>2024-10-06T09:18:00.000Z</time>
      </trkpt>
      <trkpt lat="40.36506" lon="0.395179">
        <ele>9.101849</ele>
        <time>2024-10-06T09:18:01.000Z</time>
      </trkpt>
      <trkpt lat="40.365175" lon="0.395105">
        <ele>9.251642</ele>
        <time>2024-10-06T09:18:02.000Z</time>
      </trkpt>
      <trkpt lat="40.365201" lon="0.395041">
        <ele>9.327633</ele>
        <time>2024-10-06T09:18:03.000Z</time>
      </trkpt>
      <trkpt lat="40.365324" lon="0.395012">
        <ele>9.474223</ele>
        <time>2024-10-06T09:18:04.000Z</time>
      </trkpt>
      <trkpt lat="40.365448" lon="0.394993">
        <ele>9.614789</ele>
        <time>2024-10-06T09:18:05.000Z</time>
      </trkpt>
      <trkpt lat="40.366735" lon="0.394188">
        <ele>11.287479</ele>
        <time>2024-10-06T09:18:21.000Z</time>
      </trkpt>
      <trkpt lat="40.367386" lon="0.393773">
        <ele>12.127949</ele>
        <time>2024-10-06T09:18:29.000Z</time>
      </trkpt>
      <trkpt lat="40.367387" lon="0.393787">
        <ele>12.144368</ele>
        <time>2024-10-06T09:18:29.000Z</time>
      </trkpt>
      <trkpt lat="40.367543" lon="0.39376">
        <ele>12.311865</ele>
        <time>2024-10-06T09:18:31.000Z</time>
      </trkpt>
      <trkpt lat="40.367633" lon="0.393828">
        <ele>12.371008</ele>
        <time>2024-10-06T09:18:32.000Z</time>
      </trkpt>
      <trkpt lat="40.367761" lon="0.393839">
        <ele>12.417441</ele>
        <time>2024-10-06T09:18:33.000Z</time>
      </trkpt>
      <trkpt lat="40.367899" lon="0.393765">
        <ele>12.47253</ele>
        <time>2024-10-06T09:18:35.000Z</time>
      </trkpt>
      <trkpt lat="40.367954" lon="0.393665">
        <ele>12.503259</ele>
        <time>2024-10-06T09:18:36.000Z</time>
      </trkpt>
      <trkpt lat="40.367971" lon="0.393562">
        <ele>12.534244</ele>
        <time>2024-10-06T09:18:37.000Z</time>
      </trkpt>
      <trkpt lat="40.367985" lon="0.393435">
        <ele>12.568055</ele>
        <time>2024-10-06T09:18:38.000Z</time>
      </trkpt>
      <trkpt lat="40.368049" lon="0.393331">
        <ele>12.602381</ele>
        <time>2024-10-06T09:18:39.000Z</time>
      </trkpt>
      <trkpt lat="40.368273" lon="0.393179">
        <ele>12.691229</ele>
        <time>2024-10-06T09:18:42.000Z</time>
      </trkpt>
      <trkpt lat="40.368278" lon="0.393178">
        <ele>12.698555</ele>
        <time>2024-10-06T09:18:42.000Z</time>
      </trkpt>
      <trkpt lat="40.368456" lon="0.393087">
        <ele>12.760484</ele>
        <time>2024-10-06T09:18:44.000Z</time>
      </trkpt>
      <trkpt lat="40.368903" lon="0.392826">
        <ele>12.935132</ele>
        <time>2024-10-06T09:18:49.000Z</time>
      </trkpt>
      <trkpt lat="40.369326" lon="0.392599">
        <ele>13.377351</ele>
        <time>2024-10-06T09:18:54.000Z</time>
      </trkpt>
      <trkpt lat="40.3699" lon="0.39227">
        <ele>14.142882</ele>
        <time>2024-10-06T09:19:01.000Z</time>
      </trkpt>
      <trkpt lat="40.370251" lon="0.392072">
        <ele>14.58525</ele>
        <time>2024-10-06T09:19:05.000Z</time>
      </trkpt>
      <trkpt lat="40.370495" lon="0.391946">
        <ele>14.920399</ele>
        <time>2024-10-06T09:19:08.000Z</time>
      </trkpt>
      <trkpt lat="40.370926" lon="0.391703">
        <ele>15.748281</ele>
        <time>2024-10-06T09:19:13.000Z</time>
      </trkpt>
      <trkpt lat="40.371989" lon="0.39112">
        <ele>18.235155</ele>
        <time>2024-10-06T09:19:26.000Z</time>
      </trkpt>
      <trkpt lat="40.37209" lon="0.391064">
        <ele>18.49245</ele>
        <time>2024-10-06T09:19:27.000Z</time>
      </trkpt>
      <trkpt lat="40.372139" lon="0.39103">
        <ele>18.619778</ele>
        <time>2024-10-06T09:19:28.000Z</time>
      </trkpt>
      <trkpt lat="40.37221" lon="0.390994">
        <ele>18.76103</ele>
        <time>2024-10-06T09:19:29.000Z</time>
      </trkpt>
      <trkpt lat="40.372428" lon="0.390881">
        <ele>19.217434</ele>
        <time>2024-10-06T09:19:32.000Z</time>
      </trkpt>
      <trkpt lat="40.373679" lon="0.390174">
        <ele>21.195155</ele>
        <time>2024-10-06T09:19:47.000Z</time>
      </trkpt>
      <trkpt lat="40.374629" lon="0.389644">
        <ele>22.451789</ele>
        <time>2024-10-06T09:19:58.000Z</time>
      </trkpt>
      <trkpt lat="40.375341" lon="0.389267">
        <ele>23.298703</ele>
        <time>2024-10-06T09:20:07.000Z</time>
      </trkpt>
      <trkpt lat="40.375836" lon="0.389011">
        <ele>23.946247</ele>
        <time>2024-10-06T09:20:13.000Z</time>
      </trkpt>
      <trkpt lat="40.376433" lon="0.388782">
        <ele>24.800662</ele>
        <time>2024-10-06T09:20:20.000Z</time>
      </trkpt>
      <trkpt lat="40.376717" lon="0.388681">
        <ele>25.205072</ele>
        <time>2024-10-06T09:20:23.000Z</time>
      </trkpt>
      <trkpt lat="40.376757" lon="0.388657">
        <ele>25.260104</ele>
        <time>2024-10-06T09:20:23.000Z</time>
      </trkpt>
      <trkpt lat="40.377465" lon="0.388401">
        <ele>26.289028</ele>
        <time>2024-10-06T09:20:31.000Z</time>
      </trkpt>
      <trkpt lat="40.378273" lon="0.388049">
        <ele>27.839275</ele>
        <time>2024-10-06T09:20:40.000Z</time>
      </trkpt>
      <trkpt lat="40.378459" lon="0.388045">
        <ele>28.193904</ele>
        <time>2024-10-06T09:20:42.000Z</time>
      </trkpt>
      <trkpt lat="40.37853" lon="0.388107">
        <ele>28.354335</ele>
        <time>2024-10-06T09:20:43.000Z</time>
      </trkpt>
      <trkpt lat="40.378626" lon="0.388099">
        <ele>28.510804</ele>
        <time>2024-10-06T09:20:44.000Z</time>
      </trkpt>
      <trkpt lat="40.378696" lon="0.388007">
        <ele>28.699952</ele>
        <time>2024-10-06T09:20:45.000Z</time>
      </trkpt>
      <trkpt lat="40.378727" lon="0.387936">
        <ele>28.814078</ele>
        <time>2024-10-06T09:20:46.000Z</time>
      </trkpt>
      <trkpt lat="40.378912" lon="0.387606">
        <ele>29.388833</ele>
        <time>2024-10-06T09:20:49.000Z</time>
      </trkpt>
      <trkpt lat="40.379136" lon="0.38725">
        <ele>29.874509</ele>
        <time>2024-10-06T09:20:53.000Z</time>
      </trkpt>
      <trkpt lat="40.380343" lon="0.386059">
        <ele>31.926534</ele>
        <time>2024-10-06T09:21:10.000Z</time>
      </trkpt>
      <trkpt lat="40.380611" lon="0.385789">
        <ele>32.089749</ele>
        <time>2024-10-06T09:21:14.000Z</time>
      </trkpt>
      <trkpt lat="40.381435" lon="0.384998">
        <ele>32.599873</ele>
        <time>2024-10-06T09:21:25.000Z</time>
      </trkpt>
      <trkpt lat="40.381788" lon="0.38466">
        <ele>32.861033</ele>
        <time>2024-10-06T09:21:30.000Z</time>
      </trkpt>
      <trkpt lat="40.381895" lon="0.384556">
        <ele>33.041722</ele>
        <time>2024-10-06T09:21:31.000Z</time>
      </trkpt>
      <trkpt lat="40.382359" lon="0.3841">
        <ele>33.786032</ele>
        <time>2024-10-06T09:21:37.000Z</time>
      </trkpt>
      <trkpt lat="40.386791" lon="0.379867">
        <ele>42.020504</ele>
        <time>2024-10-06T09:22:38.000Z</time>
      </trkpt>
      <trkpt lat="40.387417" lon="0.37926">
        <ele>43.543674</ele>
        <time>2024-10-06T09:22:47.000Z</time>
      </trkpt>
      <trkpt lat="40.38856" lon="0.378177">
        <ele>46.58034</ele>
        <time>2024-10-06T09:23:03.000Z</time>
      </trkpt>
      <trkpt lat="40.389372" lon="0.377392">
        <ele>48.456095</ele>
        <time>2024-10-06T09:23:14.000Z</time>
      </trkpt>
      <trkpt lat="40.390092" lon="0.376702">
        <ele>49.810501</ele>
        <time>2024-10-06T09:23:24.000Z</time>
      </trkpt>
      <trkpt lat="40.391116" lon="0.375722">
        <ele>50.535768</ele>
        <time>2024-10-06T09:23:38.000Z</time>
      </trkpt>
      <trkpt lat="40.391676" lon="0.375172">
        <ele>50.553063</ele>
        <time>2024-10-06T09:23:46.000Z</time>
      </trkpt>
      <trkpt lat="40.391709" lon="0.375134">
        <ele>50.554064</ele>
        <time>2024-10-06T09:23:46.000Z</time>
      </trkpt>
      <trkpt lat="40.392208" lon="0.374634">
        <ele>50.243053</ele>
        <time>2024-10-06T09:23:53.000Z</time>
      </trkpt>
      <trkpt lat="40.392442" lon="0.374333">
        <ele>49.967109</ele>
        <time>2024-10-06T09:23:57.000Z</time>
      </trkpt>
      <trkpt lat="40.392676" lon="0.373939">
        <ele>49.645702</ele>
        <time>2024-10-06T09:24:01.000Z</time>
      </trkpt>
      <trkpt lat="40.392937" lon="0.373433">
        <ele>49.251413</ele>
        <time>2024-10-06T09:24:06.000Z</time>
      </trkpt>
      <trkpt lat="40.393506" lon="0.371917">
        <ele>48.419995</ele>
        <time>2024-10-06T09:24:20.000Z</time>
      </trkpt>
      <trkpt lat="40.393863" lon="0.370974">
        <ele>47.951984</ele>
        <time>2024-10-06T09:24:29.000Z</time>
      </trkpt>
      <trkpt lat="40.394932" lon="0.368133">
        <ele>47.171669</ele>
        <time>2024-10-06T09:24:56.000Z</time>
      </trkpt>
      <trkpt lat="40.395276" lon="0.367218">
        <ele>46.912794</ele>
        <time>2024-10-06T09:25:05.000Z</time>
      </trkpt>
      <trkpt lat="40.395829" lon="0.365704">
        <ele>46.724193</ele>
        <time>2024-10-06T09:25:19.000Z</time>
      </trkpt>
      <trkpt lat="40.395962" lon="0.365221">
        <ele>46.695761</ele>
        <time>2024-10-06T09:25:23.000Z</time>
      </trkpt>
      <trkpt lat="40.396039" lon="0.364463">
        <ele>46.770335</ele>
        <time>2024-10-06T09:25:29.000Z</time>
      </trkpt>
      <trkpt lat="40.396034" lon="0.364063">
        <ele>47.142716</ele>
        <time>2024-10-06T09:25:32.000Z</time>
      </trkpt>
      <trkpt lat="40.395998" lon="0.363688">
        <ele>47.511067</ele>
        <time>2024-10-06T09:25:35.000Z</time>
      </trkpt>
      <trkpt lat="40.39591" lon="0.363275">
        <ele>47.917986</ele>
        <time>2024-10-06T09:25:39.000Z</time>
      </trkpt>
      <trkpt lat="40.395697" lon="0.36258">
        <ele>48.619338</ele>
        <time>2024-10-06T09:25:45.000Z</time>
      </trkpt>
      <trkpt lat="40.395507" lon="0.362238">
        <ele>49.114018</ele>
        <time>2024-10-06T09:25:49.000Z</time>
      </trkpt>
      <trkpt lat="40.395332" lon="0.361955">
        <ele>49.748103</ele>
        <time>2024-10-06T09:25:52.000Z</time>
      </trkpt>
      <trkpt lat="40.395125" lon="0.361698">
        <ele>50.383304</ele>
        <time>2024-10-06T09:25:55.000Z</time>
      </trkpt>
      <trkpt lat="40.394868" lon="0.361426">
        <ele>51.119416</ele>
        <time>2024-10-06T09:25:59.000Z</time>
      </trkpt>
      <trkpt lat="40.39463" lon="0.36122">
        <ele>51.74795</ele>
        <time>2024-10-06T09:26:02.000Z</time>
      </trkpt>
      <trkpt lat="40.393784" lon="0.360655">
        <ele>53.496818</ele>
        <time>2024-10-06T09:26:13.000Z</time>
      </trkpt>
      <trkpt lat="40.393498" lon="0.360325">
        <ele>54.026233</ele>
        <time>2024-10-06T09:26:17.000Z</time>
      </trkpt>
      <trkpt lat="40.393344" lon="0.360063">
        <ele>54.364894</ele>
        <time>2024-10-06T09:26:20.000Z</time>
      </trkpt>
      <trkpt lat="40.393235" lon="0.359722">
        <ele>54.736231</ele>
        <time>2024-10-06T09:26:23.000Z</time>
      </trkpt>
      <trkpt lat="40.3932" lon="0.359425">
        <ele>55.064128</ele>
        <time>2024-10-06T09:26:26.000Z</time>
      </trkpt>
      <trkpt lat="40.393179" lon="0.359065">
        <ele>55.320195</ele>
        <time>2024-10-06T09:26:29.000Z</time>
      </trkpt>
      <trkpt lat="40.393218" lon="0.358724">
        <ele>55.109781</ele>
        <time>2024-10-06T09:26:32.000Z</time>
      </trkpt>
      <trkpt lat="40.393289" lon="0.358492">
        <ele>54.94688</ele>
        <time>2024-10-06T09:26:34.000Z</time>
      </trkpt>
      <trkpt lat="40.393548" lon="0.358117">
        <ele>54.630136</ele>
        <time>2024-10-06T09:26:38.000Z</time>
      </trkpt>
      <trkpt lat="40.393713" lon="0.358034">
        <ele>54.498764</ele>
        <time>2024-10-06T09:26:40.000Z</time>
      </trkpt>
      <trkpt lat="40.393844" lon="0.358049">
        <ele>54.388675</ele>
        <time>2024-10-06T09:26:41.000Z</time>
      </trkpt>
      <trkpt lat="40.393904" lon="0.358167">
        <ele>54.301017</ele>
        <time>2024-10-06T09:26:42.000Z</time>
      </trkpt>
      <trkpt lat="40.394009" lon="0.358247">
        <ele>54.207446</ele>
        <time>2024-10-06T09:26:43.000Z</time>
      </trkpt>
      <trkpt lat="40.394034" lon="0.35828">
        <ele>54.174281</ele>
        <time>2024-10-06T09:26:43.000Z</time>
      </trkpt>
      <trkpt lat="40.394232" lon="0.35835">
        <ele>54.007849</ele>
        <time>2024-10-06T09:26:45.000Z</time>
      </trkpt>
      <trkpt lat="40.394429" lon="0.358322">
        <ele>53.824104</ele>
        <time>2024-10-06T09:26:47.000Z</time>
      </trkpt>
      <trkpt lat="40.39461" lon="0.358216">
        <ele>53.590927</ele>
        <time>2024-10-06T09:26:49.000Z</time>
      </trkpt>
      <trkpt lat="40.394746" lon="0.358027">
        <ele>53.357275</ele>
        <time>2024-10-06T09:26:51.000Z</time>
      </trkpt>
      <trkpt lat="40.394818" lon="0.357778">
        <ele>53.123247</ele>
        <time>2024-10-06T09:26:53.000Z</time>
      </trkpt>
      <trkpt lat="40.394843" lon="0.35758">
        <ele>52.953205</ele>
        <time>2024-10-06T09:26:55.000Z</time>
      </trkpt>
      <trkpt lat="40.394949" lon="0.357358">
        <ele>52.71289</ele>
        <time>2024-10-06T09:26:57.000Z</time>
      </trkpt>
      <trkpt lat="40.395033" lon="0.357317">
        <ele>52.61442</ele>
        <time>2024-10-06T09:26:58.000Z</time>
      </trkpt>
      <trkpt lat="40.395151" lon="0.357284">
        <ele>52.471626</ele>
        <time>2024-10-06T09:26:59.000Z</time>
      </trkpt>
      <trkpt lat="40.395347" lon="0.357455">
        <ele>52.206005</ele>
        <time>2024-10-06T09:27:02.000Z</time>
      </trkpt>
      <trkpt lat="40.395674" lon="0.357888">
        <ele>51.673374</ele>
        <time>2024-10-06T09:27:07.000Z</time>
      </trkpt>
      <trkpt lat="40.395829" lon="0.358225">
        <ele>51.3368</ele>
        <time>2024-10-06T09:27:10.000Z</time>
      </trkpt>
      <trkpt lat="40.395924" lon="0.358639">
        <ele>50.947483</ele>
        <time>2024-10-06T09:27:14.000Z</time>
      </trkpt>
      <trkpt lat="40.396019" lon="0.360039">
        <ele>49.726889</ele>
        <time>2024-10-06T09:27:26.000Z</time>
      </trkpt>
      <trkpt lat="40.396059" lon="0.360329">
        <ele>49.537503</ele>
        <time>2024-10-06T09:27:28.000Z</time>
      </trkpt>
      <trkpt lat="40.396134" lon="0.360574">
        <ele>49.365871</ele>
        <time>2024-10-06T09:27:30.000Z</time>
      </trkpt>
      <trkpt lat="40.396509" lon="0.361599">
        <ele>48.649103</ele>
        <time>2024-10-06T09:27:40.000Z</time>
      </trkpt>
      <trkpt lat="40.396586" lon="0.361738">
        <ele>48.544862</ele>
        <time>2024-10-06T09:27:41.000Z</time>
      </trkpt>
      <trkpt lat="40.396711" lon="0.361847">
        <ele>48.423103</ele>
        <time>2024-10-06T09:27:43.000Z</time>
      </trkpt>
      <trkpt lat="40.396847" lon="0.361905">
        <ele>48.304185</ele>
        <time>2024-10-06T09:27:45.000Z</time>
      </trkpt>
      <trkpt lat="40.396973" lon="0.361917">
        <ele>48.218472</ele>
        <time>2024-10-06T09:27:46.000Z</time>
      </trkpt>
      <trkpt lat="40.397083" lon="0.361885">
        <ele>48.16</ele>
        <time>2024-10-06T09:27:47.000Z</time>
      </trkpt>
      <trkpt lat="40.39722" lon="0.361833">
        <ele>48.09655</ele>
        <time>2024-10-06T09:27:49.000Z</time>
      </trkpt>
      <trkpt lat="40.397356" lon="0.361691">
        <ele>48.008506</ele>
        <time>2024-10-06T09:27:51.000Z</time>
      </trkpt>
      <trkpt lat="40.39747" lon="0.36145">
        <ele>47.908519</ele>
        <time>2024-10-06T09:27:53.000Z</time>
      </trkpt>
      <trkpt lat="40.39782" lon="0.360496">
        <ele>47.522719</ele>
        <time>2024-10-06T09:28:02.000Z</time>
      </trkpt>
      <trkpt lat="40.397963" lon="0.360177">
        <ele>47.388058</ele>
        <time>2024-10-06T09:28:05.000Z</time>
      </trkpt>
      <trkpt lat="40.398158" lon="0.359924">
        <ele>47.094648</ele>
        <time>2024-10-06T09:28:08.000Z</time>
      </trkpt>
      <trkpt lat="40.398253" lon="0.359851">
        <ele>46.95853</ele>
        <time>2024-10-06T09:28:09.000Z</time>
      </trkpt>
      <trkpt lat="40.398394" lon="0.359841">
        <ele>46.799897</ele>
        <time>2024-10-06T09:28:11.000Z</time>
      </trkpt>
      <trkpt lat="40.398543" lon="0.359897">
        <ele>46.626917</ele>
        <time>2024-10-06T09:28:13.000Z</time>
      </trkpt>
      <trkpt lat="40.398894" lon="0.360174">
        <ele>46.152115</ele>
        <time>2024-10-06T09:28:18.000Z</time>
      </trkpt>
      <trkpt lat="40.399046" lon="0.360331">
        <ele>45.937972</ele>
        <time>2024-10-06T09:28:20.000Z</time>
      </trkpt>
      <trkpt lat="40.399381" lon="0.360874">
        <ele>45.32526</ele>
        <time>2024-10-06T09:28:26.000Z</time>
      </trkpt>
      <trkpt lat="40.399804" lon="0.361471">
        <ele>45.018228</ele>
        <time>2024-10-06T09:28:33.000Z</time>
      </trkpt>
      <trkpt lat="40.399884" lon="0.361517">
        <ele>44.969977</ele>
        <time>2024-10-06T09:28:34.000Z</time>
      </trkpt>
      <trkpt lat="40.399995" lon="0.361501">
        <ele>44.911374</ele>
        <time>2024-10-06T09:28:35.000Z</time>
      </trkpt>
      <trkpt lat="40.400564" lon="0.361209">
        <ele>44.607303</ele>
        <time>2024-10-06T09:28:42.000Z</time>
      </trkpt>
      <trkpt lat="40.400714" lon="0.361167">
        <ele>44.530022</ele>
        <time>2024-10-06T09:28:44.000Z</time>
      </trkpt>
      <trkpt lat="40.401316" lon="0.3611">
        <ele>45.461777</ele>
        <time>2024-10-06T09:28:51.000Z</time>
      </trkpt>
      <trkpt lat="40.401448" lon="0.361024">
        <ele>45.845985</ele>
        <time>2024-10-06T09:28:53.000Z</time>
      </trkpt>
      <trkpt lat="40.401847" lon="0.360599">
        <ele>47.19582</ele>
        <time>2024-10-06T09:28:59.000Z</time>
      </trkpt>
      <trkpt lat="40.401916" lon="0.360514">
        <ele>47.478591</ele>
        <time>2024-10-06T09:29:00.000Z</time>
      </trkpt>
      <trkpt lat="40.401969" lon="0.360432">
        <ele>47.679031</ele>
        <time>2024-10-06T09:29:01.000Z</time>
      </trkpt>
      <trkpt lat="40.402855" lon="0.359497">
        <ele>50.846831</ele>
        <time>2024-10-06T09:29:14.000Z</time>
      </trkpt>
      <trkpt lat="40.403404" lon="0.358882">
        <ele>52.925503</ele>
        <time>2024-10-06T09:29:22.000Z</time>
      </trkpt>
      <trkpt lat="40.403687" lon="0.358553">
        <ele>54.029892</ele>
        <time>2024-10-06T09:29:26.000Z</time>
      </trkpt>
      <trkpt lat="40.404073" lon="0.358104">
        <ele>55.16564</ele>
        <time>2024-10-06T09:29:32.000Z</time>
      </trkpt>
      <trkpt lat="40.404424" lon="0.357806">
        <ele>55.988566</ele>
        <time>2024-10-06T09:29:37.000Z</time>
      </trkpt>
      <trkpt lat="40.404818" lon="0.357597">
        <ele>56.812779</ele>
        <time>2024-10-06T09:29:42.000Z</time>
      </trkpt>
      <trkpt lat="40.40569" lon="0.357484">
        <ele>59.270925</ele>
        <time>2024-10-06T09:29:52.000Z</time>
      </trkpt>
      <trkpt lat="40.405859" lon="0.357383">
        <ele>60.051166</ele>
        <time>2024-10-06T09:29:54.000Z</time>
      </trkpt>
      <trkpt lat="40.406138" lon="0.357138">
        <ele>61.596468</ele>
        <time>2024-10-06T09:29:58.000Z</time>
      </trkpt>
      <trkpt lat="40.409954" lon="0.353514">
        <ele>83.414177</ele>
        <time>2024-10-06T09:30:50.000Z</time>
      </trkpt>
      <trkpt lat="40.410828" lon="0.352877">
        <ele>88.214505</ele>
        <time>2024-10-06T09:31:01.000Z</time>
      </trkpt>
      <trkpt lat="40.411851" lon="0.351999">
        <ele>93.110118</ele>
        <time>2024-10-06T09:31:15.000Z</time>
      </trkpt>
      <trkpt lat="40.412461" lon="0.352092">
        <ele>95.129506</ele>
        <time>2024-10-06T09:31:22.000Z</time>
      </trkpt>
      <trkpt lat="40.413613" lon="0.351888">
        <ele>98.501269</ele>
        <time>2024-10-06T09:31:35.000Z</time>
      </trkpt>
      <trkpt lat="40.413713" lon="0.351852">
        <ele>98.772946</ele>
        <time>2024-10-06T09:31:36.000Z</time>
      </trkpt>
      <trkpt lat="40.41406" lon="0.351712">
        <ele>99.698303</ele>
        <time>2024-10-06T09:31:40.000Z</time>
      </trkpt>
      <trkpt lat="40.41519" lon="0.351148">
        <ele>102.96676</ele>
        <time>2024-10-06T09:31:53.000Z</time>
      </trkpt>
      <trkpt lat="40.416001" lon="0.350623">
        <ele>105.638433</ele>
        <time>2024-10-06T09:32:03.000Z</time>
      </trkpt>
      <trkpt lat="40.418561" lon="0.348099">
        <ele>115.509942</ele>
        <time>2024-10-06T09:32:39.000Z</time>
      </trkpt>
      <trkpt lat="40.418981" lon="0.347736">
        <ele>117.41052</ele>
        <time>2024-10-06T09:32:45.000Z</time>
      </trkpt>
      <trkpt lat="40.420232" lon="0.346845">
        <ele>124.329938</ele>
        <time>2024-10-06T09:33:01.000Z</time>
      </trkpt>
      <trkpt lat="40.421415" lon="0.346007">
        <ele>130.945214</ele>
        <time>2024-10-06T09:33:16.000Z</time>
      </trkpt>
      <trkpt lat="40.421456" lon="0.345981">
        <ele>131.123753</ele>
        <time>2024-10-06T09:33:17.000Z</time>
      </trkpt>
      <trkpt lat="40.421481" lon="0.345973">
        <ele>131.260021</ele>
        <time>2024-10-06T09:33:17.000Z</time>
      </trkpt>
      <trkpt lat="40.421668" lon="0.345981">
        <ele>132.037534</ele>
        <time>2024-10-06T09:33:19.000Z</time>
      </trkpt>
      <trkpt lat="40.422382" lon="0.346315">
        <ele>135.345601</ele>
        <time>2024-10-06T09:33:27.000Z</time>
      </trkpt>
      <trkpt lat="40.423934" lon="0.346778">
        <ele>138.785144</ele>
        <time>2024-10-06T09:33:45.000Z</time>
      </trkpt>
      <trkpt lat="40.424731" lon="0.347228">
        <ele>139.101549</ele>
        <time>2024-10-06T09:33:55.000Z</time>
      </trkpt>
      <trkpt lat="40.424825" lon="0.347295">
        <ele>139.001054</ele>
        <time>2024-10-06T09:33:56.000Z</time>
      </trkpt>
      <trkpt lat="40.425205" lon="0.347619">
        <ele>138.599378</ele>
        <time>2024-10-06T09:34:01.000Z</time>
      </trkpt>
      <trkpt lat="40.425616" lon="0.347803">
        <ele>138.213058</ele>
        <time>2024-10-06T09:34:06.000Z</time>
      </trkpt>
      <trkpt lat="40.425935" lon="0.347755">
        <ele>137.922865</ele>
        <time>2024-10-06T09:34:10.000Z</time>
      </trkpt>
      <trkpt lat="40.42689" lon="0.347911">
        <ele>134.420192</ele>
        <time>2024-10-06T09:34:21.000Z</time>
      </trkpt>
      <trkpt lat="40.427162" lon="0.348033">
        <ele>133.394882</ele>
        <time>2024-10-06T09:34:24.000Z</time>
      </trkpt>
      <trkpt lat="40.42752" lon="0.3483">
        <ele>131.878975</ele>
        <time>2024-10-06T09:34:29.000Z</time>
      </trkpt>
      <trkpt lat="40.427814" lon="0.348434">
        <ele>130.551586</ele>
        <time>2024-10-06T09:34:32.000Z</time>
      </trkpt>
      <trkpt lat="40.428744" lon="0.34866">
        <ele>125.928491</ele>
        <time>2024-10-06T09:34:43.000Z</time>
      </trkpt>
      <trkpt lat="40.429544" lon="0.348686">
        <ele>122.328959</ele>
        <time>2024-10-06T09:34:52.000Z</time>
      </trkpt>
      <trkpt lat="40.429893" lon="0.348581">
        <ele>121.38684</ele>
        <time>2024-10-06T09:34:56.000Z</time>
      </trkpt>
      <trkpt lat="40.430314" lon="0.348553">
        <ele>120.24487</ele>
        <time>2024-10-06T09:35:01.000Z</time>
      </trkpt>
      <trkpt lat="40.43132" lon="0.348713">
        <ele>117.721332</ele>
        <time>2024-10-06T09:35:12.000Z</time>
      </trkpt>
      <trkpt lat="40.431822" lon="0.349264">
        <ele>116.979027</ele>
        <time>2024-10-06T09:35:19.000Z</time>
      </trkpt>
      <trkpt lat="40.432225" lon="0.349694">
        <ele>116.394755</ele>
        <time>2024-10-06T09:35:25.000Z</time>
      </trkpt>
      <trkpt lat="40.432627" lon="0.350405">
        <ele>115.37238</ele>
        <time>2024-10-06T09:35:32.000Z</time>
      </trkpt>
      <trkpt lat="40.432959" lon="0.350831">
        <ele>114.117498</ele>
        <time>2024-10-06T09:35:37.000Z</time>
      </trkpt>
      <trkpt lat="40.433343" lon="0.351095">
        <ele>112.961812</ele>
        <time>2024-10-06T09:35:42.000Z</time>
      </trkpt>
      <trkpt lat="40.433981" lon="0.351396">
        <ele>111.166416</ele>
        <time>2024-10-06T09:35:50.000Z</time>
      </trkpt>
      <trkpt lat="40.434604" lon="0.351469">
        <ele>109.417468</ele>
        <time>2024-10-06T09:35:57.000Z</time>
      </trkpt>
      <trkpt lat="40.43492" lon="0.351386">
        <ele>108.552335</ele>
        <time>2024-10-06T09:36:01.000Z</time>
      </trkpt>
      <trkpt lat="40.435353" lon="0.351038">
        <ele>107.149192</ele>
        <time>2024-10-06T09:36:07.000Z</time>
      </trkpt>
      <trkpt lat="40.43554" lon="0.350956">
        <ele>106.619078</ele>
        <time>2024-10-06T09:36:09.000Z</time>
      </trkpt>
      <trkpt lat="40.435811" lon="0.350928">
        <ele>105.960219</ele>
        <time>2024-10-06T09:36:12.000Z</time>
      </trkpt>
      <trkpt lat="40.436438" lon="0.351005">
        <ele>105.32932</ele>
        <time>2024-10-06T09:36:19.000Z</time>
      </trkpt>
      <trkpt lat="40.437358" lon="0.351231">
        <ele>104.396706</ele>
        <time>2024-10-06T09:36:29.000Z</time>
      </trkpt>
      <trkpt lat="40.437791" lon="0.351227">
        <ele>104.255128</ele>
        <time>2024-10-06T09:36:34.000Z</time>
      </trkpt>
      <trkpt lat="40.439753" lon="0.350776">
        <ele>104.179302</ele>
        <time>2024-10-06T09:36:56.000Z</time>
      </trkpt>
      <trkpt lat="40.440134" lon="0.350712">
        <ele>103.956764</ele>
        <time>2024-10-06T09:37:00.000Z</time>
      </trkpt>
      <trkpt lat="40.442453" lon="0.351532">
        <ele>102.005307</ele>
        <time>2024-10-06T09:37:27.000Z</time>
      </trkpt>
      <trkpt lat="40.443657" lon="0.351726">
        <ele>101.921972</ele>
        <time>2024-10-06T09:37:40.000Z</time>
      </trkpt>
      <trkpt lat="40.444703" lon="0.352122">
        <ele>102.621553</ele>
        <time>2024-10-06T09:37:52.000Z</time>
      </trkpt>
      <trkpt lat="40.445304" lon="0.35212">
        <ele>104.39625</ele>
        <time>2024-10-06T09:37:59.000Z</time>
      </trkpt>
      <trkpt lat="40.446296" lon="0.352206">
        <ele>107.343973</ele>
        <time>2024-10-06T09:38:10.000Z</time>
      </trkpt>
      <trkpt lat="40.448179" lon="0.352089">
        <ele>114.642855</ele>
        <time>2024-10-06T09:38:31.000Z</time>
      </trkpt>
      <trkpt lat="40.448785" lon="0.352103">
        <ele>116.566124</ele>
        <time>2024-10-06T09:38:38.000Z</time>
      </trkpt>
      <trkpt lat="40.449553" lon="0.352155">
        <ele>118.995403</ele>
        <time>2024-10-06T09:38:47.000Z</time>
      </trkpt>
      <trkpt lat="40.450188" lon="0.351859">
        <ele>120.543392</ele>
        <time>2024-10-06T09:38:54.000Z</time>
      </trkpt>
      <trkpt lat="40.450197" lon="0.351859">
        <ele>120.553337</ele>
        <time>2024-10-06T09:38:54.000Z</time>
      </trkpt>
      <trkpt lat="40.451192" lon="0.35185">
        <ele>121.737545</ele>
        <time>2024-10-06T09:39:05.000Z</time>
      </trkpt>
      <trkpt lat="40.451892" lon="0.352038">
        <ele>122.236844</ele>
        <time>2024-10-06T09:39:13.000Z</time>
      </trkpt>
      <trkpt lat="40.452206" lon="0.35214">
        <ele>122.047515</ele>
        <time>2024-10-06T09:39:17.000Z</time>
      </trkpt>
      <trkpt lat="40.452462" lon="0.352218">
        <ele>121.896735</ele>
        <time>2024-10-06T09:39:20.000Z</time>
      </trkpt>
      <trkpt lat="40.452784" lon="0.352158">
        <ele>121.710466</ele>
        <time>2024-10-06T09:39:24.000Z</time>
      </trkpt>
      <trkpt lat="40.454218" lon="0.351389">
        <ele>120.969421</ele>
        <time>2024-10-06T09:39:41.000Z</time>
      </trkpt>
      <trkpt lat="40.454432" lon="0.351373">
        <ele>120.87658</ele>
        <time>2024-10-06T09:39:43.000Z</time>
      </trkpt>
      <trkpt lat="40.454617" lon="0.351455">
        <ele>120.799343</ele>
        <time>2024-10-06T09:39:45.000Z</time>
      </trkpt>
      <trkpt lat="40.456512" lon="0.353744">
        <ele>120.270157</ele>
        <time>2024-10-06T09:40:14.000Z</time>
      </trkpt>
      <trkpt lat="40.457144" lon="0.354517">
        <ele>120.351943</ele>
        <time>2024-10-06T09:40:24.000Z</time>
      </trkpt>
      <trkpt lat="40.457218" lon="0.354662">
        <ele>120.363762</ele>
        <time>2024-10-06T09:40:25.000Z</time>
      </trkpt>
      <trkpt lat="40.457239" lon="0.354767">
        <ele>120.371385</ele>
        <time>2024-10-06T09:40:26.000Z</time>
      </trkpt>
      <trkpt lat="40.457257" lon="0.354992">
        <ele>120.38785</ele>
        <time>2024-10-06T09:40:28.000Z</time>
      </trkpt>
      <trkpt lat="40.457278" lon="0.355032">
        <ele>120.391966</ele>
        <time>2024-10-06T09:40:28.000Z</time>
      </trkpt>
      <trkpt lat="40.457341" lon="0.355057">
        <ele>120.396852</ele>
        <time>2024-10-06T09:40:29.000Z</time>
      </trkpt>
      <trkpt lat="40.457473" lon="0.355166">
        <ele>120.412491</ele>
        <time>2024-10-06T09:40:31.000Z</time>
      </trkpt>
      <trkpt lat="40.457576" lon="0.35524">
        <ele>120.545994</ele>
        <time>2024-10-06T09:40:32.000Z</time>
      </trkpt>
      <trkpt lat="40.457575" lon="0.355238">
        <ele>120.554247</ele>
        <time>2024-10-06T09:40:32.000Z</time>
      </trkpt>
      <trkpt lat="40.457675" lon="0.355215">
        <ele>120.747327</ele>
        <time>2024-10-06T09:40:33.000Z</time>
      </trkpt>
      <trkpt lat="40.457516" lon="0.354855">
        <ele>121.328304</ele>
        <time>2024-10-06T09:40:37.000Z</time>
      </trkpt>
      <trkpt lat="40.45745" lon="0.354692">
        <ele>121.590835</ele>
        <time>2024-10-06T09:40:39.000Z</time>
      </trkpt>
      <trkpt lat="40.457294" lon="0.354365">
        <ele>122.113518</ele>
        <time>2024-10-06T09:40:42.000Z</time>
      </trkpt>
      <trkpt lat="40.456169" lon="0.351818">
        <ele>127.384734</ele>
        <time>2024-10-06T09:41:07.000Z</time>
      </trkpt>
      <trkpt lat="40.455853" lon="0.350943">
        <ele>130.118707</ele>
        <time>2024-10-06T09:41:15.000Z</time>
      </trkpt>
      <trkpt lat="40.455655" lon="0.350381">
        <ele>132.471722</ele>
        <time>2024-10-06T09:41:20.000Z</time>
      </trkpt>
      <trkpt lat="40.455459" lon="0.349661">
        <ele>135.366658</ele>
        <time>2024-10-06T09:41:26.000Z</time>
      </trkpt>
      <trkpt lat="40.455329" lon="0.348962">
        <ele>138.387125</ele>
        <time>2024-10-06T09:41:32.000Z</time>
      </trkpt>
      <trkpt lat="40.455268" lon="0.348534">
        <ele>141.122326</ele>
        <time>2024-10-06T09:41:36.000Z</time>
      </trkpt>
      <trkpt lat="40.455219" lon="0.347631">
        <ele>146.747666</ele>
        <time>2024-10-06T09:41:44.000Z</time>
      </trkpt>
      <trkpt lat="40.455237" lon="0.346998">
        <ele>150.567285</ele>
        <time>2024-10-06T09:41:49.000Z</time>
      </trkpt>
      <trkpt lat="40.455264" lon="0.346543">
        <ele>153.021416</ele>
        <time>2024-10-06T09:41:53.000Z</time>
      </trkpt>
      <trkpt lat="40.455323" lon="0.346037">
        <ele>155.419205</ele>
        <time>2024-10-06T09:41:57.000Z</time>
      </trkpt>
      <trkpt lat="40.45549" lon="0.345107">
        <ele>159.783766</ele>
        <time>2024-10-06T09:42:05.000Z</time>
      </trkpt>
      <trkpt lat="40.455623" lon="0.344515">
        <ele>162.708257</ele>
        <time>2024-10-06T09:42:10.000Z</time>
      </trkpt>
      <trkpt lat="40.455849" lon="0.343783">
        <ele>164.300006</ele>
        <time>2024-10-06T09:42:17.000Z</time>
      </trkpt>
      <trkpt lat="40.45608" lon="0.343297">
        <ele>165.384836</ele>
        <time>2024-10-06T09:42:22.000Z</time>
      </trkpt>
      <trkpt lat="40.456139" lon="0.343233">
        <ele>165.546772</ele>
        <time>2024-10-06T09:42:23.000Z</time>
      </trkpt>
      <trkpt lat="40.456203" lon="0.343216">
        <ele>165.726476</ele>
        <time>2024-10-06T09:42:24.000Z</time>
      </trkpt>
      <trkpt lat="40.456288" lon="0.343152">
        <ele>165.992211</ele>
        <time>2024-10-06T09:42:25.000Z</time>
      </trkpt>
      <trkpt lat="40.456336" lon="0.343023">
        <ele>166.25544</ele>
        <time>2024-10-06T09:42:26.000Z</time>
      </trkpt>
      <trkpt lat="40.456321" lon="0.342821">
        <ele>166.619328</ele>
        <time>2024-10-06T09:42:28.000Z</time>
      </trkpt>
      <trkpt lat="40.456371" lon="0.342498">
        <ele>167.260247</ele>
        <time>2024-10-06T09:42:31.000Z</time>
      </trkpt>
      <trkpt lat="40.456506" lon="0.341955">
        <ele>167.503838</ele>
        <time>2024-10-06T09:42:36.000Z</time>
      </trkpt>
      <trkpt lat="40.45874" lon="0.335995">
        <ele>169.333152</ele>
        <time>2024-10-06T09:43:32.000Z</time>
      </trkpt>
      <trkpt lat="40.458767" lon="0.335725">
        <ele>169.47662</ele>
        <time>2024-10-06T09:43:34.000Z</time>
      </trkpt>
      <trkpt lat="40.458813" lon="0.332819">
        <ele>171.237905</ele>
        <time>2024-10-06T09:43:59.000Z</time>
      </trkpt>
      <trkpt lat="40.458707" lon="0.332476">
        <ele>171.530806</ele>
        <time>2024-10-06T09:44:02.000Z</time>
      </trkpt>
      <trkpt lat="40.457443" lon="0.329807">
        <ele>174.456184</ele>
        <time>2024-10-06T09:44:29.000Z</time>
      </trkpt>
      <trkpt lat="40.457367" lon="0.32954">
        <ele>174.751828</ele>
        <time>2024-10-06T09:44:31.000Z</time>
      </trkpt>
      <trkpt lat="40.457349" lon="0.329239">
        <ele>174.702949</ele>
        <time>2024-10-06T09:44:34.000Z</time>
      </trkpt>
      <trkpt lat="40.457367" lon="0.329013">
        <ele>174.621714</ele>
        <time>2024-10-06T09:44:36.000Z</time>
      </trkpt>
      <trkpt lat="40.457452" lon="0.328722">
        <ele>174.508297</ele>
        <time>2024-10-06T09:44:39.000Z</time>
      </trkpt>
      <trkpt lat="40.458911" lon="0.322555">
        <ele>171.905116</ele>
        <time>2024-10-06T09:45:34.000Z</time>
      </trkpt>
      <trkpt lat="40.458939" lon="0.322386">
        <ele>171.893258</ele>
        <time>2024-10-06T09:45:35.000Z</time>
      </trkpt>
      <trkpt lat="40.459329" lon="0.317425">
        <ele>172.426086</ele>
        <time>2024-10-06T09:46:17.000Z</time>
      </trkpt>
      <trkpt lat="40.459824" lon="0.31116">
        <ele>177.993614</ele>
        <time>2024-10-06T09:47:10.000Z</time>
      </trkpt>
      <trkpt lat="40.459808" lon="0.310889">
        <ele>178.042029</ele>
        <time>2024-10-06T09:47:12.000Z</time>
      </trkpt>
      <trkpt lat="40.459533" lon="0.310101">
        <ele>176.699342</ele>
        <time>2024-10-06T09:47:19.000Z</time>
      </trkpt>
      <trkpt lat="40.459485" lon="0.309855">
        <ele>176.326467</ele>
        <time>2024-10-06T09:47:21.000Z</time>
      </trkpt>
      <trkpt lat="40.4595" lon="0.309452">
        <ele>175.718009</ele>
        <time>2024-10-06T09:47:24.000Z</time>
      </trkpt>
      <trkpt lat="40.459519" lon="0.308886">
        <ele>174.844966</ele>
        <time>2024-10-06T09:47:29.000Z</time>
      </trkpt>
      <trkpt lat="40.45951" lon="0.308679">
        <ele>174.499694</ele>
        <time>2024-10-06T09:47:31.000Z</time>
      </trkpt>
      <trkpt lat="40.459455" lon="0.308498">
        <ele>174.093444</ele>
        <time>2024-10-06T09:47:33.000Z</time>
      </trkpt>
      <trkpt lat="40.459328" lon="0.308342">
        <ele>173.646887</ele>
        <time>2024-10-06T09:47:35.000Z</time>
      </trkpt>
      <trkpt lat="40.458866" lon="0.308013">
        <ele>172.169997</ele>
        <time>2024-10-06T09:47:41.000Z</time>
      </trkpt>
      <trkpt lat="40.458745" lon="0.307933">
        <ele>171.800889</ele>
        <time>2024-10-06T09:47:43.000Z</time>
      </trkpt>
      <trkpt lat="40.458626" lon="0.307839">
        <ele>171.430312</ele>
        <time>2024-10-06T09:47:45.000Z</time>
      </trkpt>
      <trkpt lat="40.458485" lon="0.307653">
        <ele>170.856437</ele>
        <time>2024-10-06T09:47:47.000Z</time>
      </trkpt>
      <trkpt lat="40.458343" lon="0.307292">
        <ele>169.996041</ele>
        <time>2024-10-06T09:47:50.000Z</time>
      </trkpt>
      <trkpt lat="40.458266" lon="0.307146">
        <ele>169.58753</ele>
        <time>2024-10-06T09:47:52.000Z</time>
      </trkpt>
      <trkpt lat="40.458137" lon="0.307035">
        <ele>169.6265</ele>
        <time>2024-10-06T09:47:54.000Z</time>
      </trkpt>
      <trkpt lat="40.457558" lon="0.306836">
        <ele>170.093721</ele>
        <time>2024-10-06T09:48:01.000Z</time>
      </trkpt>
      <trkpt lat="40.457447" lon="0.306698">
        <ele>170.205403</ele>
        <time>2024-10-06T09:48:03.000Z</time>
      </trkpt>
      <trkpt lat="40.457282" lon="0.306085">
        <ele>170.588288</ele>
        <time>2024-10-06T09:48:09.000Z</time>
      </trkpt>
      <trkpt lat="40.457268" lon="0.305653">
        <ele>170.842883</ele>
        <time>2024-10-06T09:48:13.000Z</time>
      </trkpt>
      <trkpt lat="40.45727" lon="0.304844">
        <ele>173.364712</ele>
        <time>2024-10-06T09:48:20.000Z</time>
      </trkpt>
      <trkpt lat="40.457569" lon="0.301387">
        <ele>186.947452</ele>
        <time>2024-10-06T09:48:49.000Z</time>
      </trkpt>
      <trkpt lat="40.457611" lon="0.301141">
        <ele>187.971589</ele>
        <time>2024-10-06T09:48:51.000Z</time>
      </trkpt>
      <trkpt lat="40.457674" lon="0.301009">
        <ele>188.642202</ele>
        <time>2024-10-06T09:48:52.000Z</time>
      </trkpt>
      <trkpt lat="40.459035" lon="0.299687">
        <ele>196.846785</ele>
        <time>2024-10-06T09:49:11.000Z</time>
      </trkpt>
      <trkpt lat="40.459106" lon="0.299528">
        <ele>197.542473</ele>
        <time>2024-10-06T09:49:13.000Z</time>
      </trkpt>
      <trkpt lat="40.459125" lon="0.299349">
        <ele>197.96757</ele>
        <time>2024-10-06T09:49:15.000Z</time>
      </trkpt>
      <trkpt lat="40.459054" lon="0.298594">
        <ele>197.938538</ele>
        <time>2024-10-06T09:49:21.000Z</time>
      </trkpt>
      <trkpt lat="40.459083" lon="0.298279">
        <ele>197.926482</ele>
        <time>2024-10-06T09:49:24.000Z</time>
      </trkpt>
      <trkpt lat="40.459652" lon="0.295291">
        <ele>193.31176</ele>
        <time>2024-10-06T09:49:50.000Z</time>
      </trkpt>
      <trkpt lat="40.460237" lon="0.29134">
        <ele>179.223835</ele>
        <time>2024-10-06T09:50:24.000Z</time>
      </trkpt>
      <trkpt lat="40.460268" lon="0.290873">
        <ele>177.635789</ele>
        <time>2024-10-06T09:50:28.000Z</time>
      </trkpt>
      <trkpt lat="40.460317" lon="0.290532">
        <ele>176.433101</ele>
        <time>2024-10-06T09:50:31.000Z</time>
      </trkpt>
      <trkpt lat="40.460449" lon="0.290496">
        <ele>175.788377</ele>
        <time>2024-10-06T09:50:33.000Z</time>
      </trkpt>
      <trkpt lat="40.461292" lon="0.290961">
        <ele>172.845409</ele>
        <time>2024-10-06T09:50:43.000Z</time>
      </trkpt>
      <trkpt lat="40.461936" lon="0.291574">
        <ele>170.530608</ele>
        <time>2024-10-06T09:50:52.000Z</time>
      </trkpt>
      <trkpt lat="40.462108" lon="0.291813">
        <ele>169.774321</ele>
        <time>2024-10-06T09:50:55.000Z</time>
      </trkpt>
      <trkpt lat="40.462329" lon="0.29213">
        <ele>169.153402</ele>
        <time>2024-10-06T09:50:59.000Z</time>
      </trkpt>
      <trkpt lat="40.463058" lon="0.293469">
        <ele>166.838283</ele>
        <time>2024-10-06T09:51:13.000Z</time>
      </trkpt>
      <trkpt lat="40.463259" lon="0.2937">
        <ele>166.367905</ele>
        <time>2024-10-06T09:51:16.000Z</time>
      </trkpt>
      <trkpt lat="40.463542" lon="0.293858">
        <ele>166.045431</ele>
        <time>2024-10-06T09:51:19.000Z</time>
      </trkpt>
      <trkpt lat="40.465429" lon="0.294577">
        <ele>164.17999</ele>
        <time>2024-10-06T09:51:41.000Z</time>
      </trkpt>
      <trkpt lat="40.465575" lon="0.294689">
        <ele>164.063279</ele>
        <time>2024-10-06T09:51:43.000Z</time>
      </trkpt>
      <trkpt lat="40.465895" lon="0.294907">
        <ele>163.829845</ele>
        <time>2024-10-06T09:51:47.000Z</time>
      </trkpt>
      <trkpt lat="40.466577" lon="0.295503">
        <ele>163.274503</ele>
        <time>2024-10-06T09:51:56.000Z</time>
      </trkpt>
      <trkpt lat="40.467059" lon="0.296064">
        <ele>162.720125</ele>
        <time>2024-10-06T09:52:03.000Z</time>
      </trkpt>
      <trkpt lat="40.468199" lon="0.297727">
        <ele>160.45552</ele>
        <time>2024-10-06T09:52:22.000Z</time>
      </trkpt>
      <trkpt lat="40.468426" lon="0.298215">
        <ele>159.505906</ele>
        <time>2024-10-06T09:52:27.000Z</time>
      </trkpt>
      <trkpt lat="40.46861" lon="0.299064">
        <ele>158.049207</ele>
        <time>2024-10-06T09:52:34.000Z</time>
      </trkpt>
      <trkpt lat="40.468599" lon="0.299752">
        <ele>156.417484</ele>
        <time>2024-10-06T09:52:40.000Z</time>
      </trkpt>
      <trkpt lat="40.468473" lon="0.300324">
        <ele>154.919792</ele>
        <time>2024-10-06T09:52:45.000Z</time>
      </trkpt>
      <trkpt lat="40.467978" lon="0.301673">
        <ele>151.513096</ele>
        <time>2024-10-06T09:52:58.000Z</time>
      </trkpt>
      <trkpt lat="40.467596" lon="0.302664">
        <ele>149.853791</ele>
        <time>2024-10-06T09:53:07.000Z</time>
      </trkpt>
      <trkpt lat="40.467384" lon="0.303253">
        <ele>148.876058</ele>
        <time>2024-10-06T09:53:13.000Z</time>
      </trkpt>
      <trkpt lat="40.467371" lon="0.303391">
        <ele>148.679025</ele>
        <time>2024-10-06T09:53:14.000Z</time>
      </trkpt>
      <trkpt lat="40.467363" lon="0.303716">
        <ele>148.281638</ele>
        <time>2024-10-06T09:53:17.000Z</time>
      </trkpt>
      <trkpt lat="40.467436" lon="0.304049">
        <ele>147.92655</ele>
        <time>2024-10-06T09:53:20.000Z</time>
      </trkpt>
      <trkpt lat="40.468052" lon="0.305117">
        <ele>146.548331</ele>
        <time>2024-10-06T09:53:31.000Z</time>
      </trkpt>
      <trkpt lat="40.468135" lon="0.305259">
        <ele>146.364734</ele>
        <time>2024-10-06T09:53:33.000Z</time>
      </trkpt>
      <trkpt lat="40.468463" lon="0.305638">
        <ele>146.346531</ele>
        <time>2024-10-06T09:53:38.000Z</time>
      </trkpt>
      <trkpt lat="40.468904" lon="0.305888">
        <ele>147.064381</ele>
        <time>2024-10-06T09:53:43.000Z</time>
      </trkpt>
      <trkpt lat="40.469455" lon="0.30612">
        <ele>147.970171</ele>
        <time>2024-10-06T09:53:49.000Z</time>
      </trkpt>
      <trkpt lat="40.469825" lon="0.306141">
        <ele>148.522896</ele>
        <time>2024-10-06T09:53:53.000Z</time>
      </trkpt>
      <trkpt lat="40.470876" lon="0.305793">
        <ele>151.836996</ele>
        <time>2024-10-06T09:54:05.000Z</time>
      </trkpt>
      <trkpt lat="40.471077" lon="0.305822">
        <ele>152.555514</ele>
        <time>2024-10-06T09:54:07.000Z</time>
      </trkpt>
      <trkpt lat="40.471967" lon="0.306354">
        <ele>155.159694</ele>
        <time>2024-10-06T09:54:18.000Z</time>
      </trkpt>
      <trkpt lat="40.472405" lon="0.306596">
        <ele>155.65719</ele>
        <time>2024-10-06T09:54:23.000Z</time>
      </trkpt>
      <trkpt lat="40.47277" lon="0.306943">
        <ele>156.119816</ele>
        <time>2024-10-06T09:54:28.000Z</time>
      </trkpt>
      <trkpt lat="40.472944" lon="0.307178">
        <ele>156.377552</ele>
        <time>2024-10-06T09:54:31.000Z</time>
      </trkpt>
      <trkpt lat="40.473436" lon="0.307842">
        <ele>156.724177</ele>
        <time>2024-10-06T09:54:39.000Z</time>
      </trkpt>
      <trkpt lat="40.47373" lon="0.308134">
        <ele>156.716801</ele>
        <time>2024-10-06T09:54:43.000Z</time>
      </trkpt>
      <trkpt lat="40.47568" lon="0.309571">
        <ele>157.7239</ele>
        <time>2024-10-06T09:55:08.000Z</time>
      </trkpt>
      <trkpt lat="40.479621" lon="0.311369">
        <ele>165.711052</ele>
        <time>2024-10-06T09:55:54.000Z</time>
      </trkpt>
      <trkpt lat="40.485509" lon="0.314062">
        <ele>167.089541</ele>
        <time>2024-10-06T09:57:03.000Z</time>
      </trkpt>
      <trkpt lat="40.490912" lon="0.31681">
        <ele>178.166282</ele>
        <time>2024-10-06T09:58:07.000Z</time>
      </trkpt>
      <trkpt lat="40.492534" lon="0.317606">
        <ele>181.00173</ele>
        <time>2024-10-06T09:58:26.000Z</time>
      </trkpt>
      <trkpt lat="40.493176" lon="0.31801">
        <ele>181.98464</ele>
        <time>2024-10-06T09:58:34.000Z</time>
      </trkpt>
      <trkpt lat="40.497554" lon="0.321199">
        <ele>183.735606</ele>
        <time>2024-10-06T09:59:30.000Z</time>
      </trkpt>
      <trkpt lat="40.499148" lon="0.322364">
        <ele>181.993965</ele>
        <time>2024-10-06T09:59:50.000Z</time>
      </trkpt>
      <trkpt lat="40.497429" lon="0.323856">
        <ele>175.891498</ele>
        <time>2024-10-06T10:00:13.000Z</time>
      </trkpt>
      <trkpt lat="40.496734" lon="0.324401">
        <ele>173.134345</ele>
        <time>2024-10-06T10:00:22.000Z</time>
      </trkpt>
      <trkpt lat="40.494533" lon="0.326119">
        <ele>166.143333</ele>
        <time>2024-10-06T10:00:50.000Z</time>
      </trkpt>
      <trkpt lat="40.493424" lon="0.326966">
        <ele>164.175432</ele>
        <time>2024-10-06T10:01:04.000Z</time>
      </trkpt>
      <trkpt lat="40.493256" lon="0.327233">
        <ele>163.827567</ele>
        <time>2024-10-06T10:01:07.000Z</time>
      </trkpt>
      <trkpt lat="40.493249" lon="0.327473">
        <ele>163.60556</ele>
        <time>2024-10-06T10:01:09.000Z</time>
      </trkpt>
      <trkpt lat="40.49425" lon="0.327996">
        <ele>161.30214</ele>
        <time>2024-10-06T10:01:21.000Z</time>
      </trkpt>
      <trkpt lat="40.495173" lon="0.328549">
        <ele>158.657211</ele>
        <time>2024-10-06T10:01:32.000Z</time>
      </trkpt>
      <trkpt lat="40.495584" lon="0.328794">
        <ele>158.189669</ele>
        <time>2024-10-06T10:01:37.000Z</time>
      </trkpt>
      <trkpt lat="40.497989" lon="0.330247">
        <ele>158.506412</ele>
        <time>2024-10-06T10:02:06.000Z</time>
      </trkpt>
      <trkpt lat="40.498045" lon="0.330271">
        <ele>158.553269</ele>
        <time>2024-10-06T10:02:07.000Z</time>
      </trkpt>
      <trkpt lat="40.498339" lon="0.33005">
        <ele>158.921015</ele>
        <time>2024-10-06T10:02:11.000Z</time>
      </trkpt>
      <trkpt lat="40.499021" lon="0.329256">
        <ele>161.113512</ele>
        <time>2024-10-06T10:02:21.000Z</time>
      </trkpt>
      <trkpt lat="40.500656" lon="0.326784">
        <ele>166.894054</ele>
        <time>2024-10-06T10:02:49.000Z</time>
      </trkpt>
      <trkpt lat="40.501048" lon="0.326841">
        <ele>167.655401</ele>
        <time>2024-10-06T10:02:53.000Z</time>
      </trkpt>
      <trkpt lat="40.501799" lon="0.326771">
        <ele>167.857811</ele>
        <time>2024-10-06T10:03:01.000Z</time>
      </trkpt>
      <trkpt lat="40.50209" lon="0.326785">
        <ele>167.934358</ele>
        <time>2024-10-06T10:03:04.000Z</time>
      </trkpt>
      <trkpt lat="40.502477" lon="0.326851">
        <ele>168.038306</ele>
        <time>2024-10-06T10:03:08.000Z</time>
      </trkpt>
      <trkpt lat="40.50309" lon="0.326723">
        <ele>168.002045</ele>
        <time>2024-10-06T10:03:15.000Z</time>
      </trkpt>
      <trkpt lat="40.503775" lon="0.326801">
        <ele>167.652385</ele>
        <time>2024-10-06T10:03:23.000Z</time>
      </trkpt>
      <trkpt lat="40.50405" lon="0.326861">
        <ele>167.508747</ele>
        <time>2024-10-06T10:03:26.000Z</time>
      </trkpt>
      <trkpt lat="40.504445" lon="0.326743">
        <ele>167.297103</ele>
        <time>2024-10-06T10:03:31.000Z</time>
      </trkpt>
      <trkpt lat="40.505414" lon="0.328064">
        <ele>164.753963</ele>
        <time>2024-10-06T10:03:47.000Z</time>
      </trkpt>
      <trkpt lat="40.505493" lon="0.328176">
        <ele>164.515438</ele>
        <time>2024-10-06T10:03:48.000Z</time>
      </trkpt>
      <trkpt lat="40.506288" lon="0.329639">
        <ele>160.670281</ele>
        <time>2024-10-06T10:04:03.000Z</time>
      </trkpt>
      <trkpt lat="40.5068" lon="0.33062">
        <ele>157.748056</ele>
        <time>2024-10-06T10:04:13.000Z</time>
      </trkpt>
      <trkpt lat="40.507362" lon="0.331633">
        <ele>155.100213</ele>
        <time>2024-10-06T10:04:24.000Z</time>
      </trkpt>
      <trkpt lat="40.508209" lon="0.332863">
        <ele>151.739393</ele>
        <time>2024-10-06T10:04:38.000Z</time>
      </trkpt>
      <trkpt lat="40.508874" lon="0.333875">
        <ele>149.304556</ele>
        <time>2024-10-06T10:04:49.000Z</time>
      </trkpt>
      <trkpt lat="40.508094" lon="0.33545">
        <ele>145.390191</ele>
        <time>2024-10-06T10:05:05.000Z</time>
      </trkpt>
      <trkpt lat="40.507329" lon="0.33679">
        <ele>142.023084</ele>
        <time>2024-10-06T10:05:19.000Z</time>
      </trkpt>
      <trkpt lat="40.506849" lon="0.337578">
        <ele>140.114977</ele>
        <time>2024-10-06T10:05:28.000Z</time>
      </trkpt>
      <trkpt lat="40.506805" lon="0.337724">
        <ele>139.819549</ele>
        <time>2024-10-06T10:05:29.000Z</time>
      </trkpt>
      <trkpt lat="40.506773" lon="0.337848">
        <ele>139.55144</ele>
        <time>2024-10-06T10:05:30.000Z</time>
      </trkpt>
      <trkpt lat="40.506781" lon="0.338017">
        <ele>139.262979</ele>
        <time>2024-10-06T10:05:31.000Z</time>
      </trkpt>
      <trkpt lat="40.506865" lon="0.339456">
        <ele>137.074784</ele>
        <time>2024-10-06T10:05:43.000Z</time>
      </trkpt>
      <trkpt lat="40.506846" lon="0.339643">
        <ele>136.802861</ele>
        <time>2024-10-06T10:05:45.000Z</time>
      </trkpt>
      <trkpt lat="40.506794" lon="0.339785">
        <ele>136.566306</ele>
        <time>2024-10-06T10:05:46.000Z</time>
      </trkpt>
      <trkpt lat="40.506676" lon="0.339938">
        <ele>136.264339</ele>
        <time>2024-10-06T10:05:48.000Z</time>
      </trkpt>
      <trkpt lat="40.506562" lon="0.340034">
        <ele>136.000843</ele>
        <time>2024-10-06T10:05:50.000Z</time>
      </trkpt>
      <trkpt lat="40.505945" lon="0.340136">
        <ele>135.042254</ele>
        <time>2024-10-06T10:05:57.000Z</time>
      </trkpt>
      <trkpt lat="40.504955" lon="0.340111">
        <ele>133.776076</ele>
        <time>2024-10-06T10:06:08.000Z</time>
      </trkpt>
      <trkpt lat="40.504482" lon="0.340157">
        <ele>133.169211</ele>
        <time>2024-10-06T10:06:13.000Z</time>
      </trkpt>
      <trkpt lat="40.504234" lon="0.340222">
        <ele>132.95658</ele>
        <time>2024-10-06T10:06:16.000Z</time>
      </trkpt>
      <trkpt lat="40.504083" lon="0.340311">
        <ele>132.819122</ele>
        <time>2024-10-06T10:06:18.000Z</time>
      </trkpt>
      <trkpt lat="40.503939" lon="0.340437">
        <ele>132.674868</ele>
        <time>2024-10-06T10:06:20.000Z</time>
      </trkpt>
      <trkpt lat="40.503774" lon="0.340619">
        <ele>132.500946</ele>
        <time>2024-10-06T10:06:22.000Z</time>
      </trkpt>
      <trkpt lat="40.503599" lon="0.340879">
        <ele>132.281811</ele>
        <time>2024-10-06T10:06:25.000Z</time>
      </trkpt>
      <trkpt lat="40.502545" lon="0.341854">
        <ele>131.293198</ele>
        <time>2024-10-06T10:06:39.000Z</time>
      </trkpt>
      <trkpt lat="40.502364" lon="0.341961">
        <ele>131.150783</ele>
        <time>2024-10-06T10:06:41.000Z</time>
      </trkpt>
      <trkpt lat="40.501517" lon="0.342134">
        <ele>130.543331</ele>
        <time>2024-10-06T10:06:51.000Z</time>
      </trkpt>
      <trkpt lat="40.500194" lon="0.342371">
        <ele>129.71765</ele>
        <time>2024-10-06T10:07:06.000Z</time>
      </trkpt>
      <trkpt lat="40.499316" lon="0.342741">
        <ele>129.633701</ele>
        <time>2024-10-06T10:07:16.000Z</time>
      </trkpt>
      <trkpt lat="40.498931" lon="0.342852">
        <ele>130.025526</ele>
        <time>2024-10-06T10:07:20.000Z</time>
      </trkpt>
      <trkpt lat="40.497696" lon="0.34294">
        <ele>131.471412</ele>
        <time>2024-10-06T10:07:34.000Z</time>
      </trkpt>
      <trkpt lat="40.496512" lon="0.343277">
        <ele>134.612833</ele>
        <time>2024-10-06T10:07:47.000Z</time>
      </trkpt>
      <trkpt lat="40.495966" lon="0.343359">
        <ele>136.122236</ele>
        <time>2024-10-06T10:07:53.000Z</time>
      </trkpt>
      <trkpt lat="40.49588" lon="0.343406">
        <ele>136.447398</ele>
        <time>2024-10-06T10:07:54.000Z</time>
      </trkpt>
      <trkpt lat="40.49581" lon="0.343546">
        <ele>136.925287</ele>
        <time>2024-10-06T10:07:55.000Z</time>
      </trkpt>
      <trkpt lat="40.495643" lon="0.343967">
        <ele>138.158088</ele>
        <time>2024-10-06T10:07:59.000Z</time>
      </trkpt>
      <trkpt lat="40.495542" lon="0.344113">
        <ele>138.650982</ele>
        <time>2024-10-06T10:08:01.000Z</time>
      </trkpt>
      <trkpt lat="40.495368" lon="0.344262">
        <ele>139.382387</ele>
        <time>2024-10-06T10:08:03.000Z</time>
      </trkpt>
      <trkpt lat="40.495151" lon="0.344331">
        <ele>140.120393</ele>
        <time>2024-10-06T10:08:05.000Z</time>
      </trkpt>
      <trkpt lat="40.494893" lon="0.344347">
        <ele>141.027845</ele>
        <time>2024-10-06T10:08:08.000Z</time>
      </trkpt>
      <trkpt lat="40.494234" lon="0.344382">
        <ele>143.793981</ele>
        <time>2024-10-06T10:08:15.000Z</time>
      </trkpt>
      <trkpt lat="40.493746" lon="0.344297">
        <ele>146.096551</ele>
        <time>2024-10-06T10:08:20.000Z</time>
      </trkpt>
      <trkpt lat="40.493505" lon="0.344317">
        <ele>147.224967</ele>
        <time>2024-10-06T10:08:23.000Z</time>
      </trkpt>
      <trkpt lat="40.493182" lon="0.344428">
        <ele>148.83939</ele>
        <time>2024-10-06T10:08:27.000Z</time>
      </trkpt>
      <trkpt lat="40.492964" lon="0.344555">
        <ele>149.946056</ele>
        <time>2024-10-06T10:08:30.000Z</time>
      </trkpt>
      <trkpt lat="40.49148" lon="0.346072">
        <ele>160.7893</ele>
        <time>2024-10-06T10:08:51.000Z</time>
      </trkpt>
      <trkpt lat="40.491003" lon="0.346757">
        <ele>164.313608</ele>
        <time>2024-10-06T10:08:59.000Z</time>
      </trkpt>
      <trkpt lat="40.49071" lon="0.347178">
        <ele>166.514861</ele>
        <time>2024-10-06T10:09:04.000Z</time>
      </trkpt>
      <trkpt lat="40.490492" lon="0.34742">
        <ele>168.000447</ele>
        <time>2024-10-06T10:09:07.000Z</time>
      </trkpt>
      <trkpt lat="40.489949" lon="0.347873">
        <ele>169.76224</ele>
        <time>2024-10-06T10:09:14.000Z</time>
      </trkpt>
      <trkpt lat="40.489753" lon="0.347986">
        <ele>169.514938</ele>
        <time>2024-10-06T10:09:16.000Z</time>
      </trkpt>
      <trkpt lat="40.489352" lon="0.348086">
        <ele>169.04705</ele>
        <time>2024-10-06T10:09:21.000Z</time>
      </trkpt>
      <trkpt lat="40.487618" lon="0.348605">
        <ele>164.148402</ele>
        <time>2024-10-06T10:09:41.000Z</time>
      </trkpt>
      <trkpt lat="40.487278" lon="0.348739">
        <ele>162.568019</ele>
        <time>2024-10-06T10:09:45.000Z</time>
      </trkpt>
      <trkpt lat="40.486942" lon="0.348934">
        <ele>160.907547</ele>
        <time>2024-10-06T10:09:49.000Z</time>
      </trkpt>
      <trkpt lat="40.485579" lon="0.349951">
        <ele>153.634664</ele>
        <time>2024-10-06T10:10:06.000Z</time>
      </trkpt>
      <trkpt lat="40.485329" lon="0.350127">
        <ele>152.28087</ele>
        <time>2024-10-06T10:10:09.000Z</time>
      </trkpt>
      <trkpt lat="40.485051" lon="0.350239">
        <ele>150.966785</ele>
        <time>2024-10-06T10:10:12.000Z</time>
      </trkpt>
      <trkpt lat="40.484564" lon="0.350393">
        <ele>148.6563</ele>
        <time>2024-10-06T10:10:18.000Z</time>
      </trkpt>
      <trkpt lat="40.483656" lon="0.350579">
        <ele>144.507003</ele>
        <time>2024-10-06T10:10:28.000Z</time>
      </trkpt>
      <trkpt lat="40.483209" lon="0.350596">
        <ele>142.516961</ele>
        <time>2024-10-06T10:10:33.000Z</time>
      </trkpt>
      <trkpt lat="40.481381" lon="0.350606">
        <ele>134.611263</ele>
        <time>2024-10-06T10:10:53.000Z</time>
      </trkpt>
      <trkpt lat="40.47975" lon="0.350629">
        <ele>129.194894</ele>
        <time>2024-10-06T10:11:11.000Z</time>
      </trkpt>
      <trkpt lat="40.479125" lon="0.35072">
        <ele>128.096179</ele>
        <time>2024-10-06T10:11:18.000Z</time>
      </trkpt>
      <trkpt lat="40.478779" lon="0.350707">
        <ele>127.465647</ele>
        <time>2024-10-06T10:11:22.000Z</time>
      </trkpt>
      <trkpt lat="40.477611" lon="0.350376">
        <ele>125.549102</ele>
        <time>2024-10-06T10:11:35.000Z</time>
      </trkpt>
      <trkpt lat="40.477181" lon="0.35036">
        <ele>125.005556</ele>
        <time>2024-10-06T10:11:40.000Z</time>
      </trkpt>
      <trkpt lat="40.476307" lon="0.350457">
        <ele>123.865334</ele>
        <time>2024-10-06T10:11:50.000Z</time>
      </trkpt>
      <trkpt lat="40.475936" lon="0.350554">
        <ele>123.30134</ele>
        <time>2024-10-06T10:11:54.000Z</time>
      </trkpt>
      <trkpt lat="40.475588" lon="0.350674">
        <ele>122.723266</ele>
        <time>2024-10-06T10:11:58.000Z</time>
      </trkpt>
      <trkpt lat="40.474885" lon="0.350997">
        <ele>121.525194</ele>
        <time>2024-10-06T10:12:06.000Z</time>
      </trkpt>
      <trkpt lat="40.474661" lon="0.351159">
        <ele>121.122556</ele>
        <time>2024-10-06T10:12:09.000Z</time>
      </trkpt>
      <trkpt lat="40.473818" lon="0.351818">
        <ele>119.491864</ele>
        <time>2024-10-06T10:12:20.000Z</time>
      </trkpt>
      <trkpt lat="40.473478" lon="0.352176">
        <ele>118.744418</ele>
        <time>2024-10-06T10:12:25.000Z</time>
      </trkpt>
      <trkpt lat="40.472681" lon="0.353151">
        <ele>116.876485</ele>
        <time>2024-10-06T10:12:37.000Z</time>
      </trkpt>
      <trkpt lat="40.472515" lon="0.353283">
        <ele>116.529616</ele>
        <time>2024-10-06T10:12:39.000Z</time>
      </trkpt>
      <trkpt lat="40.472185" lon="0.353448">
        <ele>115.870004</ele>
        <time>2024-10-06T10:12:43.000Z</time>
      </trkpt>
      <trkpt lat="40.471516" lon="0.353726">
        <ele>114.612244</ele>
        <time>2024-10-06T10:12:51.000Z</time>
      </trkpt>
      <trkpt lat="40.47062" lon="0.354287">
        <ele>112.884999</ele>
        <time>2024-10-06T10:13:02.000Z</time>
      </trkpt>
      <trkpt lat="40.470273" lon="0.35454">
        <ele>112.159898</ele>
        <time>2024-10-06T10:13:06.000Z</time>
      </trkpt>
      <trkpt lat="40.469113" lon="0.355555">
        <ele>110.748819</ele>
        <time>2024-10-06T10:13:21.000Z</time>
      </trkpt>
      <trkpt lat="40.468988" lon="0.355638">
        <ele>110.652076</ele>
        <time>2024-10-06T10:13:23.000Z</time>
      </trkpt>
      <trkpt lat="40.468841" lon="0.355733">
        <ele>110.531443</ele>
        <time>2024-10-06T10:13:25.000Z</time>
      </trkpt>
      <trkpt lat="40.468856" lon="0.355796">
        <ele>110.492024</ele>
        <time>2024-10-06T10:13:26.000Z</time>
      </trkpt>
      <trkpt lat="40.468887" lon="0.356003">
        <ele>110.37755</ele>
        <time>2024-10-06T10:13:28.000Z</time>
      </trkpt>
      <trkpt lat="40.469023" lon="0.356009">
        <ele>110.274152</ele>
        <time>2024-10-06T10:13:30.000Z</time>
      </trkpt>
      <trkpt lat="40.468995" lon="0.355634">
        <ele>110.32822</ele>
        <time>2024-10-06T10:13:33.000Z</time>
      </trkpt>
      <trkpt lat="40.469121" lon="0.355561">
        <ele>110.484792</ele>
        <time>2024-10-06T10:13:35.000Z</time>
      </trkpt>
      <trkpt lat="40.470263" lon="0.354538">
        <ele>112.109441</ele>
        <time>2024-10-06T10:13:50.000Z</time>
      </trkpt>
      <trkpt lat="40.470623" lon="0.354287">
        <ele>112.784399</ele>
        <time>2024-10-06T10:13:55.000Z</time>
      </trkpt>
      <trkpt lat="40.471503" lon="0.353731">
        <ele>114.626198</ele>
        <time>2024-10-06T10:14:06.000Z</time>
      </trkpt>
      <trkpt lat="40.472187" lon="0.353459">
        <ele>115.9162</ele>
        <time>2024-10-06T10:14:14.000Z</time>
      </trkpt>
      <trkpt lat="40.472515" lon="0.353272">
        <ele>116.54983</ele>
        <time>2024-10-06T10:14:18.000Z</time>
      </trkpt>
      <trkpt lat="40.47269" lon="0.353142">
        <ele>116.883003</ele>
        <time>2024-10-06T10:14:20.000Z</time>
      </trkpt>
      <trkpt lat="40.473473" lon="0.352183">
        <ele>118.737979</ele>
        <time>2024-10-06T10:14:32.000Z</time>
      </trkpt>
      <trkpt lat="40.473819" lon="0.351824">
        <ele>119.486537</ele>
        <time>2024-10-06T10:14:37.000Z</time>
      </trkpt>
      <trkpt lat="40.474663" lon="0.35116">
        <ele>121.130972</ele>
        <time>2024-10-06T10:14:48.000Z</time>
      </trkpt>
      <trkpt lat="40.474889" lon="0.350996">
        <ele>121.554023</ele>
        <time>2024-10-06T10:14:51.000Z</time>
      </trkpt>
      <trkpt lat="40.47559" lon="0.35066">
        <ele>122.711929</ele>
        <time>2024-10-06T10:14:59.000Z</time>
      </trkpt>
      <trkpt lat="40.475937" lon="0.350544">
        <ele>123.26052</ele>
        <time>2024-10-06T10:15:03.000Z</time>
      </trkpt>
      <trkpt lat="40.476299" lon="0.350464">
        <ele>123.821115</ele>
        <time>2024-10-06T10:15:07.000Z</time>
      </trkpt>
      <trkpt lat="40.47719" lon="0.350371">
        <ele>125.047235</ele>
        <time>2024-10-06T10:15:17.000Z</time>
      </trkpt>
      <trkpt lat="40.477596" lon="0.350369">
        <ele>125.578344</ele>
        <time>2024-10-06T10:15:22.000Z</time>
      </trkpt>
      <trkpt lat="40.478778" lon="0.350706">
        <ele>127.334622</ele>
        <time>2024-10-06T10:15:35.000Z</time>
      </trkpt>
      <trkpt lat="40.479132" lon="0.350711">
        <ele>128.129587</ele>
        <time>2024-10-06T10:15:39.000Z</time>
      </trkpt>
      <trkpt lat="40.479759" lon="0.350631">
        <ele>129.514833</ele>
        <time>2024-10-06T10:15:46.000Z</time>
      </trkpt>
      <trkpt lat="40.481385" lon="0.350608">
        <ele>134.781614</ele>
        <time>2024-10-06T10:16:04.000Z</time>
      </trkpt>
      <trkpt lat="40.483209" lon="0.350596">
        <ele>142.50931</ele>
        <time>2024-10-06T10:16:24.000Z</time>
      </trkpt>
      <trkpt lat="40.483654" lon="0.350571">
        <ele>144.51806</ele>
        <time>2024-10-06T10:16:29.000Z</time>
      </trkpt>
      <trkpt lat="40.484559" lon="0.350392">
        <ele>148.66857</ele>
        <time>2024-10-06T10:16:39.000Z</time>
      </trkpt>
      <trkpt lat="40.48506" lon="0.35023">
        <ele>150.978208</ele>
        <time>2024-10-06T10:16:45.000Z</time>
      </trkpt>
      <trkpt lat="40.485318" lon="0.350109">
        <ele>152.264691</ele>
        <time>2024-10-06T10:16:48.000Z</time>
      </trkpt>
      <trkpt lat="40.485588" lon="0.349951">
        <ele>153.576231</ele>
        <time>2024-10-06T10:16:51.000Z</time>
      </trkpt>
      <trkpt lat="40.486953" lon="0.348935">
        <ele>161.015325</ele>
        <time>2024-10-06T10:17:08.000Z</time>
      </trkpt>
      <trkpt lat="40.487288" lon="0.348744">
        <ele>162.713148</ele>
        <time>2024-10-06T10:17:12.000Z</time>
      </trkpt>
      <trkpt lat="40.487614" lon="0.348596">
        <ele>164.137861</ele>
        <time>2024-10-06T10:17:16.000Z</time>
      </trkpt>
      <trkpt lat="40.489353" lon="0.348104">
        <ele>169.356247</ele>
        <time>2024-10-06T10:17:36.000Z</time>
      </trkpt>
      <trkpt lat="40.489752" lon="0.347986">
        <ele>168.991599</ele>
        <time>2024-10-06T10:17:41.000Z</time>
      </trkpt>
      <trkpt lat="40.489937" lon="0.347874">
        <ele>168.798872</ele>
        <time>2024-10-06T10:17:43.000Z</time>
      </trkpt>
      <trkpt lat="40.490503" lon="0.347425">
        <ele>168.210639</ele>
        <time>2024-10-06T10:17:50.000Z</time>
      </trkpt>
      <trkpt lat="40.490716" lon="0.34717">
        <ele>167.135932</ele>
        <time>2024-10-06T10:17:53.000Z</time>
      </trkpt>
      <trkpt lat="40.49101" lon="0.346757">
        <ele>164.622071</ele>
        <time>2024-10-06T10:17:58.000Z</time>
      </trkpt>
      <trkpt lat="40.491473" lon="0.346066">
        <ele>160.626224</ele>
        <time>2024-10-06T10:18:06.000Z</time>
      </trkpt>
      <trkpt lat="40.492972" lon="0.34457">
        <ele>150.004461</ele>
        <time>2024-10-06T10:18:27.000Z</time>
      </trkpt>
      <trkpt lat="40.493182" lon="0.344437">
        <ele>148.699092</ele>
        <time>2024-10-06T10:18:30.000Z</time>
      </trkpt>
      <trkpt lat="40.493519" lon="0.344323">
        <ele>147.004684</ele>
        <time>2024-10-06T10:18:34.000Z</time>
      </trkpt>
      <trkpt lat="40.493757" lon="0.344299">
        <ele>145.982972</ele>
        <time>2024-10-06T10:18:37.000Z</time>
      </trkpt>
      <trkpt lat="40.494232" lon="0.344373">
        <ele>143.898157</ele>
        <time>2024-10-06T10:18:42.000Z</time>
      </trkpt>
      <trkpt lat="40.494901" lon="0.344349">
        <ele>141.06379</ele>
        <time>2024-10-06T10:18:49.000Z</time>
      </trkpt>
      <trkpt lat="40.495154" lon="0.344336">
        <ele>139.948441</ele>
        <time>2024-10-06T10:18:52.000Z</time>
      </trkpt>
      <trkpt lat="40.49536" lon="0.344265">
        <ele>139.262608</ele>
        <time>2024-10-06T10:18:54.000Z</time>
      </trkpt>
      <trkpt lat="40.495537" lon="0.344116">
        <ele>138.582918</ele>
        <time>2024-10-06T10:18:56.000Z</time>
      </trkpt>
      <trkpt lat="40.495631" lon="0.343965">
        <ele>138.124878</ele>
        <time>2024-10-06T10:18:58.000Z</time>
      </trkpt>
      <trkpt lat="40.495806" lon="0.343552">
        <ele>136.979224</ele>
        <time>2024-10-06T10:19:02.000Z</time>
      </trkpt>
      <trkpt lat="40.495888" lon="0.343402">
        <ele>136.535119</ele>
        <time>2024-10-06T10:19:04.000Z</time>
      </trkpt>
      <trkpt lat="40.49597" lon="0.343352">
        <ele>136.232955</ele>
        <time>2024-10-06T10:19:05.000Z</time>
      </trkpt>
      <trkpt lat="40.496524" lon="0.343275">
        <ele>134.47724</ele>
        <time>2024-10-06T10:19:11.000Z</time>
      </trkpt>
      <trkpt lat="40.497688" lon="0.342933">
        <ele>131.691761</ele>
        <time>2024-10-06T10:19:24.000Z</time>
      </trkpt>
      <trkpt lat="40.49894" lon="0.342849">
        <ele>129.970839</ele>
        <time>2024-10-06T10:19:38.000Z</time>
      </trkpt>
      <trkpt lat="40.499332" lon="0.342745">
        <ele>129.829961</ele>
        <time>2024-10-06T10:19:42.000Z</time>
      </trkpt>
      <trkpt lat="40.500194" lon="0.34237">
        <ele>129.594457</ele>
        <time>2024-10-06T10:19:52.000Z</time>
      </trkpt>
      <trkpt lat="40.501502" lon="0.342128">
        <ele>130.546157</ele>
        <time>2024-10-06T10:20:07.000Z</time>
      </trkpt>
      <trkpt lat="40.502361" lon="0.341954">
        <ele>131.163201</ele>
        <time>2024-10-06T10:20:17.000Z</time>
      </trkpt>
      <trkpt lat="40.502551" lon="0.341847">
        <ele>131.307924</ele>
        <time>2024-10-06T10:20:19.000Z</time>
      </trkpt>
      <trkpt lat="40.503599" lon="0.340876">
        <ele>132.259327</ele>
        <time>2024-10-06T10:20:33.000Z</time>
      </trkpt>
      <trkpt lat="40.503775" lon="0.340616">
        <ele>132.503989</ele>
        <time>2024-10-06T10:20:36.000Z</time>
      </trkpt>
      <trkpt lat="40.503925" lon="0.340433">
        <ele>132.698186</ele>
        <time>2024-10-06T10:20:38.000Z</time>
      </trkpt>
      <trkpt lat="40.504073" lon="0.340316">
        <ele>132.859254</ele>
        <time>2024-10-06T10:20:40.000Z</time>
      </trkpt>
      <trkpt lat="40.504229" lon="0.34022">
        <ele>133.012719</ele>
        <time>2024-10-06T10:20:42.000Z</time>
      </trkpt>
      <trkpt lat="40.504479" lon="0.340142">
        <ele>133.250146</ele>
        <time>2024-10-06T10:20:45.000Z</time>
      </trkpt>
      <trkpt lat="40.504962" lon="0.340121">
        <ele>133.692638</ele>
        <time>2024-10-06T10:20:50.000Z</time>
      </trkpt>
      <trkpt lat="40.505949" lon="0.340134">
        <ele>135.089188</ele>
        <time>2024-10-06T10:21:01.000Z</time>
      </trkpt>
      <trkpt lat="40.506562" lon="0.340026">
        <ele>135.995894</ele>
        <time>2024-10-06T10:21:08.000Z</time>
      </trkpt>
      <trkpt lat="40.506686" lon="0.339939">
        <ele>136.198242</ele>
        <time>2024-10-06T10:21:10.000Z</time>
      </trkpt>
      <trkpt lat="40.506781" lon="0.339801">
        <ele>136.44436</ele>
        <time>2024-10-06T10:21:12.000Z</time>
      </trkpt>
      <trkpt lat="40.506842" lon="0.339644">
        <ele>136.703121</ele>
        <time>2024-10-06T10:21:13.000Z</time>
      </trkpt>
      <trkpt lat="40.506877" lon="0.339462">
        <ele>137.000591</ele>
        <time>2024-10-06T10:21:15.000Z</time>
      </trkpt>
      <trkpt lat="40.506765" lon="0.338019">
        <ele>139.310754</ele>
        <time>2024-10-06T10:21:27.000Z</time>
      </trkpt>
      <trkpt lat="40.506782" lon="0.337865">
        <ele>139.553274</ele>
        <time>2024-10-06T10:21:28.000Z</time>
      </trkpt>
      <trkpt lat="40.506794" lon="0.337722">
        <ele>139.778678</ele>
        <time>2024-10-06T10:21:29.000Z</time>
      </trkpt>
      <trkpt lat="40.506855" lon="0.337588">
        <ele>140.027054</ele>
        <time>2024-10-06T10:21:30.000Z</time>
      </trkpt>
      <trkpt lat="40.50733" lon="0.336792">
        <ele>142.160281</ele>
        <time>2024-10-06T10:21:39.000Z</time>
      </trkpt>
      <trkpt lat="40.508095" lon="0.335457">
        <ele>146.089433</ele>
        <time>2024-10-06T10:21:53.000Z</time>
      </trkpt>
      <trkpt lat="40.508879" lon="0.333864">
        <ele>153.113078</ele>
        <time>2024-10-06T10:22:09.000Z</time>
      </trkpt>
      <trkpt lat="40.509054" lon="0.333209">
        <ele>155.728495</ele>
        <time>2024-10-06T10:22:15.000Z</time>
      </trkpt>
      <trkpt lat="40.509109" lon="0.333057">
        <ele>156.377431</ele>
        <time>2024-10-06T10:22:16.000Z</time>
      </trkpt>
      <trkpt lat="40.509191" lon="0.332638">
        <ele>157.946858</ele>
        <time>2024-10-06T10:22:20.000Z</time>
      </trkpt>
      <trkpt lat="40.509229" lon="0.332511">
        <ele>158.495702</ele>
        <time>2024-10-06T10:22:21.000Z</time>
      </trkpt>
      <trkpt lat="40.509281" lon="0.332374">
        <ele>159.039938</ele>
        <time>2024-10-06T10:22:22.000Z</time>
      </trkpt>
      <trkpt lat="40.509469" lon="0.33221">
        <ele>160.157267</ele>
        <time>2024-10-06T10:22:25.000Z</time>
      </trkpt>
      <trkpt lat="40.509349" lon="0.332036">
        <ele>161.016447</ele>
        <time>2024-10-06T10:22:27.000Z</time>
      </trkpt>
      <trkpt lat="40.509102" lon="0.331882">
        <ele>162.358371</ele>
        <time>2024-10-06T10:22:30.000Z</time>
      </trkpt>
      <trkpt lat="40.508728" lon="0.331631">
        <ele>163.181844</ele>
        <time>2024-10-06T10:22:35.000Z</time>
      </trkpt>
      <trkpt lat="40.508636" lon="0.331566">
        <ele>163.294117</ele>
        <time>2024-10-06T10:22:36.000Z</time>
      </trkpt>
      <trkpt lat="40.50837" lon="0.331304">
        <ele>163.651854</ele>
        <time>2024-10-06T10:22:40.000Z</time>
      </trkpt>
      <trkpt lat="40.50833" lon="0.331271">
        <ele>163.691135</ele>
        <time>2024-10-06T10:22:41.000Z</time>
      </trkpt>
      <trkpt lat="40.507413" lon="0.330322">
        <ele>164.754799</ele>
        <time>2024-10-06T10:22:54.000Z</time>
      </trkpt>
      <trkpt lat="40.507237" lon="0.330158">
        <ele>164.757526</ele>
        <time>2024-10-06T10:22:56.000Z</time>
      </trkpt>
      <trkpt lat="40.506513" lon="0.329357">
        <ele>164.769932</ele>
        <time>2024-10-06T10:23:07.000Z</time>
      </trkpt>
      <trkpt lat="40.505672" lon="0.328285">
        <ele>166.17159</ele>
        <time>2024-10-06T10:23:20.000Z</time>
      </trkpt>
      <trkpt lat="40.505499" lon="0.328192">
        <ele>166.550797</ele>
        <time>2024-10-06T10:23:22.000Z</time>
      </trkpt>
      <trkpt lat="40.505406" lon="0.328067">
        <ele>166.7839</ele>
        <time>2024-10-06T10:23:23.000Z</time>
      </trkpt>
      <trkpt lat="40.504442" lon="0.326755">
        <ele>170.29453</ele>
        <time>2024-10-06T10:23:38.000Z</time>
      </trkpt>
      <trkpt lat="40.504319" lon="0.326578">
        <ele>170.859568</ele>
        <time>2024-10-06T10:23:40.000Z</time>
      </trkpt>
      <trkpt lat="40.503558" lon="0.32553">
        <ele>174.327536</ele>
        <time>2024-10-06T10:23:52.000Z</time>
      </trkpt>
      <trkpt lat="40.503137" lon="0.325063">
        <ele>175.680644</ele>
        <time>2024-10-06T10:23:58.000Z</time>
      </trkpt>
      <trkpt lat="40.502142" lon="0.324547">
        <ele>178.347278</ele>
        <time>2024-10-06T10:24:10.000Z</time>
      </trkpt>
      <trkpt lat="40.49915" lon="0.322358">
        <ele>183.152038</ele>
        <time>2024-10-06T10:24:48.000Z</time>
      </trkpt>
      <trkpt lat="40.497564" lon="0.321205">
        <ele>183.866434</ele>
        <time>2024-10-06T10:25:08.000Z</time>
      </trkpt>
      <trkpt lat="40.493184" lon="0.318025">
        <ele>181.785809</ele>
        <time>2024-10-06T10:26:04.000Z</time>
      </trkpt>
      <trkpt lat="40.492536" lon="0.317593">
        <ele>181.163966</ele>
        <time>2024-10-06T10:26:12.000Z</time>
      </trkpt>
      <trkpt lat="40.490915" lon="0.316801">
        <ele>178.265168</ele>
        <time>2024-10-06T10:26:31.000Z</time>
      </trkpt>
      <trkpt lat="40.485504" lon="0.314064">
        <ele>166.570282</ele>
        <time>2024-10-06T10:27:35.000Z</time>
      </trkpt>
      <trkpt lat="40.479624" lon="0.311368">
        <ele>165.339844</ele>
        <time>2024-10-06T10:28:44.000Z</time>
      </trkpt>
      <trkpt lat="40.475684" lon="0.309562">
        <ele>157.33491</ele>
        <time>2024-10-06T10:29:30.000Z</time>
      </trkpt>
      <trkpt lat="40.473722" lon="0.308132">
        <ele>156.663288</ele>
        <time>2024-10-06T10:29:55.000Z</time>
      </trkpt>
      <trkpt lat="40.473445" lon="0.30784">
        <ele>156.655609</ele>
        <time>2024-10-06T10:29:59.000Z</time>
      </trkpt>
      <trkpt lat="40.472936" lon="0.307181">
        <ele>156.64071</ele>
        <time>2024-10-06T10:30:07.000Z</time>
      </trkpt>
      <trkpt lat="40.472766" lon="0.306941">
        <ele>156.62174</ele>
        <time>2024-10-06T10:30:10.000Z</time>
      </trkpt>
      <trkpt lat="40.472406" lon="0.306597">
        <ele>155.748773</ele>
        <time>2024-10-06T10:30:15.000Z</time>
      </trkpt>
      <trkpt lat="40.471973" lon="0.306355">
        <ele>154.810002</ele>
        <time>2024-10-06T10:30:20.000Z</time>
      </trkpt>
      <trkpt lat="40.471082" lon="0.305817">
        <ele>152.75276</ele>
        <time>2024-10-06T10:30:31.000Z</time>
      </trkpt>
      <trkpt lat="40.470864" lon="0.305795">
        <ele>152.04948</ele>
        <time>2024-10-06T10:30:33.000Z</time>
      </trkpt>
      <trkpt lat="40.469825" lon="0.306139">
        <ele>148.487417</ele>
        <time>2024-10-06T10:30:45.000Z</time>
      </trkpt>
      <trkpt lat="40.469473" lon="0.306131">
        <ele>147.295664</ele>
        <time>2024-10-06T10:30:49.000Z</time>
      </trkpt>
      <trkpt lat="40.468892" lon="0.30589">
        <ele>146.984134</ele>
        <time>2024-10-06T10:30:56.000Z</time>
      </trkpt>
      <trkpt lat="40.46847" lon="0.305643">
        <ele>146.834111</ele>
        <time>2024-10-06T10:31:01.000Z</time>
      </trkpt>
      <trkpt lat="40.468132" lon="0.305262">
        <ele>146.693793</ele>
        <time>2024-10-06T10:31:06.000Z</time>
      </trkpt>
      <trkpt lat="40.468068" lon="0.305116">
        <ele>146.650238</ele>
        <time>2024-10-06T10:31:07.000Z</time>
      </trkpt>
      <trkpt lat="40.467443" lon="0.304049">
        <ele>147.866867</ele>
        <time>2024-10-06T10:31:18.000Z</time>
      </trkpt>
      <trkpt lat="40.467365" lon="0.303708">
        <ele>148.278878</ele>
        <time>2024-10-06T10:31:21.000Z</time>
      </trkpt>
      <trkpt lat="40.467371" lon="0.303391">
        <ele>148.661391</ele>
        <time>2024-10-06T10:31:24.000Z</time>
      </trkpt>
      <trkpt lat="40.467381" lon="0.303252">
        <ele>148.817429</ele>
        <time>2024-10-06T10:31:25.000Z</time>
      </trkpt>
      <trkpt lat="40.467597" lon="0.302675">
        <ele>149.697335</ele>
        <time>2024-10-06T10:31:30.000Z</time>
      </trkpt>
      <trkpt lat="40.467966" lon="0.301676">
        <ele>151.727864</ele>
        <time>2024-10-06T10:31:39.000Z</time>
      </trkpt>
      <trkpt lat="40.468472" lon="0.300331">
        <ele>154.748683</ele>
        <time>2024-10-06T10:31:52.000Z</time>
      </trkpt>
      <trkpt lat="40.468591" lon="0.299746">
        <ele>156.245558</ele>
        <time>2024-10-06T10:31:57.000Z</time>
      </trkpt>
      <trkpt lat="40.468614" lon="0.29907">
        <ele>157.947502</ele>
        <time>2024-10-06T10:32:03.000Z</time>
      </trkpt>
      <trkpt lat="40.468415" lon="0.298227">
        <ele>159.876881</ele>
        <time>2024-10-06T10:32:10.000Z</time>
      </trkpt>
      <trkpt lat="40.46821" lon="0.297732">
        <ele>160.548569</ele>
        <time>2024-10-06T10:32:15.000Z</time>
      </trkpt>
      <trkpt lat="40.467058" lon="0.296082">
        <ele>162.738661</ele>
        <time>2024-10-06T10:32:34.000Z</time>
      </trkpt>
      <trkpt lat="40.466574" lon="0.295505">
        <ele>163.199867</ele>
        <time>2024-10-06T10:32:41.000Z</time>
      </trkpt>
      <trkpt lat="40.465893" lon="0.294917">
        <ele>163.794782</ele>
        <time>2024-10-06T10:32:50.000Z</time>
      </trkpt>
      <trkpt lat="40.465575" lon="0.294686">
        <ele>164.070445</ele>
        <time>2024-10-06T10:32:54.000Z</time>
      </trkpt>
      <trkpt lat="40.465431" lon="0.294585">
        <ele>164.208265</ele>
        <time>2024-10-06T10:32:56.000Z</time>
      </trkpt>
      <trkpt lat="40.463543" lon="0.293855">
        <ele>166.139074</ele>
        <time>2024-10-06T10:33:18.000Z</time>
      </trkpt>
      <trkpt lat="40.463252" lon="0.293709">
        <ele>166.519365</ele>
        <time>2024-10-06T10:33:21.000Z</time>
      </trkpt>
      <trkpt lat="40.463049" lon="0.293472">
        <ele>166.859571</ele>
        <time>2024-10-06T10:33:24.000Z</time>
      </trkpt>
      <trkpt lat="40.462332" lon="0.292141">
        <ele>169.182705</ele>
        <time>2024-10-06T10:33:38.000Z</time>
      </trkpt>
      <trkpt lat="40.462107" lon="0.291815">
        <ele>169.889996</ele>
        <time>2024-10-06T10:33:42.000Z</time>
      </trkpt>
      <trkpt lat="40.461929" lon="0.291569">
        <ele>170.436617</ele>
        <time>2024-10-06T10:33:45.000Z</time>
      </trkpt>
      <trkpt lat="40.461303" lon="0.290967">
        <ele>171.775663</ele>
        <time>2024-10-06T10:33:54.000Z</time>
      </trkpt>
      <trkpt lat="40.460455" lon="0.290487">
        <ele>173.071152</ele>
        <time>2024-10-06T10:34:04.000Z</time>
      </trkpt>
      <trkpt lat="40.460297" lon="0.290387">
        <ele>173.310426</ele>
        <time>2024-10-06T10:34:06.000Z</time>
      </trkpt>
      <trkpt lat="40.460197" lon="0.290296">
        <ele>173.483512</ele>
        <time>2024-10-06T10:34:07.000Z</time>
      </trkpt>
      <trkpt lat="40.460001" lon="0.290168">
        <ele>173.631858</ele>
        <time>2024-10-06T10:34:09.000Z</time>
      </trkpt>
      <trkpt lat="40.459299" lon="0.289473">
        <ele>173.30493</ele>
        <time>2024-10-06T10:34:19.000Z</time>
      </trkpt>
      <trkpt lat="40.4592" lon="0.289304">
        <ele>173.243777</ele>
        <time>2024-10-06T10:34:21.000Z</time>
      </trkpt>
      <trkpt lat="40.459184" lon="0.28915">
        <ele>173.198508</ele>
        <time>2024-10-06T10:34:22.000Z</time>
      </trkpt>
      <trkpt lat="40.45926" lon="0.287904">
        <ele>174.21804</ele>
        <time>2024-10-06T10:34:33.000Z</time>
      </trkpt>
      <trkpt lat="40.459322" lon="0.286793">
        <ele>176.789904</ele>
        <time>2024-10-06T10:34:42.000Z</time>
      </trkpt>
      <trkpt lat="40.459287" lon="0.286585">
        <ele>177.271181</ele>
        <time>2024-10-06T10:34:44.000Z</time>
      </trkpt>
      <trkpt lat="40.459145" lon="0.286387">
        <ele>177.881493</ele>
        <time>2024-10-06T10:34:46.000Z</time>
      </trkpt>
      <trkpt lat="40.459007" lon="0.286208">
        <ele>178.522018</ele>
        <time>2024-10-06T10:34:48.000Z</time>
      </trkpt>
      <trkpt lat="40.458533" lon="0.285775">
        <ele>182.339149</ele>
        <time>2024-10-06T10:34:54.000Z</time>
      </trkpt>
      <trkpt lat="40.458267" lon="0.285283">
        <ele>185.334124</ele>
        <time>2024-10-06T10:34:59.000Z</time>
      </trkpt>
      <trkpt lat="40.458132" lon="0.285007">
        <ele>187.002595</ele>
        <time>2024-10-06T10:35:02.000Z</time>
      </trkpt>
      <trkpt lat="40.457964" lon="0.284652">
        <ele>189.082578</ele>
        <time>2024-10-06T10:35:06.000Z</time>
      </trkpt>
      <trkpt lat="40.45752" lon="0.283769">
        <ele>194.83153</ele>
        <time>2024-10-06T10:35:15.000Z</time>
      </trkpt>
      <trkpt lat="40.457476" lon="0.283569">
        <ele>195.99561</ele>
        <time>2024-10-06T10:35:17.000Z</time>
      </trkpt>
      <trkpt lat="40.457515" lon="0.283332">
        <ele>197.377255</ele>
        <time>2024-10-06T10:35:19.000Z</time>
      </trkpt>
      <trkpt lat="40.457604" lon="0.283147">
        <ele>198.621698</ele>
        <time>2024-10-06T10:35:21.000Z</time>
      </trkpt>
      <trkpt lat="40.457729" lon="0.283012">
        <ele>199.772364</ele>
        <time>2024-10-06T10:35:23.000Z</time>
      </trkpt>
      <trkpt lat="40.458244" lon="0.282757">
        <ele>203.810821</ele>
        <time>2024-10-06T10:35:29.000Z</time>
      </trkpt>
      <trkpt lat="40.458359" lon="0.282642">
        <ele>204.703079</ele>
        <time>2024-10-06T10:35:31.000Z</time>
      </trkpt>
      <trkpt lat="40.458428" lon="0.282515">
        <ele>205.43436</ele>
        <time>2024-10-06T10:35:32.000Z</time>
      </trkpt>
      <trkpt lat="40.458442" lon="0.282356">
        <ele>206.196892</ele>
        <time>2024-10-06T10:35:33.000Z</time>
      </trkpt>
      <trkpt lat="40.458328" lon="0.281761">
        <ele>209.121638</ele>
        <time>2024-10-06T10:35:38.000Z</time>
      </trkpt>
      <trkpt lat="40.458238" lon="0.281547">
        <ele>210.267847</ele>
        <time>2024-10-06T10:35:40.000Z</time>
      </trkpt>
      <trkpt lat="40.457675" lon="0.280817">
        <ele>215.0556</ele>
        <time>2024-10-06T10:35:49.000Z</time>
      </trkpt>
      <trkpt lat="40.457485" lon="0.280577">
        <ele>216.587866</ele>
        <time>2024-10-06T10:35:52.000Z</time>
      </trkpt>
      <trkpt lat="40.457055" lon="0.279817">
        <ele>220.693019</ele>
        <time>2024-10-06T10:36:00.000Z</time>
      </trkpt>
      <trkpt lat="40.457005" lon="0.279617">
        <ele>221.653153</ele>
        <time>2024-10-06T10:36:02.000Z</time>
      </trkpt>
      <trkpt lat="40.457038" lon="0.279427">
        <ele>222.50453</ele>
        <time>2024-10-06T10:36:04.000Z</time>
      </trkpt>
      <trkpt lat="40.457323" lon="0.27872">
        <ele>226.401665</ele>
        <time>2024-10-06T10:36:11.000Z</time>
      </trkpt>
      <trkpt lat="40.457352" lon="0.278487">
        <ele>227.806842</ele>
        <time>2024-10-06T10:36:13.000Z</time>
      </trkpt>
      <trkpt lat="40.457309" lon="0.278102">
        <ele>230.091472</ele>
        <time>2024-10-06T10:36:16.000Z</time>
      </trkpt>
      <trkpt lat="40.457136" lon="0.27672">
        <ele>238.447566</ele>
        <time>2024-10-06T10:36:28.000Z</time>
      </trkpt>
      <trkpt lat="40.457047" lon="0.276495">
        <ele>239.832798</ele>
        <time>2024-10-06T10:36:30.000Z</time>
      </trkpt>
      <trkpt lat="40.456886" lon="0.276292">
        <ele>241.317428</ele>
        <time>2024-10-06T10:36:32.000Z</time>
      </trkpt>
      <trkpt lat="40.456805" lon="0.276254">
        <ele>241.92441</ele>
        <time>2024-10-06T10:36:33.000Z</time>
      </trkpt>
      <trkpt lat="40.456709" lon="0.276272">
        <ele>242.519082</ele>
        <time>2024-10-06T10:36:34.000Z</time>
      </trkpt>
      <trkpt lat="40.45626" lon="0.27665">
        <ele>246.100964</ele>
        <time>2024-10-06T10:36:40.000Z</time>
      </trkpt>
      <trkpt lat="40.455864" lon="0.277237">
        <ele>250.192961</ele>
        <time>2024-10-06T10:36:47.000Z</time>
      </trkpt>
      <trkpt lat="40.455715" lon="0.277485">
        <ele>251.384872</ele>
        <time>2024-10-06T10:36:50.000Z</time>
      </trkpt>
      <trkpt lat="40.455643" lon="0.277704">
        <ele>251.988709</ele>
        <time>2024-10-06T10:36:52.000Z</time>
      </trkpt>
      <trkpt lat="40.455558" lon="0.278587">
        <ele>254.147654</ele>
        <time>2024-10-06T10:37:00.000Z</time>
      </trkpt>
      <trkpt lat="40.455477" lon="0.278813">
        <ele>254.728852</ele>
        <time>2024-10-06T10:37:02.000Z</time>
      </trkpt>
      <trkpt lat="40.45537" lon="0.278992">
        <ele>255.279632</ele>
        <time>2024-10-06T10:37:04.000Z</time>
      </trkpt>
      <trkpt lat="40.455044" lon="0.279386">
        <ele>256.715197</ele>
        <time>2024-10-06T10:37:09.000Z</time>
      </trkpt>
      <trkpt lat="40.454954" lon="0.279606">
        <ele>257.583107</ele>
        <time>2024-10-06T10:37:11.000Z</time>
      </trkpt>
      <trkpt lat="40.454886" lon="0.280131">
        <ele>259.554943</ele>
        <time>2024-10-06T10:37:16.000Z</time>
      </trkpt>
      <trkpt lat="40.454841" lon="0.28027">
        <ele>260.125472</ele>
        <time>2024-10-06T10:37:17.000Z</time>
      </trkpt>
      <trkpt lat="40.454744" lon="0.280366">
        <ele>260.718611</ele>
        <time>2024-10-06T10:37:18.000Z</time>
      </trkpt>
      <trkpt lat="40.454623" lon="0.280358">
        <ele>261.270138</ele>
        <time>2024-10-06T10:37:19.000Z</time>
      </trkpt>
      <trkpt lat="40.454579" lon="0.280311">
        <ele>261.614854</ele>
        <time>2024-10-06T10:37:20.000Z</time>
      </trkpt>
      <trkpt lat="40.454557" lon="0.280176">
        <ele>262.151712</ele>
        <time>2024-10-06T10:37:21.000Z</time>
      </trkpt>
      <trkpt lat="40.45462" lon="0.280021">
        <ele>262.74065</ele>
        <time>2024-10-06T10:37:22.000Z</time>
      </trkpt>
      <trkpt lat="40.454658" lon="0.279601">
        <ele>264.326769</ele>
        <time>2024-10-06T10:37:26.000Z</time>
      </trkpt>
      <trkpt lat="40.454682" lon="0.279448">
        <ele>264.926465</ele>
        <time>2024-10-06T10:37:27.000Z</time>
      </trkpt>
      <trkpt lat="40.454895" lon="0.278885">
        <ele>267.164265</ele>
        <time>2024-10-06T10:37:32.000Z</time>
      </trkpt>
      <trkpt lat="40.45496" lon="0.278735">
        <ele>267.752275</ele>
        <time>2024-10-06T10:37:33.000Z</time>
      </trkpt>
      <trkpt lat="40.454987" lon="0.278539">
        <ele>268.433483</ele>
        <time>2024-10-06T10:37:35.000Z</time>
      </trkpt>
      <trkpt lat="40.454948" lon="0.278038">
        <ele>270.182217</ele>
        <time>2024-10-06T10:37:39.000Z</time>
      </trkpt>
      <trkpt lat="40.454944" lon="0.277777">
        <ele>271.038402</ele>
        <time>2024-10-06T10:37:41.000Z</time>
      </trkpt>
      <trkpt lat="40.455241" lon="0.276408">
        <ele>274.781509</ele>
        <time>2024-10-06T10:37:53.000Z</time>
      </trkpt>
      <trkpt lat="40.455341" lon="0.276174">
        <ele>275.169197</ele>
        <time>2024-10-06T10:37:55.000Z</time>
      </trkpt>
      <trkpt lat="40.455999" lon="0.274881">
        <ele>277.587289</ele>
        <time>2024-10-06T10:38:08.000Z</time>
      </trkpt>
      <trkpt lat="40.456271" lon="0.274432">
        <ele>278.634236</ele>
        <time>2024-10-06T10:38:13.000Z</time>
      </trkpt>
      <trkpt lat="40.456469" lon="0.273856">
        <ele>279.72256</ele>
        <time>2024-10-06T10:38:18.000Z</time>
      </trkpt>
      <trkpt lat="40.456548" lon="0.273636">
        <ele>280.167666</ele>
        <time>2024-10-06T10:38:20.000Z</time>
      </trkpt>
      <trkpt lat="40.45674" lon="0.273027">
        <ele>281.321443</ele>
        <time>2024-10-06T10:38:26.000Z</time>
      </trkpt>
      <trkpt lat="40.456791" lon="0.272873">
        <ele>281.627492</ele>
        <time>2024-10-06T10:38:27.000Z</time>
      </trkpt>
      <trkpt lat="40.456792" lon="0.272834">
        <ele>281.62483</ele>
        <time>2024-10-06T10:38:27.000Z</time>
      </trkpt>
      <trkpt lat="40.457105" lon="0.271963">
        <ele>281.546726</ele>
        <time>2024-10-06T10:38:35.000Z</time>
      </trkpt>
      <trkpt lat="40.457144" lon="0.271676">
        <ele>281.523407</ele>
        <time>2024-10-06T10:38:37.000Z</time>
      </trkpt>
      <trkpt lat="40.45718" lon="0.270834">
        <ele>281.454179</ele>
        <time>2024-10-06T10:38:44.000Z</time>
      </trkpt>
      <trkpt lat="40.457137" lon="0.270658">
        <ele>281.439359</ele>
        <time>2024-10-06T10:38:46.000Z</time>
      </trkpt>
      <trkpt lat="40.45706" lon="0.270555">
        <ele>281.352247</ele>
        <time>2024-10-06T10:38:47.000Z</time>
      </trkpt>
      <trkpt lat="40.45647" lon="0.27014">
        <ele>280.649786</ele>
        <time>2024-10-06T10:38:54.000Z</time>
      </trkpt>
      <trkpt lat="40.45641" lon="0.269992">
        <ele>280.509583</ele>
        <time>2024-10-06T10:38:55.000Z</time>
      </trkpt>
      <trkpt lat="40.456397" lon="0.269868">
        <ele>280.405979</ele>
        <time>2024-10-06T10:38:56.000Z</time>
      </trkpt>
      <trkpt lat="40.456412" lon="0.269715">
        <ele>280.282602</ele>
        <time>2024-10-06T10:38:57.000Z</time>
      </trkpt>
      <trkpt lat="40.456458" lon="0.269634">
        <ele>280.194129</ele>
        <time>2024-10-06T10:38:58.000Z</time>
      </trkpt>
      <trkpt lat="40.456517" lon="0.269596">
        <ele>280.113716</ele>
        <time>2024-10-06T10:38:59.000Z</time>
      </trkpt>
      <trkpt lat="40.456839" lon="0.269416">
        <ele>279.75894</ele>
        <time>2024-10-06T10:39:03.000Z</time>
      </trkpt>
      <trkpt lat="40.456944" lon="0.269269">
        <ele>279.586195</ele>
        <time>2024-10-06T10:39:05.000Z</time>
      </trkpt>
      <trkpt lat="40.457058" lon="0.269046">
        <ele>279.620785</ele>
        <time>2024-10-06T10:39:07.000Z</time>
      </trkpt>
      <trkpt lat="40.457074" lon="0.268898">
        <ele>279.700332</ele>
        <time>2024-10-06T10:39:08.000Z</time>
      </trkpt>
      <trkpt lat="40.457014" lon="0.268798">
        <ele>279.775851</ele>
        <time>2024-10-06T10:39:09.000Z</time>
      </trkpt>
      <trkpt lat="40.45672" lon="0.268569">
        <ele>280.012019</ele>
        <time>2024-10-06T10:39:13.000Z</time>
      </trkpt>
      <trkpt lat="40.456641" lon="0.268371">
        <ele>280.128554</ele>
        <time>2024-10-06T10:39:15.000Z</time>
      </trkpt>
      <trkpt lat="40.456524" lon="0.26714">
        <ele>280.806507</ele>
        <time>2024-10-06T10:39:25.000Z</time>
      </trkpt>
      <trkpt lat="40.456516" lon="0.266846">
        <ele>281.756698</ele>
        <time>2024-10-06T10:39:27.000Z</time>
      </trkpt>
      <trkpt lat="40.456678" lon="0.26619">
        <ele>283.923616</ele>
        <time>2024-10-06T10:39:33.000Z</time>
      </trkpt>
      <trkpt lat="40.456772" lon="0.266057">
        <ele>284.495117</ele>
        <time>2024-10-06T10:39:35.000Z</time>
      </trkpt>
      <trkpt lat="40.457981" lon="0.265217">
        <ele>289.583884</ele>
        <time>2024-10-06T10:39:50.000Z</time>
      </trkpt>
      <trkpt lat="40.458064" lon="0.265075">
        <ele>289.99154</ele>
        <time>2024-10-06T10:39:52.000Z</time>
      </trkpt>
      <trkpt lat="40.458051" lon="0.264925">
        <ele>290.338438</ele>
        <time>2024-10-06T10:39:53.000Z</time>
      </trkpt>
      <trkpt lat="40.457699" lon="0.263957">
        <ele>292.788796</ele>
        <time>2024-10-06T10:40:02.000Z</time>
      </trkpt>
      <trkpt lat="40.457651" lon="0.263752">
        <ele>293.267844</ele>
        <time>2024-10-06T10:40:04.000Z</time>
      </trkpt>
      <trkpt lat="40.457665" lon="0.263602">
        <ele>293.578771</ele>
        <time>2024-10-06T10:40:05.000Z</time>
      </trkpt>
      <trkpt lat="40.457729" lon="0.263461">
        <ele>293.483673</ele>
        <time>2024-10-06T10:40:06.000Z</time>
      </trkpt>
      <trkpt lat="40.458744" lon="0.262654">
        <ele>292.547889</ele>
        <time>2024-10-06T10:40:19.000Z</time>
      </trkpt>
      <trkpt lat="40.458934" lon="0.262456">
        <ele>292.36474</ele>
        <time>2024-10-06T10:40:22.000Z</time>
      </trkpt>
      <trkpt lat="40.459346" lon="0.26159">
        <ele>291.404977</ele>
        <time>2024-10-06T10:40:31.000Z</time>
      </trkpt>
      <trkpt lat="40.460153" lon="0.260234">
        <ele>289.465118</ele>
        <time>2024-10-06T10:40:46.000Z</time>
      </trkpt>
      <trkpt lat="40.460318" lon="0.260088">
        <ele>288.969062</ele>
        <time>2024-10-06T10:40:48.000Z</time>
      </trkpt>
      <trkpt lat="40.460443" lon="0.260055">
        <ele>288.647621</ele>
        <time>2024-10-06T10:40:49.000Z</time>
      </trkpt>
      <trkpt lat="40.460543" lon="0.260133">
        <ele>288.35099</ele>
        <time>2024-10-06T10:40:50.000Z</time>
      </trkpt>
      <trkpt lat="40.460615" lon="0.260265">
        <ele>288.029273</ele>
        <time>2024-10-06T10:40:51.000Z</time>
      </trkpt>
      <trkpt lat="40.460671" lon="0.260767">
        <ele>287.03403</ele>
        <time>2024-10-06T10:40:55.000Z</time>
      </trkpt>
      <trkpt lat="40.460704" lon="0.260953">
        <ele>286.670959</ele>
        <time>2024-10-06T10:40:57.000Z</time>
      </trkpt>
      <trkpt lat="40.460781" lon="0.261109">
        <ele>286.332311</ele>
        <time>2024-10-06T10:40:59.000Z</time>
      </trkpt>
      <trkpt lat="40.461141" lon="0.2613">
        <ele>285.345986</ele>
        <time>2024-10-06T10:41:03.000Z</time>
      </trkpt>
      <trkpt lat="40.461274" lon="0.261271">
        <ele>284.956636</ele>
        <time>2024-10-06T10:41:04.000Z</time>
      </trkpt>
      <trkpt lat="40.461386" lon="0.261165">
        <ele>284.329498</ele>
        <time>2024-10-06T10:41:06.000Z</time>
      </trkpt>
      <trkpt lat="40.461825" lon="0.260153">
        <ele>280.25473</ele>
        <time>2024-10-06T10:41:16.000Z</time>
      </trkpt>
      <trkpt lat="40.461847" lon="0.259973">
        <ele>279.623599</ele>
        <time>2024-10-06T10:41:18.000Z</time>
      </trkpt>
      <trkpt lat="40.461743" lon="0.25958">
        <ele>278.188202</ele>
        <time>2024-10-06T10:41:22.000Z</time>
      </trkpt>
      <trkpt lat="40.461806" lon="0.258666">
        <ele>275.056534</ele>
        <time>2024-10-06T10:41:30.000Z</time>
      </trkpt>
      <trkpt lat="40.462066" lon="0.257578">
        <ele>271.277488</ele>
        <time>2024-10-06T10:41:40.000Z</time>
      </trkpt>
      <trkpt lat="40.462061" lon="0.257383">
        <ele>270.666153</ele>
        <time>2024-10-06T10:41:42.000Z</time>
      </trkpt>
      <trkpt lat="40.46195" lon="0.25692">
        <ele>269.053704</ele>
        <time>2024-10-06T10:41:46.000Z</time>
      </trkpt>
      <trkpt lat="40.461958" lon="0.256522">
        <ele>268.690191</ele>
        <time>2024-10-06T10:41:49.000Z</time>
      </trkpt>
      <trkpt lat="40.462005" lon="0.256158">
        <ele>268.398534</ele>
        <time>2024-10-06T10:41:52.000Z</time>
      </trkpt>
      <trkpt lat="40.462175" lon="0.255231">
        <ele>267.673395</ele>
        <time>2024-10-06T10:42:00.000Z</time>
      </trkpt>
      <trkpt lat="40.462377" lon="0.253718">
        <ele>266.911961</ele>
        <time>2024-10-06T10:42:13.000Z</time>
      </trkpt>
      <trkpt lat="40.462522" lon="0.253118">
        <ele>266.733665</ele>
        <time>2024-10-06T10:42:18.000Z</time>
      </trkpt>
      <trkpt lat="40.462729" lon="0.252628">
        <ele>266.575203</ele>
        <time>2024-10-06T10:42:23.000Z</time>
      </trkpt>
      <trkpt lat="40.46298" lon="0.252248">
        <ele>266.139642</ele>
        <time>2024-10-06T10:42:27.000Z</time>
      </trkpt>
      <trkpt lat="40.463211" lon="0.251985">
        <ele>265.413563</ele>
        <time>2024-10-06T10:42:30.000Z</time>
      </trkpt>
      <trkpt lat="40.463522" lon="0.25173">
        <ele>264.509448</ele>
        <time>2024-10-06T10:42:34.000Z</time>
      </trkpt>
      <trkpt lat="40.463935" lon="0.251507">
        <ele>263.466773</ele>
        <time>2024-10-06T10:42:39.000Z</time>
      </trkpt>
      <trkpt lat="40.464559" lon="0.251305">
        <ele>262.039806</ele>
        <time>2024-10-06T10:42:46.000Z</time>
      </trkpt>
      <trkpt lat="40.464853" lon="0.251216">
        <ele>261.61991</ele>
        <time>2024-10-06T10:42:49.000Z</time>
      </trkpt>
      <trkpt lat="40.465227" lon="0.250997">
        <ele>261.035136</ele>
        <time>2024-10-06T10:42:54.000Z</time>
      </trkpt>
      <trkpt lat="40.465449" lon="0.250867">
        <ele>260.680666</ele>
        <time>2024-10-06T10:42:57.000Z</time>
      </trkpt>
      <trkpt lat="40.465676" lon="0.250643">
        <ele>260.276765</ele>
        <time>2024-10-06T10:43:00.000Z</time>
      </trkpt>
      <trkpt lat="40.465885" lon="0.250389">
        <ele>259.875906</ele>
        <time>2024-10-06T10:43:03.000Z</time>
      </trkpt>
      <trkpt lat="40.466093" lon="0.250054">
        <ele>259.882046</ele>
        <time>2024-10-06T10:43:07.000Z</time>
      </trkpt>
      <trkpt lat="40.466943" lon="0.24827">
        <ele>262.117155</ele>
        <time>2024-10-06T10:43:25.000Z</time>
      </trkpt>
      <trkpt lat="40.466994" lon="0.248188">
        <ele>262.288119</ele>
        <time>2024-10-06T10:43:26.000Z</time>
      </trkpt>
      <trkpt lat="40.467167" lon="0.24792">
        <ele>262.866108</ele>
        <time>2024-10-06T10:43:29.000Z</time>
      </trkpt>
      <trkpt lat="40.467493" lon="0.247505">
        <ele>263.848374</ele>
        <time>2024-10-06T10:43:34.000Z</time>
      </trkpt>
      <trkpt lat="40.46854" lon="0.246498">
        <ele>266.968756</ele>
        <time>2024-10-06T10:43:48.000Z</time>
      </trkpt>
      <trkpt lat="40.468949" lon="0.245985">
        <ele>268.672587</ele>
        <time>2024-10-06T10:43:54.000Z</time>
      </trkpt>
      <trkpt lat="40.469323" lon="0.245295">
        <ele>270.657439</ele>
        <time>2024-10-06T10:44:01.000Z</time>
      </trkpt>
      <trkpt lat="40.470323" lon="0.242753">
        <ele>279.131584</ele>
        <time>2024-10-06T10:44:25.000Z</time>
      </trkpt>
      <trkpt lat="40.470571" lon="0.242271">
        <ele>281.259376</ele>
        <time>2024-10-06T10:44:30.000Z</time>
      </trkpt>
      <trkpt lat="40.471276" lon="0.241244">
        <ele>286.334601</ele>
        <time>2024-10-06T10:44:42.000Z</time>
      </trkpt>
      <trkpt lat="40.471827" lon="0.240434">
        <ele>290.721405</ele>
        <time>2024-10-06T10:44:51.000Z</time>
      </trkpt>
      <trkpt lat="40.472071" lon="0.240046">
        <ele>292.845661</ele>
        <time>2024-10-06T10:44:55.000Z</time>
      </trkpt>
      <trkpt lat="40.472202" lon="0.23971">
        <ele>294.442176</ele>
        <time>2024-10-06T10:44:58.000Z</time>
      </trkpt>
      <trkpt lat="40.472389" lon="0.23921">
        <ele>296.756525</ele>
        <time>2024-10-06T10:45:03.000Z</time>
      </trkpt>
      <trkpt lat="40.472573" lon="0.238243">
        <ele>299.912577</ele>
        <time>2024-10-06T10:45:11.000Z</time>
      </trkpt>
      <trkpt lat="40.473767" lon="0.231705">
        <ele>318.808767</ele>
        <time>2024-10-06T10:46:08.000Z</time>
      </trkpt>
      <trkpt lat="40.473856" lon="0.231364">
        <ele>319.704959</ele>
        <time>2024-10-06T10:46:11.000Z</time>
      </trkpt>
      <trkpt lat="40.474932" lon="0.228715">
        <ele>326.697378</ele>
        <time>2024-10-06T10:46:36.000Z</time>
      </trkpt>
      <trkpt lat="40.475398" lon="0.227249">
        <ele>329.250272</ele>
        <time>2024-10-06T10:46:49.000Z</time>
      </trkpt>
      <trkpt lat="40.475808" lon="0.224676">
        <ele>331.10175</ele>
        <time>2024-10-06T10:47:11.000Z</time>
      </trkpt>
      <trkpt lat="40.475876" lon="0.224346">
        <ele>331.206993</ele>
        <time>2024-10-06T10:47:14.000Z</time>
      </trkpt>
      <trkpt lat="40.476914" lon="0.220969">
        <ele>331.50532</ele>
        <time>2024-10-06T10:47:45.000Z</time>
      </trkpt>
      <trkpt lat="40.476929" lon="0.220747">
        <ele>331.472574</ele>
        <time>2024-10-06T10:47:47.000Z</time>
      </trkpt>
      <trkpt lat="40.476869" lon="0.21987">
        <ele>331.335333</ele>
        <time>2024-10-06T10:47:54.000Z</time>
      </trkpt>
      <trkpt lat="40.47687" lon="0.219482">
        <ele>331.276841</ele>
        <time>2024-10-06T10:47:57.000Z</time>
      </trkpt>
      <trkpt lat="40.477043" lon="0.218">
        <ele>331.125033</ele>
        <time>2024-10-06T10:48:10.000Z</time>
      </trkpt>
      <trkpt lat="40.477139" lon="0.217502">
        <ele>331.093419</ele>
        <time>2024-10-06T10:48:14.000Z</time>
      </trkpt>
      <trkpt lat="40.477254" lon="0.217121">
        <ele>331.068546</ele>
        <time>2024-10-06T10:48:17.000Z</time>
      </trkpt>
      <trkpt lat="40.477131" lon="0.217503">
        <ele>331.043677</ele>
        <time>2024-10-06T10:48:21.000Z</time>
      </trkpt>
      <trkpt lat="40.477054" lon="0.218012">
        <ele>331.081632</ele>
        <time>2024-10-06T10:48:25.000Z</time>
      </trkpt>
      <trkpt lat="40.476861" lon="0.219482">
        <ele>331.314968</ele>
        <time>2024-10-06T10:48:38.000Z</time>
      </trkpt>
      <trkpt lat="40.476867" lon="0.219858">
        <ele>331.374539</ele>
        <time>2024-10-06T10:48:41.000Z</time>
      </trkpt>
      <trkpt lat="40.476914" lon="0.220758">
        <ele>331.450056</ele>
        <time>2024-10-06T10:48:49.000Z</time>
      </trkpt>
      <trkpt lat="40.47692" lon="0.220958">
        <ele>331.464455</ele>
        <time>2024-10-06T10:48:51.000Z</time>
      </trkpt>
      <trkpt lat="40.475881" lon="0.224349">
        <ele>331.3449</ele>
        <time>2024-10-06T10:49:22.000Z</time>
      </trkpt>
      <trkpt lat="40.475813" lon="0.224672">
        <ele>331.219648</ele>
        <time>2024-10-06T10:49:25.000Z</time>
      </trkpt>
      <trkpt lat="40.475395" lon="0.227245">
        <ele>329.262209</ele>
        <time>2024-10-06T10:49:47.000Z</time>
      </trkpt>
      <trkpt lat="40.474925" lon="0.228711">
        <ele>326.779172</ele>
        <time>2024-10-06T10:50:00.000Z</time>
      </trkpt>
      <trkpt lat="40.473849" lon="0.231359">
        <ele>319.720169</ele>
        <time>2024-10-06T10:50:25.000Z</time>
      </trkpt>
      <trkpt lat="40.473758" lon="0.231695">
        <ele>318.779396</ele>
        <time>2024-10-06T10:50:28.000Z</time>
      </trkpt>
      <trkpt lat="40.472581" lon="0.238247">
        <ele>300.321242</ele>
        <time>2024-10-06T10:51:25.000Z</time>
      </trkpt>
      <trkpt lat="40.472397" lon="0.239205">
        <ele>296.408088</ele>
        <time>2024-10-06T10:51:33.000Z</time>
      </trkpt>
      <trkpt lat="40.472219" lon="0.239717">
        <ele>294.275756</ele>
        <time>2024-10-06T10:51:38.000Z</time>
      </trkpt>
      <trkpt lat="40.472065" lon="0.240044">
        <ele>292.804795</ele>
        <time>2024-10-06T10:51:41.000Z</time>
      </trkpt>
      <trkpt lat="40.471828" lon="0.240423">
        <ele>290.791231</ele>
        <time>2024-10-06T10:51:45.000Z</time>
      </trkpt>
      <trkpt lat="40.471285" lon="0.241243">
        <ele>286.427228</ele>
        <time>2024-10-06T10:51:54.000Z</time>
      </trkpt>
      <trkpt lat="40.470569" lon="0.242271">
        <ele>281.189326</ele>
        <time>2024-10-06T10:52:06.000Z</time>
      </trkpt>
      <trkpt lat="40.47032" lon="0.242759">
        <ele>279.286272</ele>
        <time>2024-10-06T10:52:11.000Z</time>
      </trkpt>
      <trkpt lat="40.469315" lon="0.245301">
        <ele>270.682454</ele>
        <time>2024-10-06T10:52:35.000Z</time>
      </trkpt>
      <trkpt lat="40.46895" lon="0.245984">
        <ele>268.374678</ele>
        <time>2024-10-06T10:52:42.000Z</time>
      </trkpt>
      <trkpt lat="40.468546" lon="0.24649">
        <ele>266.989265</ele>
        <time>2024-10-06T10:52:48.000Z</time>
      </trkpt>
      <trkpt lat="40.46748" lon="0.247501">
        <ele>263.770602</ele>
        <time>2024-10-06T10:53:03.000Z</time>
      </trkpt>
      <trkpt lat="40.467161" lon="0.247916">
        <ele>262.909141</ele>
        <time>2024-10-06T10:53:08.000Z</time>
      </trkpt>
      <trkpt lat="40.467006" lon="0.248179">
        <ele>262.402235</ele>
        <time>2024-10-06T10:53:11.000Z</time>
      </trkpt>
      <trkpt lat="40.466951" lon="0.248278">
        <ele>262.23439</ele>
        <time>2024-10-06T10:53:12.000Z</time>
      </trkpt>
      <trkpt lat="40.466087" lon="0.250053">
        <ele>260.40558</ele>
        <time>2024-10-06T10:53:30.000Z</time>
      </trkpt>
      <trkpt lat="40.465885" lon="0.250383">
        <ele>260.355721</ele>
        <time>2024-10-06T10:53:34.000Z</time>
      </trkpt>
      <trkpt lat="40.465676" lon="0.250642">
        <ele>260.31225</ele>
        <time>2024-10-06T10:53:37.000Z</time>
      </trkpt>
      <trkpt lat="40.465451" lon="0.250859">
        <ele>260.268449</ele>
        <time>2024-10-06T10:53:40.000Z</time>
      </trkpt>
      <trkpt lat="40.465225" lon="0.251007">
        <ele>260.369635</ele>
        <time>2024-10-06T10:53:43.000Z</time>
      </trkpt>
      <trkpt lat="40.464848" lon="0.251211">
        <ele>261.39219</ele>
        <time>2024-10-06T10:53:48.000Z</time>
      </trkpt>
      <trkpt lat="40.464556" lon="0.251314">
        <ele>262.126429</ele>
        <time>2024-10-06T10:53:51.000Z</time>
      </trkpt>
      <trkpt lat="40.463922" lon="0.251504">
        <ele>263.741295</ele>
        <time>2024-10-06T10:53:58.000Z</time>
      </trkpt>
      <trkpt lat="40.46353" lon="0.251718">
        <ele>264.78168</ele>
        <time>2024-10-06T10:54:03.000Z</time>
      </trkpt>
      <trkpt lat="40.463201" lon="0.251993">
        <ele>265.313283</ele>
        <time>2024-10-06T10:54:07.000Z</time>
      </trkpt>
      <trkpt lat="40.462973" lon="0.252247">
        <ele>265.740214</ele>
        <time>2024-10-06T10:54:10.000Z</time>
      </trkpt>
      <trkpt lat="40.462735" lon="0.252624">
        <ele>266.259032</ele>
        <time>2024-10-06T10:54:14.000Z</time>
      </trkpt>
      <trkpt lat="40.46251" lon="0.253101">
        <ele>266.858892</ele>
        <time>2024-10-06T10:54:19.000Z</time>
      </trkpt>
      <trkpt lat="40.462363" lon="0.253721">
        <ele>267.251161</ele>
        <time>2024-10-06T10:54:24.000Z</time>
      </trkpt>
      <trkpt lat="40.462173" lon="0.25524">
        <ele>267.34914</ele>
        <time>2024-10-06T10:54:37.000Z</time>
      </trkpt>
      <trkpt lat="40.462001" lon="0.256153">
        <ele>268.247934</ele>
        <time>2024-10-06T10:54:45.000Z</time>
      </trkpt>
      <trkpt lat="40.461966" lon="0.256536">
        <ele>269.054184</ele>
        <time>2024-10-06T10:54:48.000Z</time>
      </trkpt>
      <trkpt lat="40.46196" lon="0.256925">
        <ele>269.891503</ele>
        <time>2024-10-06T10:54:51.000Z</time>
      </trkpt>
      <trkpt lat="40.462056" lon="0.25739">
        <ele>270.928631</ele>
        <time>2024-10-06T10:54:55.000Z</time>
      </trkpt>
      <trkpt lat="40.462078" lon="0.257568">
        <ele>271.321853</ele>
        <time>2024-10-06T10:54:57.000Z</time>
      </trkpt>
      <trkpt lat="40.46181" lon="0.258663">
        <ele>274.811834</ele>
        <time>2024-10-06T10:55:07.000Z</time>
      </trkpt>
      <trkpt lat="40.461741" lon="0.259584">
        <ele>278.319046</ele>
        <time>2024-10-06T10:55:15.000Z</time>
      </trkpt>
      <trkpt lat="40.461843" lon="0.259977">
        <ele>279.874967</ele>
        <time>2024-10-06T10:55:19.000Z</time>
      </trkpt>
      <trkpt lat="40.461813" lon="0.26016">
        <ele>280.559097</ele>
        <time>2024-10-06T10:55:21.000Z</time>
      </trkpt>
      <trkpt lat="40.461379" lon="0.261158">
        <ele>283.971934</ele>
        <time>2024-10-06T10:55:31.000Z</time>
      </trkpt>
      <trkpt lat="40.461267" lon="0.261256">
        <ele>284.46195</ele>
        <time>2024-10-06T10:55:32.000Z</time>
      </trkpt>
      <trkpt lat="40.461134" lon="0.26129">
        <ele>284.9482</ele>
        <time>2024-10-06T10:55:34.000Z</time>
      </trkpt>
      <trkpt lat="40.460774" lon="0.261101">
        <ele>286.350749</ele>
        <time>2024-10-06T10:55:38.000Z</time>
      </trkpt>
      <trkpt lat="40.460705" lon="0.260952">
        <ele>286.832329</ele>
        <time>2024-10-06T10:55:39.000Z</time>
      </trkpt>
      <trkpt lat="40.460665" lon="0.260775">
        <ele>287.348628</ele>
        <time>2024-10-06T10:55:41.000Z</time>
      </trkpt>
      <trkpt lat="40.460629" lon="0.260268">
        <ele>288.293814</ele>
        <time>2024-10-06T10:55:45.000Z</time>
      </trkpt>
      <trkpt lat="40.46055" lon="0.260123">
        <ele>288.516593</ele>
        <time>2024-10-06T10:55:47.000Z</time>
      </trkpt>
      <trkpt lat="40.460445" lon="0.260051">
        <ele>288.72201</ele>
        <time>2024-10-06T10:55:48.000Z</time>
      </trkpt>
      <trkpt lat="40.46031" lon="0.260082">
        <ele>288.94461</ele>
        <time>2024-10-06T10:55:50.000Z</time>
      </trkpt>
      <trkpt lat="40.460159" lon="0.260233">
        <ele>289.288125</ele>
        <time>2024-10-06T10:55:52.000Z</time>
      </trkpt>
      <trkpt lat="40.459349" lon="0.261592">
        <ele>291.423452</ele>
        <time>2024-10-06T10:56:07.000Z</time>
      </trkpt>
      <trkpt lat="40.458927" lon="0.26247">
        <ele>292.406746</ele>
        <time>2024-10-06T10:56:16.000Z</time>
      </trkpt>
      <trkpt lat="40.458748" lon="0.262655">
        <ele>292.702854</ele>
        <time>2024-10-06T10:56:19.000Z</time>
      </trkpt>
      <trkpt lat="40.457722" lon="0.263463">
        <ele>292.705476</ele>
        <time>2024-10-06T10:56:32.000Z</time>
      </trkpt>
      <trkpt lat="40.457654" lon="0.263605">
        <ele>292.614366</ele>
        <time>2024-10-06T10:56:33.000Z</time>
      </trkpt>
      <trkpt lat="40.45765" lon="0.263742">
        <ele>292.530108</ele>
        <time>2024-10-06T10:56:34.000Z</time>
      </trkpt>
      <trkpt lat="40.457703" lon="0.263942">
        <ele>292.409878</ele>
        <time>2024-10-06T10:56:36.000Z</time>
      </trkpt>
      <trkpt lat="40.45806" lon="0.264937">
        <ele>291.148962</ele>
        <time>2024-10-06T10:56:45.000Z</time>
      </trkpt>
      <trkpt lat="40.458055" lon="0.265091">
        <ele>290.621874</ele>
        <time>2024-10-06T10:56:46.000Z</time>
      </trkpt>
      <trkpt lat="40.457971" lon="0.265226">
        <ele>290.002435</ele>
        <time>2024-10-06T10:56:47.000Z</time>
      </trkpt>
      <trkpt lat="40.456766" lon="0.266057">
        <ele>283.845634</ele>
        <time>2024-10-06T10:57:02.000Z</time>
      </trkpt>
      <trkpt lat="40.45667" lon="0.266194">
        <ele>283.469799</ele>
        <time>2024-10-06T10:57:04.000Z</time>
      </trkpt>
      <trkpt lat="40.456516" lon="0.266839">
        <ele>282.152539</ele>
        <time>2024-10-06T10:57:10.000Z</time>
      </trkpt>
      <trkpt lat="40.456524" lon="0.267139">
        <ele>281.574327</ele>
        <time>2024-10-06T10:57:13.000Z</time>
      </trkpt>
      <trkpt lat="40.456652" lon="0.268376">
        <ele>279.295338</ele>
        <time>2024-10-06T10:57:24.000Z</time>
      </trkpt>
      <trkpt lat="40.456719" lon="0.268561">
        <ele>279.43026</ele>
        <time>2024-10-06T10:57:26.000Z</time>
      </trkpt>
      <trkpt lat="40.45701" lon="0.268788">
        <ele>279.703659</ele>
        <time>2024-10-06T10:57:30.000Z</time>
      </trkpt>
      <trkpt lat="40.457061" lon="0.268908">
        <ele>279.791104</ele>
        <time>2024-10-06T10:57:31.000Z</time>
      </trkpt>
      <trkpt lat="40.457064" lon="0.269049">
        <ele>279.883192</ele>
        <time>2024-10-06T10:57:32.000Z</time>
      </trkpt>
      <trkpt lat="40.456941" lon="0.269272">
        <ele>280.053486</ele>
        <time>2024-10-06T10:57:34.000Z</time>
      </trkpt>
      <trkpt lat="40.456822" lon="0.269418">
        <ele>280.187824</ele>
        <time>2024-10-06T10:57:36.000Z</time>
      </trkpt>
      <trkpt lat="40.456517" lon="0.269592">
        <ele>280.463699</ele>
        <time>2024-10-06T10:57:40.000Z</time>
      </trkpt>
      <trkpt lat="40.456461" lon="0.269641">
        <ele>280.52624</ele>
        <time>2024-10-06T10:57:41.000Z</time>
      </trkpt>
      <trkpt lat="40.456402" lon="0.269717">
        <ele>280.595021</ele>
        <time>2024-10-06T10:57:42.000Z</time>
      </trkpt>
      <trkpt lat="40.456383" lon="0.269866">
        <ele>280.690982</ele>
        <time>2024-10-06T10:57:43.000Z</time>
      </trkpt>
      <trkpt lat="40.456406" lon="0.269991">
        <ele>280.770762</ele>
        <time>2024-10-06T10:57:44.000Z</time>
      </trkpt>
      <trkpt lat="40.45648" lon="0.270139">
        <ele>280.870327</ele>
        <time>2024-10-06T10:57:45.000Z</time>
      </trkpt>
      <trkpt lat="40.457047" lon="0.27057">
        <ele>281.369207</ele>
        <time>2024-10-06T10:57:52.000Z</time>
      </trkpt>
      <trkpt lat="40.457128" lon="0.270661">
        <ele>281.451308</ele>
        <time>2024-10-06T10:57:53.000Z</time>
      </trkpt>
      <trkpt lat="40.457176" lon="0.270837">
        <ele>281.556283</ele>
        <time>2024-10-06T10:57:55.000Z</time>
      </trkpt>
      <trkpt lat="40.457144" lon="0.271682">
        <ele>282.046717</ele>
        <time>2024-10-06T10:58:02.000Z</time>
      </trkpt>
      <trkpt lat="40.457107" lon="0.271965">
        <ele>281.948026</ele>
        <time>2024-10-06T10:58:04.000Z</time>
      </trkpt>
      <trkpt lat="40.456809" lon="0.272839">
        <ele>280.83651</ele>
        <time>2024-10-06T10:58:12.000Z</time>
      </trkpt>
      <trkpt lat="40.456788" lon="0.272859">
        <ele>280.798608</ele>
        <time>2024-10-06T10:58:12.000Z</time>
      </trkpt>
      <trkpt lat="40.456738" lon="0.273044">
        <ele>280.585285</ele>
        <time>2024-10-06T10:58:14.000Z</time>
      </trkpt>
      <trkpt lat="40.456548" lon="0.273634">
        <ele>279.831872</ele>
        <time>2024-10-06T10:58:19.000Z</time>
      </trkpt>
      <trkpt lat="40.456469" lon="0.27386">
        <ele>279.541223</ele>
        <time>2024-10-06T10:58:21.000Z</time>
      </trkpt>
      <trkpt lat="40.456276" lon="0.274418">
        <ele>278.658655</ele>
        <time>2024-10-06T10:58:26.000Z</time>
      </trkpt>
      <trkpt lat="40.456002" lon="0.274891">
        <ele>277.764402</ele>
        <time>2024-10-06T10:58:31.000Z</time>
      </trkpt>
      <trkpt lat="40.455328" lon="0.276174">
        <ele>275.208478</ele>
        <time>2024-10-06T10:58:44.000Z</time>
      </trkpt>
      <trkpt lat="40.455239" lon="0.276394">
        <ele>274.634826</ele>
        <time>2024-10-06T10:58:46.000Z</time>
      </trkpt>
      <trkpt lat="40.454945" lon="0.277779">
        <ele>271.340912</ele>
        <time>2024-10-06T10:58:58.000Z</time>
      </trkpt>
      <trkpt lat="40.454953" lon="0.278043">
        <ele>270.772257</ele>
        <time>2024-10-06T10:59:00.000Z</time>
      </trkpt>
      <trkpt lat="40.454994" lon="0.278536">
        <ele>268.928144</ele>
        <time>2024-10-06T10:59:04.000Z</time>
      </trkpt>
      <trkpt lat="40.454969" lon="0.278732">
        <ele>268.090308</ele>
        <time>2024-10-06T10:59:06.000Z</time>
      </trkpt>
      <trkpt lat="40.454903" lon="0.278873">
        <ele>267.367072</ele>
        <time>2024-10-06T10:59:07.000Z</time>
      </trkpt>
      <trkpt lat="40.454689" lon="0.27945">
        <ele>264.688886</ele>
        <time>2024-10-06T10:59:12.000Z</time>
      </trkpt>
      <trkpt lat="40.454671" lon="0.279605">
        <ele>264.011673</ele>
        <time>2024-10-06T10:59:13.000Z</time>
      </trkpt>
      <trkpt lat="40.45462" lon="0.280026">
        <ele>262.220508</ele>
        <time>2024-10-06T10:59:17.000Z</time>
      </trkpt>
      <trkpt lat="40.454566" lon="0.280161">
        <ele>261.55543</ele>
        <time>2024-10-06T10:59:18.000Z</time>
      </trkpt>
      <trkpt lat="40.454572" lon="0.280318">
        <ele>260.949155</ele>
        <time>2024-10-06T10:59:19.000Z</time>
      </trkpt>
      <trkpt lat="40.454634" lon="0.280368">
        <ele>260.559871</ele>
        <time>2024-10-06T10:59:20.000Z</time>
      </trkpt>
      <trkpt lat="40.454739" lon="0.280354">
        <ele>260.117292</ele>
        <time>2024-10-06T10:59:21.000Z</time>
      </trkpt>
      <trkpt lat="40.454848" lon="0.280273">
        <ele>259.699593</ele>
        <time>2024-10-06T10:59:22.000Z</time>
      </trkpt>
      <trkpt lat="40.454874" lon="0.280119">
        <ele>259.297822</ele>
        <time>2024-10-06T10:59:23.000Z</time>
      </trkpt>
      <trkpt lat="40.454951" lon="0.27961">
        <ele>257.909233</ele>
        <time>2024-10-06T10:59:27.000Z</time>
      </trkpt>
      <trkpt lat="40.455044" lon="0.279401">
        <ele>257.260893</ele>
        <time>2024-10-06T10:59:29.000Z</time>
      </trkpt>
      <trkpt lat="40.455374" lon="0.278998">
        <ele>255.696345</ele>
        <time>2024-10-06T10:59:34.000Z</time>
      </trkpt>
      <trkpt lat="40.455479" lon="0.278807">
        <ele>255.096072</ele>
        <time>2024-10-06T10:59:36.000Z</time>
      </trkpt>
      <trkpt lat="40.45556" lon="0.278602">
        <ele>254.462628</ele>
        <time>2024-10-06T10:59:38.000Z</time>
      </trkpt>
      <trkpt lat="40.45565" lon="0.277714">
        <ele>251.422463</ele>
        <time>2024-10-06T10:59:46.000Z</time>
      </trkpt>
      <trkpt lat="40.45571" lon="0.277481">
        <ele>250.546141</ele>
        <time>2024-10-06T10:59:48.000Z</time>
      </trkpt>
      <trkpt lat="40.455853" lon="0.277233">
        <ele>249.503778</ele>
        <time>2024-10-06T10:59:51.000Z</time>
      </trkpt>
      <trkpt lat="40.456266" lon="0.27666">
        <ele>246.69483</ele>
        <time>2024-10-06T10:59:58.000Z</time>
      </trkpt>
      <trkpt lat="40.45672" lon="0.276276">
        <ele>243.019249</ele>
        <time>2024-10-06T11:00:04.000Z</time>
      </trkpt>
      <trkpt lat="40.456794" lon="0.276247">
        <ele>242.309142</ele>
        <time>2024-10-06T11:00:05.000Z</time>
      </trkpt>
      <trkpt lat="40.456882" lon="0.276298">
        <ele>241.584353</ele>
        <time>2024-10-06T11:00:06.000Z</time>
      </trkpt>
      <trkpt lat="40.457048" lon="0.276495">
        <ele>239.811601</ele>
        <time>2024-10-06T11:00:08.000Z</time>
      </trkpt>
      <trkpt lat="40.457138" lon="0.276723">
        <ele>238.249034</ele>
        <time>2024-10-06T11:00:10.000Z</time>
      </trkpt>
      <trkpt lat="40.457312" lon="0.278116">
        <ele>229.943934</ele>
        <time>2024-10-06T11:00:22.000Z</time>
      </trkpt>
      <trkpt lat="40.457351" lon="0.278489">
        <ele>227.972258</ele>
        <time>2024-10-06T11:00:25.000Z</time>
      </trkpt>
      <trkpt lat="40.457332" lon="0.278718">
        <ele>226.759565</ele>
        <time>2024-10-06T11:00:27.000Z</time>
      </trkpt>
      <trkpt lat="40.457025" lon="0.279432">
        <ele>222.636566</ele>
        <time>2024-10-06T11:00:34.000Z</time>
      </trkpt>
      <trkpt lat="40.457012" lon="0.279611">
        <ele>221.638022</ele>
        <time>2024-10-06T11:00:36.000Z</time>
      </trkpt>
      <trkpt lat="40.457065" lon="0.279827">
        <ele>220.511913</ele>
        <time>2024-10-06T11:00:38.000Z</time>
      </trkpt>
      <trkpt lat="40.457489" lon="0.280577">
        <ele>216.35261</ele>
        <time>2024-10-06T11:00:46.000Z</time>
      </trkpt>
      <trkpt lat="40.457689" lon="0.280814">
        <ele>214.880357</ele>
        <time>2024-10-06T11:00:49.000Z</time>
      </trkpt>
      <trkpt lat="40.458237" lon="0.281537">
        <ele>210.578636</ele>
        <time>2024-10-06T11:00:58.000Z</time>
      </trkpt>
      <trkpt lat="40.458326" lon="0.281765">
        <ele>209.555861</ele>
        <time>2024-10-06T11:01:00.000Z</time>
      </trkpt>
      <trkpt lat="40.458425" lon="0.282354">
        <ele>206.270493</ele>
        <time>2024-10-06T11:01:05.000Z</time>
      </trkpt>
      <trkpt lat="40.458427" lon="0.282518">
        <ele>205.40232</ele>
        <time>2024-10-06T11:01:06.000Z</time>
      </trkpt>
      <trkpt lat="40.458359" lon="0.282655">
        <ele>204.569731</ele>
        <time>2024-10-06T11:01:07.000Z</time>
      </trkpt>
      <trkpt lat="40.458253" lon="0.282747">
        <ele>203.55387</ele>
        <time>2024-10-06T11:01:08.000Z</time>
      </trkpt>
      <trkpt lat="40.457725" lon="0.283018">
        <ele>199.63999</ele>
        <time>2024-10-06T11:01:14.000Z</time>
      </trkpt>
      <trkpt lat="40.457602" lon="0.283146">
        <ele>198.541255</ele>
        <time>2024-10-06T11:01:16.000Z</time>
      </trkpt>
      <trkpt lat="40.457521" lon="0.283332">
        <ele>197.352999</ele>
        <time>2024-10-06T11:01:18.000Z</time>
      </trkpt>
      <trkpt lat="40.45748" lon="0.283561">
        <ele>196.019973</ele>
        <time>2024-10-06T11:01:20.000Z</time>
      </trkpt>
      <trkpt lat="40.457536" lon="0.283771">
        <ele>194.886412</ele>
        <time>2024-10-06T11:01:22.000Z</time>
      </trkpt>
      <trkpt lat="40.457965" lon="0.284649">
        <ele>189.150705</ele>
        <time>2024-10-06T11:01:31.000Z</time>
      </trkpt>
      <trkpt lat="40.458124" lon="0.285011">
        <ele>186.875967</ele>
        <time>2024-10-06T11:01:35.000Z</time>
      </trkpt>
      <trkpt lat="40.458259" lon="0.285294">
        <ele>185.051257</ele>
        <time>2024-10-06T11:01:38.000Z</time>
      </trkpt>
      <trkpt lat="40.458535" lon="0.285778">
        <ele>182.350608</ele>
        <time>2024-10-06T11:01:43.000Z</time>
      </trkpt>
      <trkpt lat="40.459014" lon="0.286216">
        <ele>179.357389</ele>
        <time>2024-10-06T11:01:49.000Z</time>
      </trkpt>
      <trkpt lat="40.459151" lon="0.286378">
        <ele>178.360494</ele>
        <time>2024-10-06T11:01:51.000Z</time>
      </trkpt>
      <trkpt lat="40.459289" lon="0.286581">
        <ele>177.317433</ele>
        <time>2024-10-06T11:01:53.000Z</time>
      </trkpt>
      <trkpt lat="40.459319" lon="0.286793">
        <ele>176.494941</ele>
        <time>2024-10-06T11:01:55.000Z</time>
      </trkpt>
      <trkpt lat="40.45925" lon="0.287906">
        <ele>174.376224</ele>
        <time>2024-10-06T11:02:04.000Z</time>
      </trkpt>
      <trkpt lat="40.459181" lon="0.289139">
        <ele>174.042952</ele>
        <time>2024-10-06T11:02:14.000Z</time>
      </trkpt>
      <trkpt lat="40.459192" lon="0.289298">
        <ele>174.000401</ele>
        <time>2024-10-06T11:02:15.000Z</time>
      </trkpt>
      <trkpt lat="40.459287" lon="0.289472">
        <ele>173.942924</ele>
        <time>2024-10-06T11:02:17.000Z</time>
      </trkpt>
      <trkpt lat="40.459993" lon="0.290164">
        <ele>176.527519</ele>
        <time>2024-10-06T11:02:27.000Z</time>
      </trkpt>
      <trkpt lat="40.46005" lon="0.290477">
        <ele>177.391332</ele>
        <time>2024-10-06T11:02:30.000Z</time>
      </trkpt>
      <trkpt lat="40.460106" lon="0.290593">
        <ele>177.711372</ele>
        <time>2024-10-06T11:02:31.000Z</time>
      </trkpt>
      <trkpt lat="40.460258" lon="0.290878">
        <ele>178.620838</ele>
        <time>2024-10-06T11:02:34.000Z</time>
      </trkpt>
      <trkpt lat="40.460244" lon="0.291339">
        <ele>179.820027</ele>
        <time>2024-10-06T11:02:38.000Z</time>
      </trkpt>
      <trkpt lat="40.459649" lon="0.295295">
        <ele>193.28863</ele>
        <time>2024-10-06T11:03:12.000Z</time>
      </trkpt>
      <trkpt lat="40.459074" lon="0.298269">
        <ele>199.216358</ele>
        <time>2024-10-06T11:03:38.000Z</time>
      </trkpt>
      <trkpt lat="40.459067" lon="0.2986">
        <ele>198.678248</ele>
        <time>2024-10-06T11:03:41.000Z</time>
      </trkpt>
      <trkpt lat="40.459136" lon="0.299342">
        <ele>196.88183</ele>
        <time>2024-10-06T11:03:47.000Z</time>
      </trkpt>
      <trkpt lat="40.459107" lon="0.299519">
        <ele>196.449846</ele>
        <time>2024-10-06T11:03:49.000Z</time>
      </trkpt>
      <trkpt lat="40.459045" lon="0.299692">
        <ele>196.000075</ele>
        <time>2024-10-06T11:03:51.000Z</time>
      </trkpt>
      <trkpt lat="40.457674" lon="0.301016">
        <ele>188.593093</ele>
        <time>2024-10-06T11:04:10.000Z</time>
      </trkpt>
      <trkpt lat="40.457605" lon="0.301143">
        <ele>187.934981</ele>
        <time>2024-10-06T11:04:11.000Z</time>
      </trkpt>
      <trkpt lat="40.457561" lon="0.301391">
        <ele>186.929932</ele>
        <time>2024-10-06T11:04:13.000Z</time>
      </trkpt>
      <trkpt lat="40.457271" lon="0.304834">
        <ele>173.415978</ele>
        <time>2024-10-06T11:04:42.000Z</time>
      </trkpt>
      <trkpt lat="40.457275" lon="0.305653">
        <ele>171.650266</ele>
        <time>2024-10-06T11:04:49.000Z</time>
      </trkpt>
      <trkpt lat="40.45729" lon="0.306074">
        <ele>170.707446</ele>
        <time>2024-10-06T11:04:53.000Z</time>
      </trkpt>
      <trkpt lat="40.457451" lon="0.306694">
        <ele>169.289537</ele>
        <time>2024-10-06T11:04:59.000Z</time>
      </trkpt>
      <trkpt lat="40.457564" lon="0.306822">
        <ele>169.307181</ele>
        <time>2024-10-06T11:05:01.000Z</time>
      </trkpt>
      <trkpt lat="40.458137" lon="0.307037">
        <ele>170.197934</ele>
        <time>2024-10-06T11:05:08.000Z</time>
      </trkpt>
      <trkpt lat="40.458259" lon="0.307143">
        <ele>170.413899</ele>
        <time>2024-10-06T11:05:10.000Z</time>
      </trkpt>
      <trkpt lat="40.458346" lon="0.307292">
        <ele>170.631152</ele>
        <time>2024-10-06T11:05:12.000Z</time>
      </trkpt>
      <trkpt lat="40.458483" lon="0.307658">
        <ele>171.088724</ele>
        <time>2024-10-06T11:05:15.000Z</time>
      </trkpt>
      <trkpt lat="40.458631" lon="0.307849">
        <ele>171.393907</ele>
        <time>2024-10-06T11:05:17.000Z</time>
      </trkpt>
      <trkpt lat="40.458752" lon="0.307921">
        <ele>171.590985</ele>
        <time>2024-10-06T11:05:18.000Z</time>
      </trkpt>
      <trkpt lat="40.458865" lon="0.308007">
        <ele>171.787287</ele>
        <time>2024-10-06T11:05:19.000Z</time>
      </trkpt>
      <trkpt lat="40.459339" lon="0.308345">
        <ele>173.344146</ele>
        <time>2024-10-06T11:05:25.000Z</time>
      </trkpt>
      <trkpt lat="40.459439" lon="0.308493">
        <ele>173.823794</ele>
        <time>2024-10-06T11:05:27.000Z</time>
      </trkpt>
      <trkpt lat="40.459514" lon="0.308679">
        <ele>174.260157</ele>
        <time>2024-10-06T11:05:29.000Z</time>
      </trkpt>
      <trkpt lat="40.459523" lon="0.308898">
        <ele>174.761868</ele>
        <time>2024-10-06T11:05:31.000Z</time>
      </trkpt>
      <trkpt lat="40.459495" lon="0.309453">
        <ele>176.054345</ele>
        <time>2024-10-06T11:05:36.000Z</time>
      </trkpt>
      <trkpt lat="40.459502" lon="0.309864">
        <ele>176.955103</ele>
        <time>2024-10-06T11:05:39.000Z</time>
      </trkpt>
      <trkpt lat="40.459536" lon="0.310096">
        <ele>177.200248</ele>
        <time>2024-10-06T11:05:41.000Z</time>
      </trkpt>
      <trkpt lat="40.459811" lon="0.310899">
        <ele>177.325048</ele>
        <time>2024-10-06T11:05:48.000Z</time>
      </trkpt>
      <trkpt lat="40.459824" lon="0.311155">
        <ele>177.362904</ele>
        <time>2024-10-06T11:05:50.000Z</time>
      </trkpt>
      <trkpt lat="40.459329" lon="0.317432">
        <ele>172.305777</ele>
        <time>2024-10-06T11:06:43.000Z</time>
      </trkpt>
      <trkpt lat="40.458935" lon="0.322401">
        <ele>172.062329</ele>
        <time>2024-10-06T11:07:25.000Z</time>
      </trkpt>
      <trkpt lat="40.458907" lon="0.322542">
        <ele>172.132556</ele>
        <time>2024-10-06T11:07:26.000Z</time>
      </trkpt>
      <trkpt lat="40.457452" lon="0.328719">
        <ele>174.821825</ele>
        <time>2024-10-06T11:08:21.000Z</time>
      </trkpt>
      <trkpt lat="40.457372" lon="0.329011">
        <ele>174.642406</ele>
        <time>2024-10-06T11:08:24.000Z</time>
      </trkpt>
      <trkpt lat="40.457351" lon="0.329236">
        <ele>174.513869</ele>
        <time>2024-10-06T11:08:26.000Z</time>
      </trkpt>
      <trkpt lat="40.457364" lon="0.329536">
        <ele>174.349904</ele>
        <time>2024-10-06T11:08:29.000Z</time>
      </trkpt>
      <trkpt lat="40.457441" lon="0.329824">
        <ele>174.182346</ele>
        <time>2024-10-06T11:08:32.000Z</time>
      </trkpt>
      <trkpt lat="40.458716" lon="0.33247">
        <ele>171.398254</ele>
        <time>2024-10-06T11:08:58.000Z</time>
      </trkpt>
      <trkpt lat="40.458806" lon="0.332812">
        <ele>171.11534</ele>
        <time>2024-10-06T11:09:01.000Z</time>
      </trkpt>
      <trkpt lat="40.458773" lon="0.335727">
        <ele>169.631317</ele>
        <time>2024-10-06T11:09:26.000Z</time>
      </trkpt>
      <trkpt lat="40.458749" lon="0.335992">
        <ele>169.565738</ele>
        <time>2024-10-06T11:09:28.000Z</time>
      </trkpt>
      <trkpt lat="40.456503" lon="0.341961">
        <ele>167.759934</ele>
        <time>2024-10-06T11:10:24.000Z</time>
      </trkpt>
      <trkpt lat="40.456254" lon="0.342456">
        <ele>167.161619</ele>
        <time>2024-10-06T11:10:29.000Z</time>
      </trkpt>
      <trkpt lat="40.456099" lon="0.342668">
        <ele>166.875425</ele>
        <time>2024-10-06T11:10:31.000Z</time>
      </trkpt>
      <trkpt lat="40.456012" lon="0.342713">
        <ele>166.764729</ele>
        <time>2024-10-06T11:10:32.000Z</time>
      </trkpt>
      <trkpt lat="40.455939" lon="0.34283">
        <ele>166.616758</ele>
        <time>2024-10-06T11:10:33.000Z</time>
      </trkpt>
      <trkpt lat="40.455921" lon="0.342963">
        <ele>166.469752</ele>
        <time>2024-10-06T11:10:34.000Z</time>
      </trkpt>
      <trkpt lat="40.455953" lon="0.343119">
        <ele>166.322457</ele>
        <time>2024-10-06T11:10:35.000Z</time>
      </trkpt>
      <trkpt lat="40.455935" lon="0.343415">
        <ele>166.021597</ele>
        <time>2024-10-06T11:10:38.000Z</time>
      </trkpt>
      <trkpt lat="40.455853" lon="0.343783">
        <ele>164.785628</ele>
        <time>2024-10-06T11:10:41.000Z</time>
      </trkpt>
      <trkpt lat="40.455635" lon="0.34452">
        <ele>162.170211</ele>
        <time>2024-10-06T11:10:48.000Z</time>
      </trkpt>
      <trkpt lat="40.455488" lon="0.345115">
        <ele>160.048119</ele>
        <time>2024-10-06T11:10:53.000Z</time>
      </trkpt>
      <trkpt lat="40.455314" lon="0.346037">
        <ele>155.934253</ele>
        <time>2024-10-06T11:11:01.000Z</time>
      </trkpt>
      <trkpt lat="40.455252" lon="0.34656">
        <ele>152.826503</ele>
        <time>2024-10-06T11:11:05.000Z</time>
      </trkpt>
      <trkpt lat="40.455239" lon="0.347012">
        <ele>150.117634</ele>
        <time>2024-10-06T11:11:09.000Z</time>
      </trkpt>
      <trkpt lat="40.455232" lon="0.34763">
        <ele>146.410255</ele>
        <time>2024-10-06T11:11:14.000Z</time>
      </trkpt>
      <trkpt lat="40.455276" lon="0.348531">
        <ele>141.379016</ele>
        <time>2024-10-06T11:11:22.000Z</time>
      </trkpt>
      <trkpt lat="40.455326" lon="0.348971">
        <ele>139.103249</ele>
        <time>2024-10-06T11:11:26.000Z</time>
      </trkpt>
      <trkpt lat="40.455465" lon="0.349645">
        <ele>135.490123</ele>
        <time>2024-10-06T11:11:32.000Z</time>
      </trkpt>
      <trkpt lat="40.455666" lon="0.350388">
        <ele>131.700039</ele>
        <time>2024-10-06T11:11:39.000Z</time>
      </trkpt>
      <trkpt lat="40.455842" lon="0.350947">
        <ele>130.117794</ele>
        <time>2024-10-06T11:11:44.000Z</time>
      </trkpt>
      <trkpt lat="40.456173" lon="0.351827">
        <ele>127.641449</ele>
        <time>2024-10-06T11:11:52.000Z</time>
      </trkpt>
      <trkpt lat="40.45729" lon="0.354363">
        <ele>122.03493</ele>
        <time>2024-10-06T11:12:17.000Z</time>
      </trkpt>
      <trkpt lat="40.457405" lon="0.354706">
        <ele>121.641925</ele>
        <time>2024-10-06T11:12:20.000Z</time>
      </trkpt>
      <trkpt lat="40.457458" lon="0.354833">
        <ele>121.562671</ele>
        <time>2024-10-06T11:12:21.000Z</time>
      </trkpt>
      <trkpt lat="40.45746" lon="0.354935">
        <ele>121.497005</ele>
        <time>2024-10-06T11:12:22.000Z</time>
      </trkpt>
      <trkpt lat="40.457443" lon="0.354839">
        <ele>121.431344</ele>
        <time>2024-10-06T11:12:23.000Z</time>
      </trkpt>
      <trkpt lat="40.457402" lon="0.35471">
        <ele>121.352097</ele>
        <time>2024-10-06T11:12:24.000Z</time>
      </trkpt>
      <trkpt lat="40.457378" lon="0.354731">
        <ele>121.326253</ele>
        <time>2024-10-06T11:12:24.000Z</time>
      </trkpt>
      <trkpt lat="40.45726" lon="0.354763">
        <ele>121.232825</ele>
        <time>2024-10-06T11:12:25.000Z</time>
      </trkpt>
      <trkpt lat="40.457227" lon="0.354768">
        <ele>121.206851</ele>
        <time>2024-10-06T11:12:25.000Z</time>
      </trkpt>
      <trkpt lat="40.457205" lon="0.354766">
        <ele>121.186415</ele>
        <time>2024-10-06T11:12:25.000Z</time>
      </trkpt>
      <trkpt lat="40.457132" lon="0.354571">
        <ele>121.055164</ele>
        <time>2024-10-06T11:12:27.000Z</time>
      </trkpt>
      <trkpt lat="40.45461" lon="0.351503">
        <ele>120.581418</ele>
        <time>2024-10-06T11:13:05.000Z</time>
      </trkpt>
      <trkpt lat="40.454427" lon="0.351417">
        <ele>120.64683</ele>
        <time>2024-10-06T11:13:07.000Z</time>
      </trkpt>
      <trkpt lat="40.454185" lon="0.351447">
        <ele>120.72571</ele>
        <time>2024-10-06T11:13:10.000Z</time>
      </trkpt>
      <trkpt lat="40.452789" lon="0.352193">
        <ele>121.58369</ele>
        <time>2024-10-06T11:13:27.000Z</time>
      </trkpt>
      <trkpt lat="40.452465" lon="0.352237">
        <ele>121.817643</ele>
        <time>2024-10-06T11:13:31.000Z</time>
      </trkpt>
      <trkpt lat="40.45219" lon="0.352174">
        <ele>122.014509</ele>
        <time>2024-10-06T11:13:34.000Z</time>
      </trkpt>
      <trkpt lat="40.451887" lon="0.352083">
        <ele>122.190375</ele>
        <time>2024-10-06T11:13:37.000Z</time>
      </trkpt>
      <trkpt lat="40.451188" lon="0.351905">
        <ele>121.586796</ele>
        <time>2024-10-06T11:13:45.000Z</time>
      </trkpt>
      <trkpt lat="40.450217" lon="0.351928">
        <ele>120.755796</ele>
        <time>2024-10-06T11:13:56.000Z</time>
      </trkpt>
      <trkpt lat="40.449534" lon="0.352202">
        <ele>118.889395</ele>
        <time>2024-10-06T11:14:04.000Z</time>
      </trkpt>
      <trkpt lat="40.448782" lon="0.352161">
        <ele>116.709395</ele>
        <time>2024-10-06T11:14:12.000Z</time>
      </trkpt>
      <trkpt lat="40.448774" lon="0.352109">
        <ele>116.588675</ele>
        <time>2024-10-06T11:14:12.000Z</time>
      </trkpt>
      <trkpt lat="40.448169" lon="0.352076">
        <ele>114.591403</ele>
        <time>2024-10-06T11:14:19.000Z</time>
      </trkpt>
      <trkpt lat="40.44629" lon="0.352204">
        <ele>107.493471</ele>
        <time>2024-10-06T11:14:40.000Z</time>
      </trkpt>
      <trkpt lat="40.445304" lon="0.352109">
        <ele>104.261142</ele>
        <time>2024-10-06T11:14:51.000Z</time>
      </trkpt>
      <trkpt lat="40.444687" lon="0.352125">
        <ele>102.621376</ele>
        <time>2024-10-06T11:14:58.000Z</time>
      </trkpt>
      <trkpt lat="40.443667" lon="0.35173">
        <ele>101.903098</ele>
        <time>2024-10-06T11:15:10.000Z</time>
      </trkpt>
      <trkpt lat="40.442451" lon="0.351532">
        <ele>102.053905</ele>
        <time>2024-10-06T11:15:24.000Z</time>
      </trkpt>
      <trkpt lat="40.440143" lon="0.350716">
        <ele>104.011466</ele>
        <time>2024-10-06T11:15:51.000Z</time>
      </trkpt>
      <trkpt lat="40.439753" lon="0.35079">
        <ele>104.290578</ele>
        <time>2024-10-06T11:15:55.000Z</time>
      </trkpt>
      <trkpt lat="40.437799" lon="0.351238">
        <ele>104.194592</ele>
        <time>2024-10-06T11:16:17.000Z</time>
      </trkpt>
      <trkpt lat="40.43735" lon="0.351243">
        <ele>104.522529</ele>
        <time>2024-10-06T11:16:22.000Z</time>
      </trkpt>
      <trkpt lat="40.436442" lon="0.351004">
        <ele>105.218412</ele>
        <time>2024-10-06T11:16:32.000Z</time>
      </trkpt>
      <trkpt lat="40.435821" lon="0.350922">
        <ele>106.048346</ele>
        <time>2024-10-06T11:16:39.000Z</time>
      </trkpt>
      <trkpt lat="40.435525" lon="0.350946">
        <ele>106.767759</ele>
        <time>2024-10-06T11:16:42.000Z</time>
      </trkpt>
      <trkpt lat="40.435356" lon="0.351038">
        <ele>107.260322</ele>
        <time>2024-10-06T11:16:44.000Z</time>
      </trkpt>
      <trkpt lat="40.43492" lon="0.35139">
        <ele>108.564103</ele>
        <time>2024-10-06T11:16:50.000Z</time>
      </trkpt>
      <trkpt lat="40.434613" lon="0.351482">
        <ele>109.367982</ele>
        <time>2024-10-06T11:16:54.000Z</time>
      </trkpt>
      <trkpt lat="40.433965" lon="0.351411">
        <ele>111.101192</ele>
        <time>2024-10-06T11:17:01.000Z</time>
      </trkpt>
      <trkpt lat="40.433337" lon="0.351107">
        <ele>113.014231</ele>
        <time>2024-10-06T11:17:08.000Z</time>
      </trkpt>
      <trkpt lat="40.432969" lon="0.350847">
        <ele>114.245628</ele>
        <time>2024-10-06T11:17:13.000Z</time>
      </trkpt>
      <trkpt lat="40.432631" lon="0.350404">
        <ele>115.41886</ele>
        <time>2024-10-06T11:17:18.000Z</time>
      </trkpt>
      <trkpt lat="40.432223" lon="0.349706">
        <ele>116.27573</ele>
        <time>2024-10-06T11:17:25.000Z</time>
      </trkpt>
      <trkpt lat="40.431821" lon="0.34927">
        <ele>116.925901</ele>
        <time>2024-10-06T11:17:31.000Z</time>
      </trkpt>
      <trkpt lat="40.431327" lon="0.348726">
        <ele>117.897914</ele>
        <time>2024-10-06T11:17:38.000Z</time>
      </trkpt>
      <trkpt lat="40.430323" lon="0.348545">
        <ele>120.166754</ele>
        <time>2024-10-06T11:17:49.000Z</time>
      </trkpt>
      <trkpt lat="40.429884" lon="0.348573">
        <ele>121.127557</ele>
        <time>2024-10-06T11:17:54.000Z</time>
      </trkpt>
      <trkpt lat="40.429538" lon="0.348697">
        <ele>122.304221</ele>
        <time>2024-10-06T11:17:58.000Z</time>
      </trkpt>
      <trkpt lat="40.428752" lon="0.348665">
        <ele>126.045527</ele>
        <time>2024-10-06T11:18:07.000Z</time>
      </trkpt>
      <trkpt lat="40.427804" lon="0.348438">
        <ele>130.470387</ele>
        <time>2024-10-06T11:18:18.000Z</time>
      </trkpt>
      <trkpt lat="40.427516" lon="0.348297">
        <ele>131.699438</ele>
        <time>2024-10-06T11:18:21.000Z</time>
      </trkpt>
      <trkpt lat="40.427152" lon="0.348029">
        <ele>133.345179</ele>
        <time>2024-10-06T11:18:26.000Z</time>
      </trkpt>
      <trkpt lat="40.426902" lon="0.3479">
        <ele>134.458288</ele>
        <time>2024-10-06T11:18:29.000Z</time>
      </trkpt>
      <trkpt lat="40.425928" lon="0.347763">
        <ele>137.576477</ele>
        <time>2024-10-06T11:18:40.000Z</time>
      </trkpt>
      <trkpt lat="40.425607" lon="0.347798">
        <ele>138.019779</ele>
        <time>2024-10-06T11:18:44.000Z</time>
      </trkpt>
      <trkpt lat="40.425199" lon="0.347626">
        <ele>138.6099</ele>
        <time>2024-10-06T11:18:49.000Z</time>
      </trkpt>
      <trkpt lat="40.424822" lon="0.347308">
        <ele>139.22348</ele>
        <time>2024-10-06T11:18:54.000Z</time>
      </trkpt>
      <trkpt lat="40.424729" lon="0.347223">
        <ele>139.377033</ele>
        <time>2024-10-06T11:18:55.000Z</time>
      </trkpt>
      <trkpt lat="40.423937" lon="0.346778">
        <ele>138.642215</ele>
        <time>2024-10-06T11:19:05.000Z</time>
      </trkpt>
      <trkpt lat="40.42238" lon="0.346318">
        <ele>135.107221</ele>
        <time>2024-10-06T11:19:23.000Z</time>
      </trkpt>
      <trkpt lat="40.421657" lon="0.345987">
        <ele>132.079337</ele>
        <time>2024-10-06T11:19:32.000Z</time>
      </trkpt>
      <trkpt lat="40.42148" lon="0.345975">
        <ele>131.36768</ele>
        <time>2024-10-06T11:19:34.000Z</time>
      </trkpt>
      <trkpt lat="40.421455" lon="0.345982">
        <ele>131.242955</ele>
        <time>2024-10-06T11:19:34.000Z</time>
      </trkpt>
      <trkpt lat="40.421406" lon="0.345996">
        <ele>131.079546</ele>
        <time>2024-10-06T11:19:35.000Z</time>
      </trkpt>
      <trkpt lat="40.420222" lon="0.346846">
        <ele>124.271833</ele>
        <time>2024-10-06T11:19:50.000Z</time>
      </trkpt>
      <trkpt lat="40.41899" lon="0.347729">
        <ele>117.559684</ele>
        <time>2024-10-06T11:20:06.000Z</time>
      </trkpt>
      <trkpt lat="40.418564" lon="0.348098">
        <ele>115.498574</ele>
        <time>2024-10-06T11:20:12.000Z</time>
      </trkpt>
      <trkpt lat="40.415998" lon="0.350619">
        <ele>105.624916</ele>
        <time>2024-10-06T11:20:48.000Z</time>
      </trkpt>
      <trkpt lat="40.415197" lon="0.351162">
        <ele>102.957569</ele>
        <time>2024-10-06T11:20:58.000Z</time>
      </trkpt>
      <trkpt lat="40.414054" lon="0.351708">
        <ele>99.708924</ele>
        <time>2024-10-06T11:21:12.000Z</time>
      </trkpt>
      <trkpt lat="40.413714" lon="0.351836">
        <ele>98.759418</ele>
        <time>2024-10-06T11:21:16.000Z</time>
      </trkpt>
      <trkpt lat="40.413604" lon="0.351885">
        <ele>98.48067</ele>
        <time>2024-10-06T11:21:17.000Z</time>
      </trkpt>
      <trkpt lat="40.412468" lon="0.352089">
        <ele>95.121882</ele>
        <time>2024-10-06T11:21:30.000Z</time>
      </trkpt>
      <trkpt lat="40.411853" lon="0.352002">
        <ele>93.2461</ele>
        <time>2024-10-06T11:21:37.000Z</time>
      </trkpt>
      <trkpt lat="40.410829" lon="0.352872">
        <ele>88.159774</ele>
        <time>2024-10-06T11:21:51.000Z</time>
      </trkpt>
      <trkpt lat="40.409951" lon="0.353519">
        <ele>83.462278</ele>
        <time>2024-10-06T11:22:02.000Z</time>
      </trkpt>
      <trkpt lat="40.406131" lon="0.357145">
        <ele>61.114106</ele>
        <time>2024-10-06T11:22:54.000Z</time>
      </trkpt>
      <trkpt lat="40.405845" lon="0.357393">
        <ele>59.618736</ele>
        <time>2024-10-06T11:22:58.000Z</time>
      </trkpt>
      <trkpt lat="40.405681" lon="0.357468">
        <ele>58.863701</ele>
        <time>2024-10-06T11:23:00.000Z</time>
      </trkpt>
      <trkpt lat="40.40483" lon="0.357593">
        <ele>56.943144</ele>
        <time>2024-10-06T11:23:10.000Z</time>
      </trkpt>
      <trkpt lat="40.40442" lon="0.357807">
        <ele>56.050496</ele>
        <time>2024-10-06T11:23:15.000Z</time>
      </trkpt>
      <trkpt lat="40.404075" lon="0.358104">
        <ele>55.159214</ele>
        <time>2024-10-06T11:23:20.000Z</time>
      </trkpt>
      <trkpt lat="40.403685" lon="0.358555">
        <ele>53.853756</ele>
        <time>2024-10-06T11:23:26.000Z</time>
      </trkpt>
      <trkpt lat="40.403405" lon="0.358873">
        <ele>52.848479</ele>
        <time>2024-10-06T11:23:30.000Z</time>
      </trkpt>
      <trkpt lat="40.402865" lon="0.359494">
        <ele>50.95635</ele>
        <time>2024-10-06T11:23:38.000Z</time>
      </trkpt>
      <trkpt lat="40.401965" lon="0.360437">
        <ele>47.64451</ele>
        <time>2024-10-06T11:23:51.000Z</time>
      </trkpt>
      <trkpt lat="40.401918" lon="0.360506">
        <ele>47.417625</ele>
        <time>2024-10-06T11:23:52.000Z</time>
      </trkpt>
      <trkpt lat="40.40185" lon="0.360599">
        <ele>47.097582</ele>
        <time>2024-10-06T11:23:53.000Z</time>
      </trkpt>
      <trkpt lat="40.40145" lon="0.361024">
        <ele>45.569735</ele>
        <time>2024-10-06T11:23:59.000Z</time>
      </trkpt>
      <trkpt lat="40.40132" lon="0.361106">
        <ele>45.134878</ele>
        <time>2024-10-06T11:24:01.000Z</time>
      </trkpt>
      <trkpt lat="40.400699" lon="0.361164">
        <ele>44.80507</ele>
        <time>2024-10-06T11:24:08.000Z</time>
      </trkpt>
      <trkpt lat="40.400555" lon="0.361209">
        <ele>44.82278</ele>
        <time>2024-10-06T11:24:10.000Z</time>
      </trkpt>
      <trkpt lat="40.399993" lon="0.361506">
        <ele>44.892463</ele>
        <time>2024-10-06T11:24:17.000Z</time>
      </trkpt>
      <trkpt lat="40.399881" lon="0.361516">
        <ele>44.905885</ele>
        <time>2024-10-06T11:24:18.000Z</time>
      </trkpt>
      <trkpt lat="40.399804" lon="0.361473">
        <ele>44.916948</ele>
        <time>2024-10-06T11:24:19.000Z</time>
      </trkpt>
      <trkpt lat="40.399382" lon="0.360873">
        <ele>45.28273</ele>
        <time>2024-10-06T11:24:26.000Z</time>
      </trkpt>
      <trkpt lat="40.399053" lon="0.36032">
        <ele>45.950533</ele>
        <time>2024-10-06T11:24:32.000Z</time>
      </trkpt>
      <trkpt lat="40.398899" lon="0.360175">
        <ele>46.183399</ele>
        <time>2024-10-06T11:24:34.000Z</time>
      </trkpt>
      <trkpt lat="40.398547" lon="0.359898">
        <ele>46.699695</ele>
        <time>2024-10-06T11:24:39.000Z</time>
      </trkpt>
      <trkpt lat="40.398385" lon="0.359851">
        <ele>46.887803</ele>
        <time>2024-10-06T11:24:41.000Z</time>
      </trkpt>
      <trkpt lat="40.398246" lon="0.359841">
        <ele>47.060292</ele>
        <time>2024-10-06T11:24:43.000Z</time>
      </trkpt>
      <trkpt lat="40.398155" lon="0.359917">
        <ele>47.196979</ele>
        <time>2024-10-06T11:24:44.000Z</time>
      </trkpt>
      <trkpt lat="40.397966" lon="0.360183">
        <ele>47.335522</ele>
        <time>2024-10-06T11:24:47.000Z</time>
      </trkpt>
      <trkpt lat="40.397831" lon="0.360495">
        <ele>47.481003</ele>
        <time>2024-10-06T11:24:50.000Z</time>
      </trkpt>
      <trkpt lat="40.39746" lon="0.361453">
        <ele>47.897797</ele>
        <time>2024-10-06T11:24:59.000Z</time>
      </trkpt>
      <trkpt lat="40.397359" lon="0.361675">
        <ele>48.005824</ele>
        <time>2024-10-06T11:25:01.000Z</time>
      </trkpt>
      <trkpt lat="40.397218" lon="0.361839">
        <ele>48.100933</ele>
        <time>2024-10-06T11:25:03.000Z</time>
      </trkpt>
      <trkpt lat="40.397079" lon="0.361884">
        <ele>48.191126</ele>
        <time>2024-10-06T11:25:05.000Z</time>
      </trkpt>
      <trkpt lat="40.396971" lon="0.361913">
        <ele>48.280904</ele>
        <time>2024-10-06T11:25:06.000Z</time>
      </trkpt>
      <trkpt lat="40.396838" lon="0.361903">
        <ele>48.370134</ele>
        <time>2024-10-06T11:25:07.000Z</time>
      </trkpt>
      <trkpt lat="40.396715" lon="0.361844">
        <ele>48.475319</ele>
        <time>2024-10-06T11:25:08.000Z</time>
      </trkpt>
      <trkpt lat="40.396578" lon="0.36174">
        <ele>48.583034</ele>
        <time>2024-10-06T11:25:10.000Z</time>
      </trkpt>
      <trkpt lat="40.396508" lon="0.36161">
        <ele>48.675247</ele>
        <time>2024-10-06T11:25:11.000Z</time>
      </trkpt>
      <trkpt lat="40.39613" lon="0.360575">
        <ele>49.309325</ele>
        <time>2024-10-06T11:25:21.000Z</time>
      </trkpt>
      <trkpt lat="40.396065" lon="0.360332">
        <ele>49.472209</ele>
        <time>2024-10-06T11:25:23.000Z</time>
      </trkpt>
      <trkpt lat="40.396027" lon="0.360032">
        <ele>49.722376</ele>
        <time>2024-10-06T11:25:26.000Z</time>
      </trkpt>
      <trkpt lat="40.395935" lon="0.358646">
        <ele>50.888801</ele>
        <time>2024-10-06T11:25:38.000Z</time>
      </trkpt>
      <trkpt lat="40.395834" lon="0.35822">
        <ele>51.260262</ele>
        <time>2024-10-06T11:25:42.000Z</time>
      </trkpt>
      <trkpt lat="40.395661" lon="0.357898">
        <ele>51.589981</ele>
        <time>2024-10-06T11:25:45.000Z</time>
      </trkpt>
      <trkpt lat="40.395353" lon="0.35745">
        <ele>52.120031</ele>
        <time>2024-10-06T11:25:50.000Z</time>
      </trkpt>
      <trkpt lat="40.395166" lon="0.357302">
        <ele>52.383798</ele>
        <time>2024-10-06T11:25:52.000Z</time>
      </trkpt>
      <trkpt lat="40.395019" lon="0.357218">
        <ele>52.558448</ele>
        <time>2024-10-06T11:25:54.000Z</time>
      </trkpt>
      <trkpt lat="40.39472" lon="0.357186">
        <ele>52.895711</ele>
        <time>2024-10-06T11:25:57.000Z</time>
      </trkpt>
      <trkpt lat="40.394607" lon="0.357028">
        <ele>53.094912</ele>
        <time>2024-10-06T11:25:59.000Z</time>
      </trkpt>
      <trkpt lat="40.394437" lon="0.356941">
        <ele>53.295471</ele>
        <time>2024-10-06T11:26:01.000Z</time>
      </trkpt>
      <trkpt lat="40.394208" lon="0.356914">
        <ele>53.566085</ele>
        <time>2024-10-06T11:26:04.000Z</time>
      </trkpt>
      <trkpt lat="40.393986" lon="0.357026">
        <ele>53.835271</ele>
        <time>2024-10-06T11:26:07.000Z</time>
      </trkpt>
      <trkpt lat="40.393819" lon="0.357236">
        <ele>54.104526</ele>
        <time>2024-10-06T11:26:10.000Z</time>
      </trkpt>
      <trkpt lat="40.393741" lon="0.357538">
        <ele>54.373081</ele>
        <time>2024-10-06T11:26:13.000Z</time>
      </trkpt>
      <trkpt lat="40.393728" lon="0.357648">
        <ele>54.471496</ele>
        <time>2024-10-06T11:26:14.000Z</time>
      </trkpt>
      <trkpt lat="40.393392" lon="0.358222">
        <ele>55.110585</ele>
        <time>2024-10-06T11:26:20.000Z</time>
      </trkpt>
      <trkpt lat="40.393289" lon="0.358478">
        <ele>55.358668</ele>
        <time>2024-10-06T11:26:22.000Z</time>
      </trkpt>
      <trkpt lat="40.393226" lon="0.358726">
        <ele>55.490924</ele>
        <time>2024-10-06T11:26:24.000Z</time>
      </trkpt>
      <trkpt lat="40.39318" lon="0.359061">
        <ele>55.229313</ele>
        <time>2024-10-06T11:26:27.000Z</time>
      </trkpt>
      <trkpt lat="40.393194" lon="0.359429">
        <ele>54.94329</ele>
        <time>2024-10-06T11:26:30.000Z</time>
      </trkpt>
      <trkpt lat="40.39324" lon="0.35974">
        <ele>54.698136</ele>
        <time>2024-10-06T11:26:33.000Z</time>
      </trkpt>
      <trkpt lat="40.393357" lon="0.360058">
        <ele>54.420513</ele>
        <time>2024-10-06T11:26:36.000Z</time>
      </trkpt>
      <trkpt lat="40.393487" lon="0.360317">
        <ele>54.167319</ele>
        <time>2024-10-06T11:26:39.000Z</time>
      </trkpt>
      <trkpt lat="40.393779" lon="0.360655">
        <ele>53.771511</ele>
        <time>2024-10-06T11:26:43.000Z</time>
      </trkpt>
      <trkpt lat="40.394636" lon="0.361226">
        <ele>51.696247</ele>
        <time>2024-10-06T11:26:54.000Z</time>
      </trkpt>
      <trkpt lat="40.394869" lon="0.361427">
        <ele>51.052179</ele>
        <time>2024-10-06T11:26:57.000Z</time>
      </trkpt>
      <trkpt lat="40.395124" lon="0.361683">
        <ele>50.29788</ele>
        <time>2024-10-06T11:27:01.000Z</time>
      </trkpt>
      <trkpt lat="40.395323" lon="0.361955">
        <ele>49.646967</ele>
        <time>2024-10-06T11:27:04.000Z</time>
      </trkpt>
      <trkpt lat="40.39552" lon="0.362246">
        <ele>49.198024</ele>
        <time>2024-10-06T11:27:07.000Z</time>
      </trkpt>
      <trkpt lat="40.395684" lon="0.362577">
        <ele>48.720674</ele>
        <time>2024-10-06T11:27:10.000Z</time>
      </trkpt>
      <trkpt lat="40.395909" lon="0.363274">
        <ele>47.873505</ele>
        <time>2024-10-06T11:27:16.000Z</time>
      </trkpt>
      <trkpt lat="40.395996" lon="0.36368">
        <ele>47.382008</ele>
        <time>2024-10-06T11:27:20.000Z</time>
      </trkpt>
      <trkpt lat="40.39603" lon="0.364062">
        <ele>46.937065</ele>
        <time>2024-10-06T11:27:23.000Z</time>
      </trkpt>
      <trkpt lat="40.396035" lon="0.364472">
        <ele>46.854752</ele>
        <time>2024-10-06T11:27:26.000Z</time>
      </trkpt>
      <trkpt lat="40.395962" lon="0.36522">
        <ele>46.787234</ele>
        <time>2024-10-06T11:27:32.000Z</time>
      </trkpt>
      <trkpt lat="40.395837" lon="0.365708">
        <ele>46.74364</ele>
        <time>2024-10-06T11:27:36.000Z</time>
      </trkpt>
      <trkpt lat="40.395282" lon="0.36721">
        <ele>46.917432</ele>
        <time>2024-10-06T11:27:50.000Z</time>
      </trkpt>
      <trkpt lat="40.394937" lon="0.36813">
        <ele>47.17783</ele>
        <time>2024-10-06T11:27:59.000Z</time>
      </trkpt>
      <trkpt lat="40.393862" lon="0.370977">
        <ele>47.995573</ele>
        <time>2024-10-06T11:28:26.000Z</time>
      </trkpt>
      <trkpt lat="40.393498" lon="0.37191">
        <ele>48.421312</ele>
        <time>2024-10-06T11:28:35.000Z</time>
      </trkpt>
      <trkpt lat="40.392924" lon="0.373427">
        <ele>49.279277</ele>
        <time>2024-10-06T11:28:49.000Z</time>
      </trkpt>
      <trkpt lat="40.392688" lon="0.373949">
        <ele>49.665217</ele>
        <time>2024-10-06T11:28:54.000Z</time>
      </trkpt>
      <trkpt lat="40.392439" lon="0.374326">
        <ele>49.9798</ele>
        <time>2024-10-06T11:28:58.000Z</time>
      </trkpt>
      <trkpt lat="40.392211" lon="0.374648">
        <ele>50.249902</ele>
        <time>2024-10-06T11:29:02.000Z</time>
      </trkpt>
      <trkpt lat="40.391702" lon="0.375138">
        <ele>50.437768</ele>
        <time>2024-10-06T11:29:09.000Z</time>
      </trkpt>
      <trkpt lat="40.391685" lon="0.37516">
        <ele>50.449503</ele>
        <time>2024-10-06T11:29:09.000Z</time>
      </trkpt>
      <trkpt lat="40.391116" lon="0.375708">
        <ele>50.649315</ele>
        <time>2024-10-06T11:29:17.000Z</time>
      </trkpt>
      <trkpt lat="40.390093" lon="0.376693">
        <ele>49.72298</ele>
        <time>2024-10-06T11:29:31.000Z</time>
      </trkpt>
      <trkpt lat="40.389367" lon="0.37739">
        <ele>48.577663</ele>
        <time>2024-10-06T11:29:41.000Z</time>
      </trkpt>
      <trkpt lat="40.38857" lon="0.378166">
        <ele>46.554075</ele>
        <time>2024-10-06T11:29:52.000Z</time>
      </trkpt>
      <trkpt lat="40.38742" lon="0.379263">
        <ele>43.594904</ele>
        <time>2024-10-06T11:30:08.000Z</time>
      </trkpt>
      <trkpt lat="40.386784" lon="0.379871">
        <ele>41.978843</ele>
        <time>2024-10-06T11:30:17.000Z</time>
      </trkpt>
      <trkpt lat="40.382354" lon="0.384103">
        <ele>33.474076</ele>
        <time>2024-10-06T11:31:18.000Z</time>
      </trkpt>
      <trkpt lat="40.38189" lon="0.38454">
        <ele>32.901217</ele>
        <time>2024-10-06T11:31:24.000Z</time>
      </trkpt>
      <trkpt lat="40.381782" lon="0.384655">
        <ele>32.841829</ele>
        <time>2024-10-06T11:31:26.000Z</time>
      </trkpt>
      <trkpt lat="40.381432" lon="0.384994">
        <ele>32.652523</ele>
        <time>2024-10-06T11:31:31.000Z</time>
      </trkpt>
      <trkpt lat="40.380599" lon="0.38579">
        <ele>32.213305</ele>
        <time>2024-10-06T11:31:42.000Z</time>
      </trkpt>
      <trkpt lat="40.380341" lon="0.386044">
        <ele>31.84119</ele>
        <time>2024-10-06T11:31:46.000Z</time>
      </trkpt>
      <trkpt lat="40.379128" lon="0.387238">
        <ele>29.992703</ele>
        <time>2024-10-06T11:32:03.000Z</time>
      </trkpt>
      <trkpt lat="40.378907" lon="0.387599">
        <ele>29.372424</ele>
        <time>2024-10-06T11:32:07.000Z</time>
      </trkpt>
      <trkpt lat="40.378778" lon="0.387717">
        <ele>29.077404</ele>
        <time>2024-10-06T11:32:09.000Z</time>
      </trkpt>
      <trkpt lat="40.378678" lon="0.387762">
        <ele>28.882624</ele>
        <time>2024-10-06T11:32:10.000Z</time>
      </trkpt>
      <trkpt lat="40.378574" lon="0.387722">
        <ele>28.702382</ele>
        <time>2024-10-06T11:32:11.000Z</time>
      </trkpt>
      <trkpt lat="40.378505" lon="0.387735">
        <ele>28.567168</ele>
        <time>2024-10-06T11:32:12.000Z</time>
      </trkpt>
      <trkpt lat="40.378455" lon="0.387806">
        <ele>28.433457</ele>
        <time>2024-10-06T11:32:13.000Z</time>
      </trkpt>
      <trkpt lat="40.378415" lon="0.38791">
        <ele>28.298871</ele>
        <time>2024-10-06T11:32:14.000Z</time>
      </trkpt>
      <trkpt lat="40.378273" lon="0.388066">
        <ele>27.949609</ele>
        <time>2024-10-06T11:32:16.000Z</time>
      </trkpt>
      <trkpt lat="40.377457" lon="0.388418">
        <ele>26.478321</ele>
        <time>2024-10-06T11:32:26.000Z</time>
      </trkpt>
      <trkpt lat="40.376752" lon="0.388662">
        <ele>25.355045</ele>
        <time>2024-10-06T11:32:34.000Z</time>
      </trkpt>
      <trkpt lat="40.37673" lon="0.38867">
        <ele>25.292579</ele>
        <time>2024-10-06T11:32:34.000Z</time>
      </trkpt>
      <trkpt lat="40.376443" lon="0.388774">
        <ele>24.833687</ele>
        <time>2024-10-06T11:32:37.000Z</time>
      </trkpt>
      <trkpt lat="40.375843" lon="0.38901">
        <ele>23.908002</ele>
        <time>2024-10-06T11:32:44.000Z</time>
      </trkpt>
      <trkpt lat="40.375338" lon="0.389255">
        <ele>23.310557</ele>
        <time>2024-10-06T11:32:50.000Z</time>
      </trkpt>
      <trkpt lat="40.37463" lon="0.389662">
        <ele>22.460131</ele>
        <time>2024-10-06T11:32:59.000Z</time>
      </trkpt>
      <trkpt lat="40.373675" lon="0.390171">
        <ele>21.167778</ele>
        <time>2024-10-06T11:33:10.000Z</time>
      </trkpt>
      <trkpt lat="40.372427" lon="0.390871">
        <ele>19.199787</ele>
        <time>2024-10-06T11:33:25.000Z</time>
      </trkpt>
      <trkpt lat="40.372207" lon="0.391002">
        <ele>18.6751</ele>
        <time>2024-10-06T11:33:28.000Z</time>
      </trkpt>
      <trkpt lat="40.372148" lon="0.391033">
        <ele>18.53712</ele>
        <time>2024-10-06T11:33:29.000Z</time>
      </trkpt>
      <trkpt lat="40.372097" lon="0.391057">
        <ele>18.412747</ele>
        <time>2024-10-06T11:33:30.000Z</time>
      </trkpt>
      <trkpt lat="40.371988" lon="0.391117">
        <ele>18.161416</ele>
        <time>2024-10-06T11:33:31.000Z</time>
      </trkpt>
      <trkpt lat="40.370938" lon="0.391698">
        <ele>15.751124</ele>
        <time>2024-10-06T11:33:44.000Z</time>
      </trkpt>
      <trkpt lat="40.370493" lon="0.391953">
        <ele>15.131161</ele>
        <time>2024-10-06T11:33:49.000Z</time>
      </trkpt>
      <trkpt lat="40.370244" lon="0.392069">
        <ele>14.759988</ele>
        <time>2024-10-06T11:33:52.000Z</time>
      </trkpt>
      <trkpt lat="40.369909" lon="0.392271">
        <ele>14.270079</ele>
        <time>2024-10-06T11:33:56.000Z</time>
      </trkpt>
      <trkpt lat="40.369332" lon="0.392597">
        <ele>13.422277</ele>
        <time>2024-10-06T11:34:03.000Z</time>
      </trkpt>
      <trkpt lat="40.368912" lon="0.392825">
        <ele>13.324246</ele>
        <time>2024-10-06T11:34:08.000Z</time>
      </trkpt>
      <trkpt lat="40.36844" lon="0.393083">
        <ele>13.256024</ele>
        <time>2024-10-06T11:34:14.000Z</time>
      </trkpt>
      <trkpt lat="40.368281" lon="0.393172">
        <ele>13.231832</ele>
        <time>2024-10-06T11:34:16.000Z</time>
      </trkpt>
      <trkpt lat="40.36827" lon="0.39318">
        <ele>13.228972</ele>
        <time>2024-10-06T11:34:16.000Z</time>
      </trkpt>
      <trkpt lat="40.368015" lon="0.393258">
        <ele>13.193692</ele>
        <time>2024-10-06T11:34:19.000Z</time>
      </trkpt>
      <trkpt lat="40.367904" lon="0.39324">
        <ele>13.177599</ele>
        <time>2024-10-06T11:34:20.000Z</time>
      </trkpt>
      <trkpt lat="40.367837" lon="0.393197">
        <ele>13.16644</ele>
        <time>2024-10-06T11:34:21.000Z</time>
      </trkpt>
      <trkpt lat="40.36768" lon="0.393153">
        <ele>13.144194</ele>
        <time>2024-10-06T11:34:23.000Z</time>
      </trkpt>
      <trkpt lat="40.367522" lon="0.393255">
        <ele>13.028182</ele>
        <time>2024-10-06T11:34:25.000Z</time>
      </trkpt>
      <trkpt lat="40.367485" lon="0.393349">
        <ele>12.937975</ele>
        <time>2024-10-06T11:34:26.000Z</time>
      </trkpt>
      <trkpt lat="40.367446" lon="0.393539">
        <ele>12.759056</ele>
        <time>2024-10-06T11:34:28.000Z</time>
      </trkpt>
      <trkpt lat="40.367354" lon="0.393681">
        <ele>12.603947</ele>
        <time>2024-10-06T11:34:30.000Z</time>
      </trkpt>
      <trkpt lat="40.367346" lon="0.393693">
        <ele>12.58388</ele>
        <time>2024-10-06T11:34:30.000Z</time>
      </trkpt>
      <trkpt lat="40.365445" lon="0.394884">
        <ele>10.091837</ele>
        <time>2024-10-06T11:34:53.000Z</time>
      </trkpt>
      <trkpt lat="40.365364" lon="0.394883">
        <ele>9.985963</ele>
        <time>2024-10-06T11:34:54.000Z</time>
      </trkpt>
      <trkpt lat="40.365333" lon="0.394885">
        <ele>9.934349</ele>
        <time>2024-10-06T11:34:54.000Z</time>
      </trkpt>
      <trkpt lat="40.365216" lon="0.394846">
        <ele>9.761709</ele>
        <time>2024-10-06T11:34:55.000Z</time>
      </trkpt>
      <trkpt lat="40.365128" lon="0.39474">
        <ele>9.61136</ele>
        <time>2024-10-06T11:34:56.000Z</time>
      </trkpt>
      <trkpt lat="40.36503" lon="0.394711">
        <ele>9.460725</ele>
        <time>2024-10-06T11:34:57.000Z</time>
      </trkpt>
      <trkpt lat="40.364897" lon="0.394787">
        <ele>9.274399</ele>
        <time>2024-10-06T11:34:59.000Z</time>
      </trkpt>
      <trkpt lat="40.364856" lon="0.394918">
        <ele>9.140316</ele>
        <time>2024-10-06T11:35:00.000Z</time>
      </trkpt>
      <trkpt lat="40.364753" lon="0.394993">
        <ele>8.992574</ele>
        <time>2024-10-06T11:35:01.000Z</time>
      </trkpt>
      <trkpt lat="40.364284" lon="0.395222">
        <ele>8.422232</ele>
        <time>2024-10-06T11:35:07.000Z</time>
      </trkpt>
      <trkpt lat="40.363916" lon="0.395313">
        <ele>8.02791</ele>
        <time>2024-10-06T11:35:11.000Z</time>
      </trkpt>
      <trkpt lat="40.363766" lon="0.395377">
        <ele>7.874746</ele>
        <time>2024-10-06T11:35:13.000Z</time>
      </trkpt>
      <trkpt lat="40.362815" lon="0.395936">
        <ele>6.819438</ele>
        <time>2024-10-06T11:35:25.000Z</time>
      </trkpt>
      <trkpt lat="40.362741" lon="0.395988">
        <ele>6.751602</ele>
        <time>2024-10-06T11:35:26.000Z</time>
      </trkpt>
      <trkpt lat="40.362629" lon="0.396047">
        <ele>6.654295</ele>
        <time>2024-10-06T11:35:27.000Z</time>
      </trkpt>
      <trkpt lat="40.361688" lon="0.396608">
        <ele>5.815983</ele>
        <time>2024-10-06T11:35:38.000Z</time>
      </trkpt>
      <trkpt lat="40.361222" lon="0.396859">
        <ele>5.404776</ele>
        <time>2024-10-06T11:35:44.000Z</time>
      </trkpt>
      <trkpt lat="40.360578" lon="0.397259">
        <ele>4.809988</ele>
        <time>2024-10-06T11:35:52.000Z</time>
      </trkpt>
      <trkpt lat="40.360504" lon="0.397295">
        <ele>4.741697</ele>
        <time>2024-10-06T11:35:53.000Z</time>
      </trkpt>
      <trkpt lat="40.359875" lon="0.397689">
        <ele>4.164673</ele>
        <time>2024-10-06T11:36:01.000Z</time>
      </trkpt>
      <trkpt lat="40.359861" lon="0.397702">
        <ele>4.142942</ele>
        <time>2024-10-06T11:36:01.000Z</time>
      </trkpt>
      <trkpt lat="40.359689" lon="0.397848">
        <ele>3.978673</ele>
        <time>2024-10-06T11:36:03.000Z</time>
      </trkpt>
      <trkpt lat="40.359509" lon="0.397974">
        <ele>3.798187</ele>
        <time>2024-10-06T11:36:05.000Z</time>
      </trkpt>
      <trkpt lat="40.359491" lon="0.397959">
        <ele>3.772737</ele>
        <time>2024-10-06T11:36:05.000Z</time>
      </trkpt>
      <trkpt lat="40.359427" lon="0.398007">
        <ele>3.720012</ele>
        <time>2024-10-06T11:36:06.000Z</time>
      </trkpt>
      <trkpt lat="40.359435" lon="0.39805">
        <ele>3.694054</ele>
        <time>2024-10-06T11:36:06.000Z</time>
      </trkpt>
      <trkpt lat="40.359387" lon="0.398117">
        <ele>3.629635</ele>
        <time>2024-10-06T11:36:07.000Z</time>
      </trkpt>
      <trkpt lat="40.359277" lon="0.398284">
        <ele>3.478963</ele>
        <time>2024-10-06T11:36:09.000Z</time>
      </trkpt>
      <trkpt lat="40.359263" lon="0.398322">
        <ele>3.450505</ele>
        <time>2024-10-06T11:36:09.000Z</time>
      </trkpt>
      <trkpt lat="40.358988" lon="0.398704">
        <ele>3.098092</ele>
        <time>2024-10-06T11:36:13.000Z</time>
      </trkpt>
      <trkpt lat="40.358713" lon="0.399002">
        <ele>2.765736</ele>
        <time>2024-10-06T11:36:17.000Z</time>
      </trkpt>
      <trkpt lat="40.358665" lon="0.399152">
        <ele>2.654484</ele>
        <time>2024-10-06T11:36:18.000Z</time>
      </trkpt>
      <trkpt lat="40.358564" lon="0.399233">
        <ele>2.551275</ele>
        <time>2024-10-06T11:36:19.000Z</time>
      </trkpt>
      <trkpt lat="40.358481" lon="0.399366">
        <ele>2.431019</ele>
        <time>2024-10-06T11:36:20.000Z</time>
      </trkpt>
      <trkpt lat="40.35844" lon="0.399521">
        <ele>2.314896</ele>
        <time>2024-10-06T11:36:21.000Z</time>
      </trkpt>
      <trkpt lat="40.358453" lon="0.399683">
        <ele>2.232522</ele>
        <time>2024-10-06T11:36:22.000Z</time>
      </trkpt>
      <trkpt lat="40.358513" lon="0.399816">
        <ele>2.156709</ele>
        <time>2024-10-06T11:36:23.000Z</time>
      </trkpt>
      <trkpt lat="40.358616" lon="0.399913">
        <ele>2.081622</ele>
        <time>2024-10-06T11:36:24.000Z</time>
      </trkpt>
      <trkpt lat="40.358598" lon="0.400103">
        <ele>1.986398</ele>
        <time>2024-10-06T11:36:26.000Z</time>
      </trkpt>
      <trkpt lat="40.358604" lon="0.400293">
        <ele>1.890048</ele>
        <time>2024-10-06T11:36:28.000Z</time>
      </trkpt>
      <trkpt lat="40.358719" lon="0.401002">
        <ele>1.525914</ele>
        <time>2024-10-06T11:36:34.000Z</time>
      </trkpt>
      <trkpt lat="40.358764" lon="0.40158">
        <ele>1.243392</ele>
        <time>2024-10-06T11:36:39.000Z</time>
      </trkpt>
      <trkpt lat="40.358763" lon="0.401734">
        <ele>1.166386</ele>
        <time>2024-10-06T11:36:40.000Z</time>
      </trkpt>
      <trkpt lat="40.358708" lon="0.40239">
        <ele>1.0916223798</ele>
        <time>2024-10-06T11:36:46.000Z</time>
      </trkpt>
      <trkpt lat="40.358621" lon="0.402852">
        <ele>1.03771003526</ele>
        <time>2024-10-06T11:36:50.000Z</time>
      </trkpt>
      <trkpt lat="40.358518" lon="0.40329">
        <ele>0.985781887427</ele>
        <time>2024-10-06T11:36:54.000Z</time>
      </trkpt>
    </trkseg>
  </trk>
</gpx>

<!--
Performance optimized by W3 Total Cache. Learn more: https://www.boldgrid.com/w3-total-cache/?utm_source=w3tc&utm_medium=footer_comment&utm_campaign=free_plugin

Page Caching using Disk: Enhanced{w3tc_pagecache_reject_reason} 

Served from: www.aquabike.world @ 2026-05-10 12:22:09 by W3 Total Cache
-->